<?xml version="1.0" encoding="UTF-8" standalone="no" ?>
<gpx xmlns="http://www.topografix.com/GPX/1/1" xmlns:xsi="http://www.w3.org/2001/XMLSchema-instance" xsi:schemaLocation="http://www.topografix.com/GPX/1/1 http://www.topografix.com/GPX/1/1/gpx.xsd" version="1.1" creator="VisuGPX - https://www.visugpx.com">
  <metadata>
    <name>La Pointe de Miribel</name>
    <desc><![CDATA[Circuit au départ du parking de Plaine-Joux vers la Pointe de Miribel et retour]]></desc>
  </metadata>
  <trk>
    <name><![CDATA[20190212143738-jyEFB]]></name>
    <trkseg>
      <trkpt lat="46.19801" lon="6.46344">
        <ele>1180.16</ele>
        <time>2019-02-04T08:47:18Z</time>
      </trkpt>
      <trkpt lat="46.19802" lon="6.46341">
        <ele>1179.67</ele>
        <time>2019-02-04T08:47:28Z</time>
      </trkpt>
      <trkpt lat="46.19801" lon="6.46344">
        <ele>1182.56</ele>
        <time>2019-02-04T08:48:12Z</time>
      </trkpt>
      <trkpt lat="46.19802" lon="6.46351">
        <ele>1184.96</ele>
        <time>2019-02-04T08:49:27Z</time>
      </trkpt>
      <trkpt lat="46.19802" lon="6.46351">
        <ele>1185.92</ele>
        <time>2019-02-04T08:49:53Z</time>
      </trkpt>
      <trkpt lat="46.19802" lon="6.46353">
        <ele>1186.88</ele>
        <time>2019-02-04T08:50:17Z</time>
      </trkpt>
      <trkpt lat="46.19801" lon="6.46362">
        <ele>1186.88</ele>
        <time>2019-02-04T08:50:26Z</time>
      </trkpt>
      <trkpt lat="46.19799" lon="6.46367">
        <ele>1186.88</ele>
        <time>2019-02-04T08:50:30Z</time>
      </trkpt>
      <trkpt lat="46.19798" lon="6.4637">
        <ele>1186.88</ele>
        <time>2019-02-04T08:50:33Z</time>
      </trkpt>
      <trkpt lat="46.19795" lon="6.4638">
        <ele>1186.88</ele>
        <time>2019-02-04T08:50:43Z</time>
      </trkpt>
      <trkpt lat="46.19792" lon="6.46393">
        <ele>1186.88</ele>
        <time>2019-02-04T08:50:54Z</time>
      </trkpt>
      <trkpt lat="46.1979" lon="6.46405">
        <ele>1186.88</ele>
        <time>2019-02-04T08:51:02Z</time>
      </trkpt>
      <trkpt lat="46.19789" lon="6.46415">
        <ele>1187.85</ele>
        <time>2019-02-04T08:51:09Z</time>
      </trkpt>
      <trkpt lat="46.19785" lon="6.46435">
        <ele>1187.85</ele>
        <time>2019-02-04T08:51:24Z</time>
      </trkpt>
      <trkpt lat="46.19786" lon="6.46441">
        <ele>1188.33</ele>
        <time>2019-02-04T08:51:33Z</time>
      </trkpt>
      <trkpt lat="46.19792" lon="6.46446">
        <ele>1188.33</ele>
        <time>2019-02-04T08:51:39Z</time>
      </trkpt>
      <trkpt lat="46.198" lon="6.46446">
        <ele>1188.81</ele>
        <time>2019-02-04T08:51:53Z</time>
      </trkpt>
      <trkpt lat="46.19809" lon="6.46447">
        <ele>1188.33</ele>
        <time>2019-02-04T08:52:03Z</time>
      </trkpt>
      <trkpt lat="46.19811" lon="6.46447">
        <ele>1188.81</ele>
        <time>2019-02-04T08:52:05Z</time>
      </trkpt>
      <trkpt lat="46.1982" lon="6.46448">
        <ele>1188.81</ele>
        <time>2019-02-04T08:52:17Z</time>
      </trkpt>
      <trkpt lat="46.19831" lon="6.46455">
        <ele>1190.25</ele>
        <time>2019-02-04T08:52:29Z</time>
      </trkpt>
      <trkpt lat="46.19838" lon="6.46467">
        <ele>1191.21</ele>
        <time>2019-02-04T08:52:41Z</time>
      </trkpt>
      <trkpt lat="46.19841" lon="6.46471">
        <ele>1192.17</ele>
        <time>2019-02-04T08:52:46Z</time>
      </trkpt>
      <trkpt lat="46.19843" lon="6.46475">
        <ele>1192.65</ele>
        <time>2019-02-04T08:52:50Z</time>
      </trkpt>
      <trkpt lat="46.19844" lon="6.46479">
        <ele>1193.61</ele>
        <time>2019-02-04T08:52:54Z</time>
      </trkpt>
      <trkpt lat="46.19846" lon="6.46487">
        <ele>1195.54</ele>
        <time>2019-02-04T08:53:06Z</time>
      </trkpt>
      <trkpt lat="46.1985" lon="6.46497">
        <ele>1197.46</ele>
        <time>2019-02-04T08:53:18Z</time>
      </trkpt>
      <trkpt lat="46.19853" lon="6.46507">
        <ele>1199.86</ele>
        <time>2019-02-04T08:53:30Z</time>
      </trkpt>
      <trkpt lat="46.19858" lon="6.46514">
        <ele>1200.34</ele>
        <time>2019-02-04T08:53:42Z</time>
      </trkpt>
      <trkpt lat="46.1986" lon="6.46525">
        <ele>1200.82</ele>
        <time>2019-02-04T08:53:53Z</time>
      </trkpt>
      <trkpt lat="46.19859" lon="6.46528">
        <ele>1201.79</ele>
        <time>2019-02-04T08:53:57Z</time>
      </trkpt>
      <trkpt lat="46.19859" lon="6.46538">
        <ele>1202.75</ele>
        <time>2019-02-04T08:54:08Z</time>
      </trkpt>
      <trkpt lat="46.19858" lon="6.46546">
        <ele>1203.23</ele>
        <time>2019-02-04T08:54:23Z</time>
      </trkpt>
      <trkpt lat="46.19856" lon="6.46553">
        <ele>1205.15</ele>
        <time>2019-02-04T08:54:33Z</time>
      </trkpt>
      <trkpt lat="46.19856" lon="6.46562">
        <ele>1206.59</ele>
        <time>2019-02-04T08:54:45Z</time>
      </trkpt>
      <trkpt lat="46.19858" lon="6.46569">
        <ele>1208.51</ele>
        <time>2019-02-04T08:54:57Z</time>
      </trkpt>
      <trkpt lat="46.1986" lon="6.46578">
        <ele>1210.44</ele>
        <time>2019-02-04T08:55:08Z</time>
      </trkpt>
      <trkpt lat="46.19861" lon="6.46585">
        <ele>1211.4</ele>
        <time>2019-02-04T08:55:19Z</time>
      </trkpt>
      <trkpt lat="46.19864" lon="6.46594">
        <ele>1213.32</ele>
        <time>2019-02-04T08:55:32Z</time>
      </trkpt>
      <trkpt lat="46.19864" lon="6.46599">
        <ele>1215.24</ele>
        <time>2019-02-04T08:55:41Z</time>
      </trkpt>
      <trkpt lat="46.19864" lon="6.46604">
        <ele>1216.21</ele>
        <time>2019-02-04T08:55:53Z</time>
      </trkpt>
      <trkpt lat="46.19865" lon="6.4661">
        <ele>1218.13</ele>
        <time>2019-02-04T08:56:03Z</time>
      </trkpt>
      <trkpt lat="46.19866" lon="6.46617">
        <ele>1220.05</ele>
        <time>2019-02-04T08:56:12Z</time>
      </trkpt>
      <trkpt lat="46.19868" lon="6.46623">
        <ele>1221.01</ele>
        <time>2019-02-04T08:56:23Z</time>
      </trkpt>
      <trkpt lat="46.19871" lon="6.4663">
        <ele>1223.42</ele>
        <time>2019-02-04T08:56:34Z</time>
      </trkpt>
      <trkpt lat="46.19874" lon="6.46635">
        <ele>1224.86</ele>
        <time>2019-02-04T08:56:46Z</time>
      </trkpt>
      <trkpt lat="46.19875" lon="6.46641">
        <ele>1225.82</ele>
        <time>2019-02-04T08:56:56Z</time>
      </trkpt>
      <trkpt lat="46.19876" lon="6.46649">
        <ele>1227.26</ele>
        <time>2019-02-04T08:57:06Z</time>
      </trkpt>
      <trkpt lat="46.19876" lon="6.46651">
        <ele>1227.74</ele>
        <time>2019-02-04T08:57:08Z</time>
      </trkpt>
      <trkpt lat="46.19873" lon="6.46655">
        <ele>1228.22</ele>
        <time>2019-02-04T08:57:18Z</time>
      </trkpt>
      <trkpt lat="46.19873" lon="6.46655">
        <ele>1231.11</ele>
        <time>2019-02-04T08:59:07Z</time>
      </trkpt>
      <trkpt lat="46.19871" lon="6.46658">
        <ele>1231.59</ele>
        <time>2019-02-04T08:59:18Z</time>
      </trkpt>
      <trkpt lat="46.1987" lon="6.46659">
        <ele>1233.03</ele>
        <time>2019-02-04T09:00:13Z</time>
      </trkpt>
      <trkpt lat="46.1987" lon="6.46659">
        <ele>1234.47</ele>
        <time>2019-02-04T09:01:48Z</time>
      </trkpt>
      <trkpt lat="46.19867" lon="6.46661">
        <ele>1234.95</ele>
        <time>2019-02-04T09:02:42Z</time>
      </trkpt>
      <trkpt lat="46.19863" lon="6.46671">
        <ele>1235.91</ele>
        <time>2019-02-04T09:02:53Z</time>
      </trkpt>
      <trkpt lat="46.19862" lon="6.46672">
        <ele>1235.43</ele>
        <time>2019-02-04T09:03:09Z</time>
      </trkpt>
      <trkpt lat="46.19861" lon="6.46674">
        <ele>1236.39</ele>
        <time>2019-02-04T09:03:44Z</time>
      </trkpt>
      <trkpt lat="46.1986" lon="6.46681">
        <ele>1237.35</ele>
        <time>2019-02-04T09:04:44Z</time>
      </trkpt>
      <trkpt lat="46.19856" lon="6.46696">
        <ele>1236.87</ele>
        <time>2019-02-04T09:04:58Z</time>
      </trkpt>
      <trkpt lat="46.19854" lon="6.46704">
        <ele>1236.87</ele>
        <time>2019-02-04T09:05:08Z</time>
      </trkpt>
      <trkpt lat="46.19853" lon="6.46705">
        <ele>1236.39</ele>
        <time>2019-02-04T09:05:11Z</time>
      </trkpt>
      <trkpt lat="46.19847" lon="6.46715">
        <ele>1236.87</ele>
        <time>2019-02-04T09:05:24Z</time>
      </trkpt>
      <trkpt lat="46.19842" lon="6.46728">
        <ele>1235.43</ele>
        <time>2019-02-04T09:05:37Z</time>
      </trkpt>
      <trkpt lat="46.19841" lon="6.4673">
        <ele>1235.91</ele>
        <time>2019-02-04T09:05:39Z</time>
      </trkpt>
      <trkpt lat="46.19838" lon="6.46739">
        <ele>1234.47</ele>
        <time>2019-02-04T09:05:51Z</time>
      </trkpt>
      <trkpt lat="46.19835" lon="6.46747">
        <ele>1233.99</ele>
        <time>2019-02-04T09:06:01Z</time>
      </trkpt>
      <trkpt lat="46.19833" lon="6.46752">
        <ele>1233.51</ele>
        <time>2019-02-04T09:06:06Z</time>
      </trkpt>
      <trkpt lat="46.19829" lon="6.46761">
        <ele>1232.55</ele>
        <time>2019-02-04T09:06:18Z</time>
      </trkpt>
      <trkpt lat="46.19826" lon="6.4677">
        <ele>1232.55</ele>
        <time>2019-02-04T09:06:28Z</time>
      </trkpt>
      <trkpt lat="46.19826" lon="6.46773">
        <ele>1232.07</ele>
        <time>2019-02-04T09:06:31Z</time>
      </trkpt>
      <trkpt lat="46.19824" lon="6.46783">
        <ele>1231.11</ele>
        <time>2019-02-04T09:06:43Z</time>
      </trkpt>
      <trkpt lat="46.19823" lon="6.46787">
        <ele>1231.11</ele>
        <time>2019-02-04T09:06:46Z</time>
      </trkpt>
      <trkpt lat="46.1982" lon="6.46795">
        <ele>1230.62</ele>
        <time>2019-02-04T09:06:56Z</time>
      </trkpt>
      <trkpt lat="46.19818" lon="6.46807">
        <ele>1230.14</ele>
        <time>2019-02-04T09:07:09Z</time>
      </trkpt>
      <trkpt lat="46.19816" lon="6.46813">
        <ele>1229.18</ele>
        <time>2019-02-04T09:07:23Z</time>
      </trkpt>
      <trkpt lat="46.19816" lon="6.46814">
        <ele>1229.18</ele>
        <time>2019-02-04T09:07:34Z</time>
      </trkpt>
      <trkpt lat="46.19812" lon="6.46826">
        <ele>1227.74</ele>
        <time>2019-02-04T09:07:46Z</time>
      </trkpt>
      <trkpt lat="46.1981" lon="6.46836">
        <ele>1226.3</ele>
        <time>2019-02-04T09:07:57Z</time>
      </trkpt>
      <trkpt lat="46.19808" lon="6.46844">
        <ele>1225.34</ele>
        <time>2019-02-04T09:08:09Z</time>
      </trkpt>
      <trkpt lat="46.19807" lon="6.46851">
        <ele>1223.9</ele>
        <time>2019-02-04T09:08:22Z</time>
      </trkpt>
      <trkpt lat="46.19804" lon="6.46858">
        <ele>1222.93</ele>
        <time>2019-02-04T09:08:33Z</time>
      </trkpt>
      <trkpt lat="46.19802" lon="6.46863">
        <ele>1221.01</ele>
        <time>2019-02-04T09:08:46Z</time>
      </trkpt>
      <trkpt lat="46.19801" lon="6.46868">
        <ele>1220.05</ele>
        <time>2019-02-04T09:08:55Z</time>
      </trkpt>
      <trkpt lat="46.19798" lon="6.46873">
        <ele>1216.69</ele>
        <time>2019-02-04T09:09:05Z</time>
      </trkpt>
      <trkpt lat="46.19797" lon="6.46873">
        <ele>1217.17</ele>
        <time>2019-02-04T09:09:06Z</time>
      </trkpt>
      <trkpt lat="46.19789" lon="6.46886">
        <ele>1216.21</ele>
        <time>2019-02-04T09:09:19Z</time>
      </trkpt>
      <trkpt lat="46.19786" lon="6.46893">
        <ele>1216.69</ele>
        <time>2019-02-04T09:09:26Z</time>
      </trkpt>
      <trkpt lat="46.19785" lon="6.46906">
        <ele>1218.13</ele>
        <time>2019-02-04T09:09:37Z</time>
      </trkpt>
      <trkpt lat="46.19781" lon="6.46914">
        <ele>1218.13</ele>
        <time>2019-02-04T09:09:45Z</time>
      </trkpt>
      <trkpt lat="46.19781" lon="6.46916">
        <ele>1218.13</ele>
        <time>2019-02-04T09:09:47Z</time>
      </trkpt>
      <trkpt lat="46.19778" lon="6.46928">
        <ele>1219.57</ele>
        <time>2019-02-04T09:10:01Z</time>
      </trkpt>
      <trkpt lat="46.19775" lon="6.46934">
        <ele>1220.05</ele>
        <time>2019-02-04T09:10:11Z</time>
      </trkpt>
      <trkpt lat="46.19774" lon="6.46942">
        <ele>1221.49</ele>
        <time>2019-02-04T09:10:21Z</time>
      </trkpt>
      <trkpt lat="46.19775" lon="6.46951">
        <ele>1221.97</ele>
        <time>2019-02-04T09:10:33Z</time>
      </trkpt>
      <trkpt lat="46.19774" lon="6.46958">
        <ele>1222.93</ele>
        <time>2019-02-04T09:10:42Z</time>
      </trkpt>
      <trkpt lat="46.19766" lon="6.46961">
        <ele>1223.9</ele>
        <time>2019-02-04T09:10:55Z</time>
      </trkpt>
      <trkpt lat="46.1976" lon="6.46964">
        <ele>1224.38</ele>
        <time>2019-02-04T09:11:05Z</time>
      </trkpt>
      <trkpt lat="46.19752" lon="6.46966">
        <ele>1225.34</ele>
        <time>2019-02-04T09:11:15Z</time>
      </trkpt>
      <trkpt lat="46.19745" lon="6.46967">
        <ele>1225.82</ele>
        <time>2019-02-04T09:11:26Z</time>
      </trkpt>
      <trkpt lat="46.19737" lon="6.46969">
        <ele>1227.26</ele>
        <time>2019-02-04T09:11:38Z</time>
      </trkpt>
      <trkpt lat="46.1973" lon="6.46972">
        <ele>1229.66</ele>
        <time>2019-02-04T09:11:49Z</time>
      </trkpt>
      <trkpt lat="46.19723" lon="6.46972">
        <ele>1228.7</ele>
        <time>2019-02-04T09:12:01Z</time>
      </trkpt>
      <trkpt lat="46.19716" lon="6.46975">
        <ele>1230.14</ele>
        <time>2019-02-04T09:12:12Z</time>
      </trkpt>
      <trkpt lat="46.19715" lon="6.46976">
        <ele>1230.14</ele>
        <time>2019-02-04T09:12:14Z</time>
      </trkpt>
      <trkpt lat="46.19707" lon="6.46979">
        <ele>1232.07</ele>
        <time>2019-02-04T09:12:26Z</time>
      </trkpt>
      <trkpt lat="46.197" lon="6.46981">
        <ele>1233.03</ele>
        <time>2019-02-04T09:12:38Z</time>
      </trkpt>
      <trkpt lat="46.19692" lon="6.46983">
        <ele>1234.47</ele>
        <time>2019-02-04T09:12:50Z</time>
      </trkpt>
      <trkpt lat="46.19686" lon="6.46986">
        <ele>1235.43</ele>
        <time>2019-02-04T09:13:01Z</time>
      </trkpt>
      <trkpt lat="46.19679" lon="6.4699">
        <ele>1236.39</ele>
        <time>2019-02-04T09:13:13Z</time>
      </trkpt>
      <trkpt lat="46.19673" lon="6.46996">
        <ele>1236.39</ele>
        <time>2019-02-04T09:13:25Z</time>
      </trkpt>
      <trkpt lat="46.19673" lon="6.46997">
        <ele>1237.35</ele>
        <time>2019-02-04T09:13:26Z</time>
      </trkpt>
      <trkpt lat="46.19667" lon="6.47003">
        <ele>1237.83</ele>
        <time>2019-02-04T09:13:37Z</time>
      </trkpt>
      <trkpt lat="46.19663" lon="6.4701">
        <ele>1237.83</ele>
        <time>2019-02-04T09:13:47Z</time>
      </trkpt>
      <trkpt lat="46.1966" lon="6.47018">
        <ele>1238.32</ele>
        <time>2019-02-04T09:13:57Z</time>
      </trkpt>
      <trkpt lat="46.19657" lon="6.47023">
        <ele>1239.28</ele>
        <time>2019-02-04T09:14:07Z</time>
      </trkpt>
      <trkpt lat="46.19653" lon="6.47031">
        <ele>1239.76</ele>
        <time>2019-02-04T09:14:17Z</time>
      </trkpt>
      <trkpt lat="46.19649" lon="6.4704">
        <ele>1239.76</ele>
        <time>2019-02-04T09:14:29Z</time>
      </trkpt>
      <trkpt lat="46.19642" lon="6.47048">
        <ele>1241.2</ele>
        <time>2019-02-04T09:14:40Z</time>
      </trkpt>
      <trkpt lat="46.19638" lon="6.47056">
        <ele>1241.68</ele>
        <time>2019-02-04T09:14:50Z</time>
      </trkpt>
      <trkpt lat="46.1963" lon="6.47064">
        <ele>1243.12</ele>
        <time>2019-02-04T09:15:02Z</time>
      </trkpt>
      <trkpt lat="46.19624" lon="6.4707">
        <ele>1243.6</ele>
        <time>2019-02-04T09:15:10Z</time>
      </trkpt>
      <trkpt lat="46.19623" lon="6.47072">
        <ele>1243.6</ele>
        <time>2019-02-04T09:15:12Z</time>
      </trkpt>
      <trkpt lat="46.19616" lon="6.47079">
        <ele>1244.08</ele>
        <time>2019-02-04T09:15:24Z</time>
      </trkpt>
      <trkpt lat="46.19614" lon="6.4708">
        <ele>1245.04</ele>
        <time>2019-02-04T09:15:27Z</time>
      </trkpt>
      <trkpt lat="46.19605" lon="6.47089">
        <ele>1244.56</ele>
        <time>2019-02-04T09:15:40Z</time>
      </trkpt>
      <trkpt lat="46.19598" lon="6.47099">
        <ele>1245.53</ele>
        <time>2019-02-04T09:15:51Z</time>
      </trkpt>
      <trkpt lat="46.19597" lon="6.47103">
        <ele>1245.04</ele>
        <time>2019-02-04T09:15:56Z</time>
      </trkpt>
      <trkpt lat="46.19597" lon="6.47117">
        <ele>1244.56</ele>
        <time>2019-02-04T09:16:08Z</time>
      </trkpt>
      <trkpt lat="46.19597" lon="6.47125">
        <ele>1245.53</ele>
        <time>2019-02-04T09:16:21Z</time>
      </trkpt>
      <trkpt lat="46.19597" lon="6.47129">
        <ele>1246.49</ele>
        <time>2019-02-04T09:16:39Z</time>
      </trkpt>
      <trkpt lat="46.19598" lon="6.47129">
        <ele>1246.97</ele>
        <time>2019-02-04T09:17:08Z</time>
      </trkpt>
      <trkpt lat="46.19597" lon="6.4713">
        <ele>1246.97</ele>
        <time>2019-02-04T09:18:21Z</time>
      </trkpt>
      <trkpt lat="46.19596" lon="6.47129">
        <ele>1247.93</ele>
        <time>2019-02-04T09:18:33Z</time>
      </trkpt>
      <trkpt lat="46.19596" lon="6.4713">
        <ele>1247.93</ele>
        <time>2019-02-04T09:18:56Z</time>
      </trkpt>
      <trkpt lat="46.19597" lon="6.47135">
        <ele>1247.93</ele>
        <time>2019-02-04T09:19:11Z</time>
      </trkpt>
      <trkpt lat="46.19596" lon="6.47135">
        <ele>1248.41</ele>
        <time>2019-02-04T09:19:39Z</time>
      </trkpt>
      <trkpt lat="46.19597" lon="6.47135">
        <ele>1248.89</ele>
        <time>2019-02-04T09:20:17Z</time>
      </trkpt>
      <trkpt lat="46.19597" lon="6.47135">
        <ele>1249.85</ele>
        <time>2019-02-04T09:20:55Z</time>
      </trkpt>
      <trkpt lat="46.19597" lon="6.47136">
        <ele>1249.85</ele>
        <time>2019-02-04T09:21:59Z</time>
      </trkpt>
      <trkpt lat="46.19597" lon="6.47135">
        <ele>1251.29</ele>
        <time>2019-02-04T09:23:19Z</time>
      </trkpt>
      <trkpt lat="46.19597" lon="6.4714">
        <ele>1251.77</ele>
        <time>2019-02-04T09:24:45Z</time>
      </trkpt>
      <trkpt lat="46.19598" lon="6.47143">
        <ele>1252.25</ele>
        <time>2019-02-04T09:24:48Z</time>
      </trkpt>
      <trkpt lat="46.19597" lon="6.47151">
        <ele>1252.74</ele>
        <time>2019-02-04T09:24:55Z</time>
      </trkpt>
      <trkpt lat="46.19599" lon="6.47166">
        <ele>1253.22</ele>
        <time>2019-02-04T09:25:08Z</time>
      </trkpt>
      <trkpt lat="46.19599" lon="6.47177">
        <ele>1253.7</ele>
        <time>2019-02-04T09:25:18Z</time>
      </trkpt>
      <trkpt lat="46.19605" lon="6.47194">
        <ele>1254.66</ele>
        <time>2019-02-04T09:25:31Z</time>
      </trkpt>
      <trkpt lat="46.19609" lon="6.47212">
        <ele>1254.66</ele>
        <time>2019-02-04T09:25:45Z</time>
      </trkpt>
      <trkpt lat="46.1961" lon="6.47217">
        <ele>1255.14</ele>
        <time>2019-02-04T09:25:49Z</time>
      </trkpt>
      <trkpt lat="46.19614" lon="6.47234">
        <ele>1256.1</ele>
        <time>2019-02-04T09:26:03Z</time>
      </trkpt>
      <trkpt lat="46.19616" lon="6.47239">
        <ele>1256.1</ele>
        <time>2019-02-04T09:26:08Z</time>
      </trkpt>
      <trkpt lat="46.19619" lon="6.47254">
        <ele>1257.06</ele>
        <time>2019-02-04T09:26:22Z</time>
      </trkpt>
      <trkpt lat="46.19622" lon="6.47264">
        <ele>1258.02</ele>
        <time>2019-02-04T09:26:32Z</time>
      </trkpt>
      <trkpt lat="46.19625" lon="6.47276">
        <ele>1258.5</ele>
        <time>2019-02-04T09:26:43Z</time>
      </trkpt>
      <trkpt lat="46.19628" lon="6.47287">
        <ele>1258.98</ele>
        <time>2019-02-04T09:26:54Z</time>
      </trkpt>
      <trkpt lat="46.1963" lon="6.47299">
        <ele>1260.43</ele>
        <time>2019-02-04T09:27:05Z</time>
      </trkpt>
      <trkpt lat="46.19635" lon="6.4731">
        <ele>1261.87</ele>
        <time>2019-02-04T09:27:17Z</time>
      </trkpt>
      <trkpt lat="46.19642" lon="6.47323">
        <ele>1261.87</ele>
        <time>2019-02-04T09:27:29Z</time>
      </trkpt>
      <trkpt lat="46.19646" lon="6.47343">
        <ele>1262.83</ele>
        <time>2019-02-04T09:27:44Z</time>
      </trkpt>
      <trkpt lat="46.19647" lon="6.47352">
        <ele>1263.31</ele>
        <time>2019-02-04T09:27:51Z</time>
      </trkpt>
      <trkpt lat="46.19649" lon="6.47368">
        <ele>1264.27</ele>
        <time>2019-02-04T09:28:03Z</time>
      </trkpt>
      <trkpt lat="46.19649" lon="6.47372">
        <ele>1264.75</ele>
        <time>2019-02-04T09:28:21Z</time>
      </trkpt>
      <trkpt lat="46.19649" lon="6.47371">
        <ele>1264.75</ele>
        <time>2019-02-04T09:29:46Z</time>
      </trkpt>
      <trkpt lat="46.19651" lon="6.47381">
        <ele>1265.23</ele>
        <time>2019-02-04T09:30:04Z</time>
      </trkpt>
      <trkpt lat="46.19652" lon="6.47385">
        <ele>1265.71</ele>
        <time>2019-02-04T09:30:09Z</time>
      </trkpt>
      <trkpt lat="46.19652" lon="6.47398">
        <ele>1266.67</ele>
        <time>2019-02-04T09:30:21Z</time>
      </trkpt>
      <trkpt lat="46.19651" lon="6.4741">
        <ele>1267.64</ele>
        <time>2019-02-04T09:30:32Z</time>
      </trkpt>
      <trkpt lat="46.19651" lon="6.47416">
        <ele>1267.64</ele>
        <time>2019-02-04T09:30:37Z</time>
      </trkpt>
      <trkpt lat="46.19648" lon="6.47429">
        <ele>1268.6</ele>
        <time>2019-02-04T09:30:48Z</time>
      </trkpt>
      <trkpt lat="46.19647" lon="6.47439">
        <ele>1270.52</ele>
        <time>2019-02-04T09:30:59Z</time>
      </trkpt>
      <trkpt lat="46.19645" lon="6.47449">
        <ele>1271.48</ele>
        <time>2019-02-04T09:31:12Z</time>
      </trkpt>
      <trkpt lat="46.19644" lon="6.47459">
        <ele>1272.92</ele>
        <time>2019-02-04T09:31:24Z</time>
      </trkpt>
      <trkpt lat="46.19642" lon="6.47472">
        <ele>1274.85</ele>
        <time>2019-02-04T09:31:36Z</time>
      </trkpt>
      <trkpt lat="46.19641" lon="6.47478">
        <ele>1275.81</ele>
        <time>2019-02-04T09:31:50Z</time>
      </trkpt>
      <trkpt lat="46.19641" lon="6.47484">
        <ele>1277.25</ele>
        <time>2019-02-04T09:32:02Z</time>
      </trkpt>
      <trkpt lat="46.19641" lon="6.47493">
        <ele>1278.21</ele>
        <time>2019-02-04T09:32:09Z</time>
      </trkpt>
      <trkpt lat="46.19642" lon="6.4751">
        <ele>1279.17</ele>
        <time>2019-02-04T09:32:23Z</time>
      </trkpt>
      <trkpt lat="46.19642" lon="6.47512">
        <ele>1279.17</ele>
        <time>2019-02-04T09:32:28Z</time>
      </trkpt>
      <trkpt lat="46.19643" lon="6.47519">
        <ele>1280.13</ele>
        <time>2019-02-04T09:32:34Z</time>
      </trkpt>
      <trkpt lat="46.19645" lon="6.47528">
        <ele>1279.65</ele>
        <time>2019-02-04T09:32:44Z</time>
      </trkpt>
      <trkpt lat="46.19648" lon="6.47542">
        <ele>1280.13</ele>
        <time>2019-02-04T09:32:57Z</time>
      </trkpt>
      <trkpt lat="46.19649" lon="6.47544">
        <ele>1280.61</ele>
        <time>2019-02-04T09:32:59Z</time>
      </trkpt>
      <trkpt lat="46.1965" lon="6.47553">
        <ele>1280.61</ele>
        <time>2019-02-04T09:33:07Z</time>
      </trkpt>
      <trkpt lat="46.19653" lon="6.47565">
        <ele>1281.09</ele>
        <time>2019-02-04T09:33:19Z</time>
      </trkpt>
      <trkpt lat="46.19655" lon="6.47569">
        <ele>1281.09</ele>
        <time>2019-02-04T09:33:25Z</time>
      </trkpt>
      <trkpt lat="46.19659" lon="6.47578">
        <ele>1281.57</ele>
        <time>2019-02-04T09:33:38Z</time>
      </trkpt>
      <trkpt lat="46.19663" lon="6.47587">
        <ele>1282.06</ele>
        <time>2019-02-04T09:33:50Z</time>
      </trkpt>
      <trkpt lat="46.19666" lon="6.47593">
        <ele>1282.54</ele>
        <time>2019-02-04T09:34:00Z</time>
      </trkpt>
      <trkpt lat="46.19673" lon="6.47604">
        <ele>1283.02</ele>
        <time>2019-02-04T09:34:12Z</time>
      </trkpt>
      <trkpt lat="46.19679" lon="6.47616">
        <ele>1283.98</ele>
        <time>2019-02-04T09:34:24Z</time>
      </trkpt>
      <trkpt lat="46.19684" lon="6.47624">
        <ele>1284.46</ele>
        <time>2019-02-04T09:34:35Z</time>
      </trkpt>
      <trkpt lat="46.19686" lon="6.47633">
        <ele>1284.46</ele>
        <time>2019-02-04T09:34:46Z</time>
      </trkpt>
      <trkpt lat="46.1969" lon="6.47643">
        <ele>1285.42</ele>
        <time>2019-02-04T09:35:00Z</time>
      </trkpt>
      <trkpt lat="46.19692" lon="6.47652">
        <ele>1285.9</ele>
        <time>2019-02-04T09:35:12Z</time>
      </trkpt>
      <trkpt lat="46.19694" lon="6.47662">
        <ele>1286.38</ele>
        <time>2019-02-04T09:35:24Z</time>
      </trkpt>
      <trkpt lat="46.19697" lon="6.47668">
        <ele>1286.86</ele>
        <time>2019-02-04T09:35:38Z</time>
      </trkpt>
      <trkpt lat="46.19698" lon="6.47674">
        <ele>1287.82</ele>
        <time>2019-02-04T09:35:50Z</time>
      </trkpt>
      <trkpt lat="46.19701" lon="6.47682">
        <ele>1288.78</ele>
        <time>2019-02-04T09:36:03Z</time>
      </trkpt>
      <trkpt lat="46.19705" lon="6.4769">
        <ele>1289.75</ele>
        <time>2019-02-04T09:36:15Z</time>
      </trkpt>
      <trkpt lat="46.19707" lon="6.47693">
        <ele>1289.75</ele>
        <time>2019-02-04T09:36:27Z</time>
      </trkpt>
      <trkpt lat="46.1971" lon="6.47698">
        <ele>1290.23</ele>
        <time>2019-02-04T09:36:36Z</time>
      </trkpt>
      <trkpt lat="46.19713" lon="6.47706">
        <ele>1290.71</ele>
        <time>2019-02-04T09:36:46Z</time>
      </trkpt>
      <trkpt lat="46.19717" lon="6.47716">
        <ele>1291.67</ele>
        <time>2019-02-04T09:36:57Z</time>
      </trkpt>
      <trkpt lat="46.19721" lon="6.47725">
        <ele>1291.67</ele>
        <time>2019-02-04T09:37:10Z</time>
      </trkpt>
      <trkpt lat="46.19722" lon="6.47725">
        <ele>1292.15</ele>
        <time>2019-02-04T09:38:26Z</time>
      </trkpt>
      <trkpt lat="46.19722" lon="6.47726">
        <ele>1292.63</ele>
        <time>2019-02-04T09:40:26Z</time>
      </trkpt>
      <trkpt lat="46.19723" lon="6.47728">
        <ele>1293.11</ele>
        <time>2019-02-04T09:43:07Z</time>
      </trkpt>
      <trkpt lat="46.19729" lon="6.47732">
        <ele>1293.11</ele>
        <time>2019-02-04T09:43:17Z</time>
      </trkpt>
      <trkpt lat="46.19735" lon="6.47739">
        <ele>1293.11</ele>
        <time>2019-02-04T09:43:29Z</time>
      </trkpt>
      <trkpt lat="46.19741" lon="6.47744">
        <ele>1293.11</ele>
        <time>2019-02-04T09:43:39Z</time>
      </trkpt>
      <trkpt lat="46.19748" lon="6.47747">
        <ele>1294.55</ele>
        <time>2019-02-04T09:43:49Z</time>
      </trkpt>
      <trkpt lat="46.19753" lon="6.4775">
        <ele>1295.03</ele>
        <time>2019-02-04T09:43:56Z</time>
      </trkpt>
      <trkpt lat="46.19756" lon="6.47754">
        <ele>1295.51</ele>
        <time>2019-02-04T09:44:07Z</time>
      </trkpt>
      <trkpt lat="46.19761" lon="6.47761">
        <ele>1295.51</ele>
        <time>2019-02-04T09:44:17Z</time>
      </trkpt>
      <trkpt lat="46.19765" lon="6.47763">
        <ele>1295.03</ele>
        <time>2019-02-04T09:44:22Z</time>
      </trkpt>
      <trkpt lat="46.19766" lon="6.47765">
        <ele>1296.96</ele>
        <time>2019-02-04T09:44:25Z</time>
      </trkpt>
      <trkpt lat="46.19774" lon="6.47774">
        <ele>1296.48</ele>
        <time>2019-02-04T09:44:38Z</time>
      </trkpt>
      <trkpt lat="46.19776" lon="6.47776">
        <ele>1295.03</ele>
        <time>2019-02-04T09:44:41Z</time>
      </trkpt>
      <trkpt lat="46.19778" lon="6.47778">
        <ele>1295.99</ele>
        <time>2019-02-04T09:44:43Z</time>
      </trkpt>
      <trkpt lat="46.19779" lon="6.47779">
        <ele>1295.51</ele>
        <time>2019-02-04T09:44:45Z</time>
      </trkpt>
      <trkpt lat="46.19787" lon="6.47788">
        <ele>1295.03</ele>
        <time>2019-02-04T09:44:57Z</time>
      </trkpt>
      <trkpt lat="46.19796" lon="6.47796">
        <ele>1293.59</ele>
        <time>2019-02-04T09:45:10Z</time>
      </trkpt>
      <trkpt lat="46.19804" lon="6.47804">
        <ele>1292.63</ele>
        <time>2019-02-04T09:45:21Z</time>
      </trkpt>
      <trkpt lat="46.19811" lon="6.47812">
        <ele>1292.15</ele>
        <time>2019-02-04T09:45:33Z</time>
      </trkpt>
      <trkpt lat="46.19815" lon="6.47815">
        <ele>1292.15</ele>
        <time>2019-02-04T09:45:39Z</time>
      </trkpt>
      <trkpt lat="46.19821" lon="6.47821">
        <ele>1292.15</ele>
        <time>2019-02-04T09:45:48Z</time>
      </trkpt>
      <trkpt lat="46.19824" lon="6.47823">
        <ele>1292.63</ele>
        <time>2019-02-04T09:45:52Z</time>
      </trkpt>
      <trkpt lat="46.19826" lon="6.47826">
        <ele>1292.63</ele>
        <time>2019-02-04T09:45:58Z</time>
      </trkpt>
      <trkpt lat="46.19833" lon="6.47833">
        <ele>1292.15</ele>
        <time>2019-02-04T09:46:10Z</time>
      </trkpt>
      <trkpt lat="46.1984" lon="6.4784">
        <ele>1292.15</ele>
        <time>2019-02-04T09:46:21Z</time>
      </trkpt>
      <trkpt lat="46.19845" lon="6.47845">
        <ele>1291.67</ele>
        <time>2019-02-04T09:46:34Z</time>
      </trkpt>
      <trkpt lat="46.19846" lon="6.47846">
        <ele>1291.67</ele>
        <time>2019-02-04T09:46:35Z</time>
      </trkpt>
      <trkpt lat="46.19849" lon="6.47848">
        <ele>1291.67</ele>
        <time>2019-02-04T09:46:39Z</time>
      </trkpt>
      <trkpt lat="46.19853" lon="6.47853">
        <ele>1292.15</ele>
        <time>2019-02-04T09:46:52Z</time>
      </trkpt>
      <trkpt lat="46.19857" lon="6.47858">
        <ele>1291.67</ele>
        <time>2019-02-04T09:47:03Z</time>
      </trkpt>
      <trkpt lat="46.19862" lon="6.4786">
        <ele>1292.15</ele>
        <time>2019-02-04T09:47:11Z</time>
      </trkpt>
      <trkpt lat="46.19867" lon="6.47869">
        <ele>1292.63</ele>
        <time>2019-02-04T09:47:23Z</time>
      </trkpt>
      <trkpt lat="46.19873" lon="6.47881">
        <ele>1292.63</ele>
        <time>2019-02-04T09:47:36Z</time>
      </trkpt>
      <trkpt lat="46.19876" lon="6.47886">
        <ele>1292.15</ele>
        <time>2019-02-04T09:47:54Z</time>
      </trkpt>
      <trkpt lat="46.19882" lon="6.47886">
        <ele>1292.15</ele>
        <time>2019-02-04T09:48:05Z</time>
      </trkpt>
      <trkpt lat="46.19883" lon="6.47885">
        <ele>1293.11</ele>
        <time>2019-02-04T09:48:07Z</time>
      </trkpt>
      <trkpt lat="46.1989" lon="6.4788">
        <ele>1294.07</ele>
        <time>2019-02-04T09:48:20Z</time>
      </trkpt>
      <trkpt lat="46.19894" lon="6.47876">
        <ele>1293.59</ele>
        <time>2019-02-04T09:48:32Z</time>
      </trkpt>
      <trkpt lat="46.19899" lon="6.47869">
        <ele>1295.03</ele>
        <time>2019-02-04T09:48:44Z</time>
      </trkpt>
      <trkpt lat="46.19902" lon="6.47865">
        <ele>1295.51</ele>
        <time>2019-02-04T09:48:56Z</time>
      </trkpt>
      <trkpt lat="46.19906" lon="6.47862">
        <ele>1296.48</ele>
        <time>2019-02-04T09:49:10Z</time>
      </trkpt>
      <trkpt lat="46.1991" lon="6.47859">
        <ele>1296.96</ele>
        <time>2019-02-04T09:49:21Z</time>
      </trkpt>
      <trkpt lat="46.19915" lon="6.47859">
        <ele>1297.92</ele>
        <time>2019-02-04T09:49:34Z</time>
      </trkpt>
      <trkpt lat="46.19919" lon="6.47857">
        <ele>1299.36</ele>
        <time>2019-02-04T09:49:46Z</time>
      </trkpt>
      <trkpt lat="46.19923" lon="6.47854">
        <ele>1299.36</ele>
        <time>2019-02-04T09:49:56Z</time>
      </trkpt>
      <trkpt lat="46.19927" lon="6.47848">
        <ele>1300.32</ele>
        <time>2019-02-04T09:50:08Z</time>
      </trkpt>
      <trkpt lat="46.19931" lon="6.47841">
        <ele>1301.28</ele>
        <time>2019-02-04T09:50:20Z</time>
      </trkpt>
      <trkpt lat="46.19933" lon="6.47838">
        <ele>1301.76</ele>
        <time>2019-02-04T09:50:31Z</time>
      </trkpt>
      <trkpt lat="46.19936" lon="6.47828">
        <ele>1301.28</ele>
        <time>2019-02-04T09:50:43Z</time>
      </trkpt>
      <trkpt lat="46.19938" lon="6.47822">
        <ele>1302.24</ele>
        <time>2019-02-04T09:50:53Z</time>
      </trkpt>
      <trkpt lat="46.1994" lon="6.47816">
        <ele>1302.72</ele>
        <time>2019-02-04T09:51:05Z</time>
      </trkpt>
      <trkpt lat="46.19943" lon="6.47807">
        <ele>1302.72</ele>
        <time>2019-02-04T09:51:16Z</time>
      </trkpt>
      <trkpt lat="46.19944" lon="6.47797">
        <ele>1303.2</ele>
        <time>2019-02-04T09:51:29Z</time>
      </trkpt>
      <trkpt lat="46.19946" lon="6.4779">
        <ele>1304.17</ele>
        <time>2019-02-04T09:51:39Z</time>
      </trkpt>
      <trkpt lat="46.19949" lon="6.47783">
        <ele>1304.17</ele>
        <time>2019-02-04T09:51:49Z</time>
      </trkpt>
      <trkpt lat="46.19952" lon="6.47775">
        <ele>1304.65</ele>
        <time>2019-02-04T09:52:01Z</time>
      </trkpt>
      <trkpt lat="46.19953" lon="6.47773">
        <ele>1305.13</ele>
        <time>2019-02-04T09:52:17Z</time>
      </trkpt>
      <trkpt lat="46.19953" lon="6.47772">
        <ele>1305.13</ele>
        <time>2019-02-04T09:52:47Z</time>
      </trkpt>
      <trkpt lat="46.19953" lon="6.47772">
        <ele>1305.13</ele>
        <time>2019-02-04T09:54:03Z</time>
      </trkpt>
      <trkpt lat="46.19953" lon="6.47771">
        <ele>1305.61</ele>
        <time>2019-02-04T09:55:04Z</time>
      </trkpt>
      <trkpt lat="46.19953" lon="6.47771">
        <ele>1305.61</ele>
        <time>2019-02-04T09:55:36Z</time>
      </trkpt>
      <trkpt lat="46.19956" lon="6.47765">
        <ele>1306.57</ele>
        <time>2019-02-04T09:56:17Z</time>
      </trkpt>
      <trkpt lat="46.19959" lon="6.47761">
        <ele>1306.57</ele>
        <time>2019-02-04T09:56:28Z</time>
      </trkpt>
      <trkpt lat="46.19963" lon="6.47757">
        <ele>1308.49</ele>
        <time>2019-02-04T09:56:42Z</time>
      </trkpt>
      <trkpt lat="46.19967" lon="6.47754">
        <ele>1308.49</ele>
        <time>2019-02-04T09:56:47Z</time>
      </trkpt>
      <trkpt lat="46.19973" lon="6.4775">
        <ele>1308.97</ele>
        <time>2019-02-04T09:56:59Z</time>
      </trkpt>
      <trkpt lat="46.19977" lon="6.47747">
        <ele>1309.93</ele>
        <time>2019-02-04T09:57:11Z</time>
      </trkpt>
      <trkpt lat="46.1998" lon="6.47745">
        <ele>1310.41</ele>
        <time>2019-02-04T09:57:22Z</time>
      </trkpt>
      <trkpt lat="46.19984" lon="6.47744">
        <ele>1311.38</ele>
        <time>2019-02-04T09:57:31Z</time>
      </trkpt>
      <trkpt lat="46.19987" lon="6.47739">
        <ele>1311.86</ele>
        <time>2019-02-04T09:57:43Z</time>
      </trkpt>
      <trkpt lat="46.19988" lon="6.47737">
        <ele>1313.3</ele>
        <time>2019-02-04T09:57:56Z</time>
      </trkpt>
      <trkpt lat="46.19996" lon="6.47736">
        <ele>1314.26</ele>
        <time>2019-02-04T09:58:10Z</time>
      </trkpt>
      <trkpt lat="46.20001" lon="6.47732">
        <ele>1314.74</ele>
        <time>2019-02-04T09:58:20Z</time>
      </trkpt>
      <trkpt lat="46.20008" lon="6.47731">
        <ele>1315.22</ele>
        <time>2019-02-04T09:58:32Z</time>
      </trkpt>
      <trkpt lat="46.20012" lon="6.47728">
        <ele>1315.7</ele>
        <time>2019-02-04T09:58:44Z</time>
      </trkpt>
      <trkpt lat="46.20015" lon="6.47725">
        <ele>1316.66</ele>
        <time>2019-02-04T09:58:58Z</time>
      </trkpt>
      <trkpt lat="46.20019" lon="6.47723">
        <ele>1317.14</ele>
        <time>2019-02-04T09:59:08Z</time>
      </trkpt>
      <trkpt lat="46.20021" lon="6.47719">
        <ele>1317.62</ele>
        <time>2019-02-04T09:59:17Z</time>
      </trkpt>
      <trkpt lat="46.20028" lon="6.47715">
        <ele>1318.1</ele>
        <time>2019-02-04T09:59:28Z</time>
      </trkpt>
      <trkpt lat="46.20031" lon="6.47714">
        <ele>1318.59</ele>
        <time>2019-02-04T09:59:40Z</time>
      </trkpt>
      <trkpt lat="46.20035" lon="6.47712">
        <ele>1319.55</ele>
        <time>2019-02-04T09:59:53Z</time>
      </trkpt>
      <trkpt lat="46.20038" lon="6.47717">
        <ele>1320.51</ele>
        <time>2019-02-04T10:00:05Z</time>
      </trkpt>
      <trkpt lat="46.20039" lon="6.47725">
        <ele>1320.51</ele>
        <time>2019-02-04T10:00:16Z</time>
      </trkpt>
      <trkpt lat="46.20039" lon="6.4773">
        <ele>1320.99</ele>
        <time>2019-02-04T10:00:29Z</time>
      </trkpt>
      <trkpt lat="46.20042" lon="6.47729">
        <ele>1322.43</ele>
        <time>2019-02-04T10:00:39Z</time>
      </trkpt>
      <trkpt lat="46.20046" lon="6.47723">
        <ele>1322.43</ele>
        <time>2019-02-04T10:00:50Z</time>
      </trkpt>
      <trkpt lat="46.20049" lon="6.47716">
        <ele>1322.91</ele>
        <time>2019-02-04T10:01:01Z</time>
      </trkpt>
      <trkpt lat="46.20051" lon="6.47712">
        <ele>1323.39</ele>
        <time>2019-02-04T10:01:14Z</time>
      </trkpt>
      <trkpt lat="46.20054" lon="6.47706">
        <ele>1323.87</ele>
        <time>2019-02-04T10:01:23Z</time>
      </trkpt>
      <trkpt lat="46.20056" lon="6.477">
        <ele>1324.83</ele>
        <time>2019-02-04T10:01:35Z</time>
      </trkpt>
      <trkpt lat="46.20059" lon="6.47694">
        <ele>1325.31</ele>
        <time>2019-02-04T10:01:48Z</time>
      </trkpt>
      <trkpt lat="46.20061" lon="6.47695">
        <ele>1325.31</ele>
        <time>2019-02-04T10:01:59Z</time>
      </trkpt>
      <trkpt lat="46.20063" lon="6.47705">
        <ele>1326.28</ele>
        <time>2019-02-04T10:02:11Z</time>
      </trkpt>
      <trkpt lat="46.20064" lon="6.47708">
        <ele>1326.28</ele>
        <time>2019-02-04T10:02:16Z</time>
      </trkpt>
      <trkpt lat="46.20065" lon="6.47714">
        <ele>1326.76</ele>
        <time>2019-02-04T10:02:23Z</time>
      </trkpt>
      <trkpt lat="46.20069" lon="6.4772">
        <ele>1327.24</ele>
        <time>2019-02-04T10:02:35Z</time>
      </trkpt>
      <trkpt lat="46.2007" lon="6.47727">
        <ele>1327.72</ele>
        <time>2019-02-04T10:02:47Z</time>
      </trkpt>
      <trkpt lat="46.20071" lon="6.47728">
        <ele>1328.68</ele>
        <time>2019-02-04T10:03:02Z</time>
      </trkpt>
      <trkpt lat="46.20072" lon="6.47725">
        <ele>1329.64</ele>
        <time>2019-02-04T10:03:14Z</time>
      </trkpt>
      <trkpt lat="46.20073" lon="6.4772">
        <ele>1330.6</ele>
        <time>2019-02-04T10:03:28Z</time>
      </trkpt>
      <trkpt lat="46.20076" lon="6.4772">
        <ele>1331.56</ele>
        <time>2019-02-04T10:03:40Z</time>
      </trkpt>
      <trkpt lat="46.2008" lon="6.47725">
        <ele>1332.52</ele>
        <time>2019-02-04T10:03:51Z</time>
      </trkpt>
      <trkpt lat="46.20083" lon="6.47726">
        <ele>1332.52</ele>
        <time>2019-02-04T10:04:03Z</time>
      </trkpt>
      <trkpt lat="46.20083" lon="6.47726">
        <ele>1333.49</ele>
        <time>2019-02-04T10:04:29Z</time>
      </trkpt>
      <trkpt lat="46.20084" lon="6.47722">
        <ele>1333.97</ele>
        <time>2019-02-04T10:04:52Z</time>
      </trkpt>
      <trkpt lat="46.20086" lon="6.4772">
        <ele>1334.45</ele>
        <time>2019-02-04T10:05:03Z</time>
      </trkpt>
      <trkpt lat="46.2009" lon="6.47725">
        <ele>1334.93</ele>
        <time>2019-02-04T10:05:15Z</time>
      </trkpt>
      <trkpt lat="46.20093" lon="6.47727">
        <ele>1335.41</ele>
        <time>2019-02-04T10:05:24Z</time>
      </trkpt>
      <trkpt lat="46.20097" lon="6.47729">
        <ele>1336.85</ele>
        <time>2019-02-04T10:05:34Z</time>
      </trkpt>
      <trkpt lat="46.20099" lon="6.47729">
        <ele>1337.81</ele>
        <time>2019-02-04T10:05:47Z</time>
      </trkpt>
      <trkpt lat="46.20103" lon="6.47725">
        <ele>1339.73</ele>
        <time>2019-02-04T10:06:02Z</time>
      </trkpt>
      <trkpt lat="46.20105" lon="6.47727">
        <ele>1340.22</ele>
        <time>2019-02-04T10:06:15Z</time>
      </trkpt>
      <trkpt lat="46.20108" lon="6.4773">
        <ele>1341.18</ele>
        <time>2019-02-04T10:06:26Z</time>
      </trkpt>
      <trkpt lat="46.20111" lon="6.47727">
        <ele>1342.62</ele>
        <time>2019-02-04T10:06:38Z</time>
      </trkpt>
      <trkpt lat="46.20112" lon="6.47731">
        <ele>1342.62</ele>
        <time>2019-02-04T10:06:49Z</time>
      </trkpt>
      <trkpt lat="46.20114" lon="6.47734">
        <ele>1343.1</ele>
        <time>2019-02-04T10:07:02Z</time>
      </trkpt>
      <trkpt lat="46.20116" lon="6.47728">
        <ele>1344.54</ele>
        <time>2019-02-04T10:07:14Z</time>
      </trkpt>
      <trkpt lat="46.20118" lon="6.47718">
        <ele>1345.5</ele>
        <time>2019-02-04T10:07:28Z</time>
      </trkpt>
      <trkpt lat="46.20119" lon="6.47711">
        <ele>1346.46</ele>
        <time>2019-02-04T10:07:39Z</time>
      </trkpt>
      <trkpt lat="46.20121" lon="6.47706">
        <ele>1346.94</ele>
        <time>2019-02-04T10:07:51Z</time>
      </trkpt>
      <trkpt lat="46.20124" lon="6.47698">
        <ele>1348.39</ele>
        <time>2019-02-04T10:08:02Z</time>
      </trkpt>
      <trkpt lat="46.20126" lon="6.47692">
        <ele>1348.39</ele>
        <time>2019-02-04T10:08:13Z</time>
      </trkpt>
      <trkpt lat="46.20129" lon="6.47683">
        <ele>1348.39</ele>
        <time>2019-02-04T10:08:27Z</time>
      </trkpt>
      <trkpt lat="46.20131" lon="6.47672">
        <ele>1348.39</ele>
        <time>2019-02-04T10:08:39Z</time>
      </trkpt>
      <trkpt lat="46.20134" lon="6.47663">
        <ele>1348.39</ele>
        <time>2019-02-04T10:08:51Z</time>
      </trkpt>
      <trkpt lat="46.20135" lon="6.47653">
        <ele>1347.91</ele>
        <time>2019-02-04T10:09:05Z</time>
      </trkpt>
      <trkpt lat="46.20135" lon="6.47643">
        <ele>1348.87</ele>
        <time>2019-02-04T10:09:16Z</time>
      </trkpt>
      <trkpt lat="46.20135" lon="6.47635">
        <ele>1347.43</ele>
        <time>2019-02-04T10:09:28Z</time>
      </trkpt>
      <trkpt lat="46.20133" lon="6.47629">
        <ele>1348.39</ele>
        <time>2019-02-04T10:09:38Z</time>
      </trkpt>
      <trkpt lat="46.2013" lon="6.47622">
        <ele>1348.87</ele>
        <time>2019-02-04T10:09:49Z</time>
      </trkpt>
      <trkpt lat="46.2013" lon="6.47622">
        <ele>1350.31</ele>
        <time>2019-02-04T10:10:10Z</time>
      </trkpt>
      <trkpt lat="46.2013" lon="6.47621">
        <ele>1348.87</ele>
        <time>2019-02-04T10:13:33Z</time>
      </trkpt>
      <trkpt lat="46.2013" lon="6.47621">
        <ele>1349.83</ele>
        <time>2019-02-04T10:14:15Z</time>
      </trkpt>
      <trkpt lat="46.2013" lon="6.47621">
        <ele>1349.83</ele>
        <time>2019-02-04T10:15:13Z</time>
      </trkpt>
      <trkpt lat="46.20128" lon="6.47613">
        <ele>1349.83</ele>
        <time>2019-02-04T10:15:56Z</time>
      </trkpt>
      <trkpt lat="46.2013" lon="6.47604">
        <ele>1349.35</ele>
        <time>2019-02-04T10:16:07Z</time>
      </trkpt>
      <trkpt lat="46.20134" lon="6.47597">
        <ele>1350.31</ele>
        <time>2019-02-04T10:16:17Z</time>
      </trkpt>
      <trkpt lat="46.20138" lon="6.4759">
        <ele>1350.31</ele>
        <time>2019-02-04T10:16:28Z</time>
      </trkpt>
      <trkpt lat="46.20142" lon="6.47579">
        <ele>1350.31</ele>
        <time>2019-02-04T10:16:42Z</time>
      </trkpt>
      <trkpt lat="46.20143" lon="6.47572">
        <ele>1350.79</ele>
        <time>2019-02-04T10:16:54Z</time>
      </trkpt>
      <trkpt lat="46.20147" lon="6.4756">
        <ele>1351.27</ele>
        <time>2019-02-04T10:17:05Z</time>
      </trkpt>
      <trkpt lat="46.2015" lon="6.47555">
        <ele>1351.75</ele>
        <time>2019-02-04T10:17:11Z</time>
      </trkpt>
      <trkpt lat="46.20157" lon="6.47546">
        <ele>1350.79</ele>
        <time>2019-02-04T10:17:22Z</time>
      </trkpt>
      <trkpt lat="46.2016" lon="6.47537">
        <ele>1351.75</ele>
        <time>2019-02-04T10:17:33Z</time>
      </trkpt>
      <trkpt lat="46.20163" lon="6.47531">
        <ele>1351.75</ele>
        <time>2019-02-04T10:17:46Z</time>
      </trkpt>
      <trkpt lat="46.20166" lon="6.47525">
        <ele>1352.71</ele>
        <time>2019-02-04T10:17:59Z</time>
      </trkpt>
      <trkpt lat="46.20166" lon="6.47525">
        <ele>1352.23</ele>
        <time>2019-02-04T10:18:08Z</time>
      </trkpt>
      <trkpt lat="46.20171" lon="6.47526">
        <ele>1353.19</ele>
        <time>2019-02-04T10:18:18Z</time>
      </trkpt>
      <trkpt lat="46.20177" lon="6.47528">
        <ele>1354.15</ele>
        <time>2019-02-04T10:18:28Z</time>
      </trkpt>
      <trkpt lat="46.20184" lon="6.4753">
        <ele>1354.63</ele>
        <time>2019-02-04T10:18:37Z</time>
      </trkpt>
      <trkpt lat="46.20187" lon="6.47532">
        <ele>1355.12</ele>
        <time>2019-02-04T10:18:46Z</time>
      </trkpt>
      <trkpt lat="46.2019" lon="6.47536">
        <ele>1355.6</ele>
        <time>2019-02-04T10:18:56Z</time>
      </trkpt>
      <trkpt lat="46.20193" lon="6.47537">
        <ele>1356.56</ele>
        <time>2019-02-04T10:19:07Z</time>
      </trkpt>
      <trkpt lat="46.20195" lon="6.47539">
        <ele>1357.52</ele>
        <time>2019-02-04T10:19:17Z</time>
      </trkpt>
      <trkpt lat="46.20196" lon="6.4754">
        <ele>1358</ele>
        <time>2019-02-04T10:19:26Z</time>
      </trkpt>
      <trkpt lat="46.20201" lon="6.47543">
        <ele>1358.96</ele>
        <time>2019-02-04T10:19:34Z</time>
      </trkpt>
      <trkpt lat="46.20207" lon="6.47547">
        <ele>1359.92</ele>
        <time>2019-02-04T10:19:45Z</time>
      </trkpt>
      <trkpt lat="46.20215" lon="6.4755">
        <ele>1361.36</ele>
        <time>2019-02-04T10:19:57Z</time>
      </trkpt>
      <trkpt lat="46.20215" lon="6.4755">
        <ele>1361.36</ele>
        <time>2019-02-04T10:19:59Z</time>
      </trkpt>
      <trkpt lat="46.2022" lon="6.47553">
        <ele>1361.84</ele>
        <time>2019-02-04T10:20:09Z</time>
      </trkpt>
      <trkpt lat="46.20225" lon="6.47555">
        <ele>1362.81</ele>
        <time>2019-02-04T10:20:20Z</time>
      </trkpt>
      <trkpt lat="46.20228" lon="6.47557">
        <ele>1364.73</ele>
        <time>2019-02-04T10:20:32Z</time>
      </trkpt>
      <trkpt lat="46.20232" lon="6.47559">
        <ele>1365.69</ele>
        <time>2019-02-04T10:20:54Z</time>
      </trkpt>
      <trkpt lat="46.20235" lon="6.4756">
        <ele>1366.65</ele>
        <time>2019-02-04T10:21:05Z</time>
      </trkpt>
      <trkpt lat="46.20239" lon="6.47563">
        <ele>1368.09</ele>
        <time>2019-02-04T10:21:25Z</time>
      </trkpt>
      <trkpt lat="46.20241" lon="6.47564">
        <ele>1368.57</ele>
        <time>2019-02-04T10:21:35Z</time>
      </trkpt>
      <trkpt lat="46.20246" lon="6.47567">
        <ele>1370.02</ele>
        <time>2019-02-04T10:21:45Z</time>
      </trkpt>
      <trkpt lat="46.20247" lon="6.47568">
        <ele>1370.5</ele>
        <time>2019-02-04T10:21:47Z</time>
      </trkpt>
      <trkpt lat="46.20252" lon="6.47572">
        <ele>1371.94</ele>
        <time>2019-02-04T10:21:58Z</time>
      </trkpt>
      <trkpt lat="46.20255" lon="6.47574">
        <ele>1372.9</ele>
        <time>2019-02-04T10:22:06Z</time>
      </trkpt>
      <trkpt lat="46.20259" lon="6.47571">
        <ele>1374.82</ele>
        <time>2019-02-04T10:22:19Z</time>
      </trkpt>
      <trkpt lat="46.20263" lon="6.47567">
        <ele>1375.3</ele>
        <time>2019-02-04T10:22:28Z</time>
      </trkpt>
      <trkpt lat="46.20265" lon="6.47565">
        <ele>1376.26</ele>
        <time>2019-02-04T10:22:38Z</time>
      </trkpt>
      <trkpt lat="46.20268" lon="6.47561">
        <ele>1377.71</ele>
        <time>2019-02-04T10:22:50Z</time>
      </trkpt>
      <trkpt lat="46.20273" lon="6.47557">
        <ele>1379.63</ele>
        <time>2019-02-04T10:23:00Z</time>
      </trkpt>
      <trkpt lat="46.20276" lon="6.47554">
        <ele>1380.11</ele>
        <time>2019-02-04T10:23:12Z</time>
      </trkpt>
      <trkpt lat="46.20277" lon="6.47553">
        <ele>1381.07</ele>
        <time>2019-02-04T10:23:22Z</time>
      </trkpt>
      <trkpt lat="46.2028" lon="6.47549">
        <ele>1382.51</ele>
        <time>2019-02-04T10:23:33Z</time>
      </trkpt>
      <trkpt lat="46.20282" lon="6.47548">
        <ele>1383.47</ele>
        <time>2019-02-04T10:23:43Z</time>
      </trkpt>
      <trkpt lat="46.20289" lon="6.47544">
        <ele>1385.4</ele>
        <time>2019-02-04T10:23:57Z</time>
      </trkpt>
      <trkpt lat="46.20294" lon="6.47541">
        <ele>1386.36</ele>
        <time>2019-02-04T10:24:07Z</time>
      </trkpt>
      <trkpt lat="46.203" lon="6.47536">
        <ele>1388.28</ele>
        <time>2019-02-04T10:24:19Z</time>
      </trkpt>
      <trkpt lat="46.20304" lon="6.47532">
        <ele>1388.76</ele>
        <time>2019-02-04T10:24:30Z</time>
      </trkpt>
      <trkpt lat="46.20309" lon="6.47529">
        <ele>1389.24</ele>
        <time>2019-02-04T10:24:41Z</time>
      </trkpt>
      <trkpt lat="46.20315" lon="6.47523">
        <ele>1389.72</ele>
        <time>2019-02-04T10:24:52Z</time>
      </trkpt>
      <trkpt lat="46.20319" lon="6.47517">
        <ele>1390.68</ele>
        <time>2019-02-04T10:25:02Z</time>
      </trkpt>
      <trkpt lat="46.20321" lon="6.47512">
        <ele>1391.65</ele>
        <time>2019-02-04T10:25:14Z</time>
      </trkpt>
      <trkpt lat="46.20324" lon="6.47508">
        <ele>1393.57</ele>
        <time>2019-02-04T10:25:24Z</time>
      </trkpt>
      <trkpt lat="46.2033" lon="6.47503">
        <ele>1394.53</ele>
        <time>2019-02-04T10:25:37Z</time>
      </trkpt>
      <trkpt lat="46.20333" lon="6.47497">
        <ele>1395.49</ele>
        <time>2019-02-04T10:25:51Z</time>
      </trkpt>
      <trkpt lat="46.20339" lon="6.47492">
        <ele>1396.45</ele>
        <time>2019-02-04T10:26:02Z</time>
      </trkpt>
      <trkpt lat="46.20343" lon="6.47487">
        <ele>1397.89</ele>
        <time>2019-02-04T10:26:12Z</time>
      </trkpt>
      <trkpt lat="46.20347" lon="6.47484">
        <ele>1398.86</ele>
        <time>2019-02-04T10:26:22Z</time>
      </trkpt>
      <trkpt lat="46.20351" lon="6.47479">
        <ele>1399.34</ele>
        <time>2019-02-04T10:26:31Z</time>
      </trkpt>
      <trkpt lat="46.20356" lon="6.47474">
        <ele>1400.78</ele>
        <time>2019-02-04T10:26:42Z</time>
      </trkpt>
      <trkpt lat="46.20361" lon="6.4747">
        <ele>1402.22</ele>
        <time>2019-02-04T10:26:52Z</time>
      </trkpt>
      <trkpt lat="46.20365" lon="6.47465">
        <ele>1402.22</ele>
        <time>2019-02-04T10:27:02Z</time>
      </trkpt>
      <trkpt lat="46.20369" lon="6.4746">
        <ele>1402.7</ele>
        <time>2019-02-04T10:27:12Z</time>
      </trkpt>
      <trkpt lat="46.20368" lon="6.47457">
        <ele>1403.18</ele>
        <time>2019-02-04T10:27:27Z</time>
      </trkpt>
      <trkpt lat="46.20369" lon="6.47458">
        <ele>1403.18</ele>
        <time>2019-02-04T10:28:57Z</time>
      </trkpt>
      <trkpt lat="46.20369" lon="6.47457">
        <ele>1402.22</ele>
        <time>2019-02-04T10:30:04Z</time>
      </trkpt>
      <trkpt lat="46.2037" lon="6.47458">
        <ele>1402.22</ele>
        <time>2019-02-04T10:31:01Z</time>
      </trkpt>
      <trkpt lat="46.20373" lon="6.47451">
        <ele>1402.7</ele>
        <time>2019-02-04T10:31:19Z</time>
      </trkpt>
      <trkpt lat="46.20378" lon="6.47445">
        <ele>1401.74</ele>
        <time>2019-02-04T10:31:29Z</time>
      </trkpt>
      <trkpt lat="46.2038" lon="6.47441">
        <ele>1401.74</ele>
        <time>2019-02-04T10:31:41Z</time>
      </trkpt>
      <trkpt lat="46.20384" lon="6.47438">
        <ele>1401.26</ele>
        <time>2019-02-04T10:31:52Z</time>
      </trkpt>
      <trkpt lat="46.20387" lon="6.47433">
        <ele>1401.74</ele>
        <time>2019-02-04T10:32:08Z</time>
      </trkpt>
      <trkpt lat="46.20391" lon="6.47429">
        <ele>1402.22</ele>
        <time>2019-02-04T10:32:18Z</time>
      </trkpt>
      <trkpt lat="46.20395" lon="6.47426">
        <ele>1402.7</ele>
        <time>2019-02-04T10:32:30Z</time>
      </trkpt>
      <trkpt lat="46.204" lon="6.47423">
        <ele>1403.18</ele>
        <time>2019-02-04T10:32:41Z</time>
      </trkpt>
      <trkpt lat="46.20403" lon="6.4742">
        <ele>1403.18</ele>
        <time>2019-02-04T10:32:53Z</time>
      </trkpt>
      <trkpt lat="46.20409" lon="6.47416">
        <ele>1404.14</ele>
        <time>2019-02-04T10:33:05Z</time>
      </trkpt>
      <trkpt lat="46.20415" lon="6.47413">
        <ele>1404.62</ele>
        <time>2019-02-04T10:33:15Z</time>
      </trkpt>
      <trkpt lat="46.2042" lon="6.47409">
        <ele>1404.62</ele>
        <time>2019-02-04T10:33:27Z</time>
      </trkpt>
      <trkpt lat="46.20425" lon="6.47409">
        <ele>1405.1</ele>
        <time>2019-02-04T10:33:38Z</time>
      </trkpt>
      <trkpt lat="46.2043" lon="6.47407">
        <ele>1405.58</ele>
        <time>2019-02-04T10:33:47Z</time>
      </trkpt>
      <trkpt lat="46.20436" lon="6.47407">
        <ele>1406.55</ele>
        <time>2019-02-04T10:34:03Z</time>
      </trkpt>
      <trkpt lat="46.20442" lon="6.47407">
        <ele>1406.55</ele>
        <time>2019-02-04T10:34:14Z</time>
      </trkpt>
      <trkpt lat="46.20447" lon="6.47405">
        <ele>1406.07</ele>
        <time>2019-02-04T10:34:27Z</time>
      </trkpt>
      <trkpt lat="46.2045" lon="6.47404">
        <ele>1407.03</ele>
        <time>2019-02-04T10:34:39Z</time>
      </trkpt>
      <trkpt lat="46.20456" lon="6.47402">
        <ele>1407.03</ele>
        <time>2019-02-04T10:34:48Z</time>
      </trkpt>
      <trkpt lat="46.20461" lon="6.474">
        <ele>1407.99</ele>
        <time>2019-02-04T10:35:00Z</time>
      </trkpt>
      <trkpt lat="46.20465" lon="6.47397">
        <ele>1407.03</ele>
        <time>2019-02-04T10:35:11Z</time>
      </trkpt>
      <trkpt lat="46.20468" lon="6.47396">
        <ele>1407.03</ele>
        <time>2019-02-04T10:35:24Z</time>
      </trkpt>
      <trkpt lat="46.20468" lon="6.47396">
        <ele>1407.51</ele>
        <time>2019-02-04T10:36:28Z</time>
      </trkpt>
      <trkpt lat="46.20473" lon="6.47395">
        <ele>1408.47</ele>
        <time>2019-02-04T10:37:06Z</time>
      </trkpt>
      <trkpt lat="46.20473" lon="6.47394">
        <ele>1407.03</ele>
        <time>2019-02-04T10:37:25Z</time>
      </trkpt>
      <trkpt lat="46.20473" lon="6.47394">
        <ele>1407.51</ele>
        <time>2019-02-04T10:37:33Z</time>
      </trkpt>
      <trkpt lat="46.2048" lon="6.47388">
        <ele>1407.99</ele>
        <time>2019-02-04T10:37:44Z</time>
      </trkpt>
      <trkpt lat="46.20484" lon="6.47383">
        <ele>1407.51</ele>
        <time>2019-02-04T10:37:51Z</time>
      </trkpt>
      <trkpt lat="46.20491" lon="6.47376">
        <ele>1408.47</ele>
        <time>2019-02-04T10:38:03Z</time>
      </trkpt>
      <trkpt lat="46.20498" lon="6.4737">
        <ele>1408.95</ele>
        <time>2019-02-04T10:38:14Z</time>
      </trkpt>
      <trkpt lat="46.20502" lon="6.47366">
        <ele>1408.95</ele>
        <time>2019-02-04T10:38:25Z</time>
      </trkpt>
      <trkpt lat="46.2051" lon="6.47364">
        <ele>1408.47</ele>
        <time>2019-02-04T10:38:36Z</time>
      </trkpt>
      <trkpt lat="46.20511" lon="6.47365">
        <ele>1408.95</ele>
        <time>2019-02-04T10:38:48Z</time>
      </trkpt>
      <trkpt lat="46.2051" lon="6.47365">
        <ele>1412.79</ele>
        <time>2019-02-04T10:38:55Z</time>
      </trkpt>
      <trkpt lat="46.2051" lon="6.47365">
        <ele>1408.47</ele>
        <time>2019-02-04T10:38:56Z</time>
      </trkpt>
      <trkpt lat="46.20516" lon="6.47358">
        <ele>1408.47</ele>
        <time>2019-02-04T10:39:07Z</time>
      </trkpt>
      <trkpt lat="46.20516" lon="6.47348">
        <ele>1408.95</ele>
        <time>2019-02-04T10:39:18Z</time>
      </trkpt>
      <trkpt lat="46.20519" lon="6.47348">
        <ele>1408.47</ele>
        <time>2019-02-04T10:39:29Z</time>
      </trkpt>
      <trkpt lat="46.20526" lon="6.47342">
        <ele>1408.47</ele>
        <time>2019-02-04T10:39:40Z</time>
      </trkpt>
      <trkpt lat="46.20529" lon="6.47337">
        <ele>1408.95</ele>
        <time>2019-02-04T10:39:48Z</time>
      </trkpt>
      <trkpt lat="46.20535" lon="6.47335">
        <ele>1408.95</ele>
        <time>2019-02-04T10:39:58Z</time>
      </trkpt>
      <trkpt lat="46.20541" lon="6.47332">
        <ele>1409.43</ele>
        <time>2019-02-04T10:40:05Z</time>
      </trkpt>
      <trkpt lat="46.20549" lon="6.47322">
        <ele>1408.95</ele>
        <time>2019-02-04T10:40:18Z</time>
      </trkpt>
      <trkpt lat="46.20549" lon="6.4732">
        <ele>1408.95</ele>
        <time>2019-02-04T10:40:36Z</time>
      </trkpt>
      <trkpt lat="46.2055" lon="6.4732">
        <ele>1408.95</ele>
        <time>2019-02-04T10:41:27Z</time>
      </trkpt>
      <trkpt lat="46.20549" lon="6.47318">
        <ele>1409.43</ele>
        <time>2019-02-04T10:42:03Z</time>
      </trkpt>
      <trkpt lat="46.20549" lon="6.47317">
        <ele>1409.43</ele>
        <time>2019-02-04T10:42:17Z</time>
      </trkpt>
      <trkpt lat="46.2055" lon="6.47316">
        <ele>1408.95</ele>
        <time>2019-02-04T10:43:34Z</time>
      </trkpt>
      <trkpt lat="46.20554" lon="6.47311">
        <ele>1407.99</ele>
        <time>2019-02-04T10:43:48Z</time>
      </trkpt>
      <trkpt lat="46.20563" lon="6.47307">
        <ele>1407.03</ele>
        <time>2019-02-04T10:44:02Z</time>
      </trkpt>
      <trkpt lat="46.20572" lon="6.47302">
        <ele>1407.03</ele>
        <time>2019-02-04T10:44:17Z</time>
      </trkpt>
      <trkpt lat="46.20573" lon="6.47299">
        <ele>1407.51</ele>
        <time>2019-02-04T10:44:20Z</time>
      </trkpt>
      <trkpt lat="46.20575" lon="6.47297">
        <ele>1407.03</ele>
        <time>2019-02-04T10:44:22Z</time>
      </trkpt>
      <trkpt lat="46.20581" lon="6.47289">
        <ele>1407.51</ele>
        <time>2019-02-04T10:44:33Z</time>
      </trkpt>
      <trkpt lat="46.20583" lon="6.47278">
        <ele>1407.51</ele>
        <time>2019-02-04T10:44:46Z</time>
      </trkpt>
      <trkpt lat="46.20586" lon="6.47268">
        <ele>1407.99</ele>
        <time>2019-02-04T10:44:58Z</time>
      </trkpt>
      <trkpt lat="46.20587" lon="6.47268">
        <ele>1408.95</ele>
        <time>2019-02-04T10:45:01Z</time>
      </trkpt>
      <trkpt lat="46.20591" lon="6.47267">
        <ele>1409.91</ele>
        <time>2019-02-04T10:45:12Z</time>
      </trkpt>
      <trkpt lat="46.20597" lon="6.47268">
        <ele>1410.39</ele>
        <time>2019-02-04T10:45:22Z</time>
      </trkpt>
      <trkpt lat="46.20598" lon="6.47268">
        <ele>1410.87</ele>
        <time>2019-02-04T10:45:25Z</time>
      </trkpt>
      <trkpt lat="46.20604" lon="6.47268">
        <ele>1411.83</ele>
        <time>2019-02-04T10:45:36Z</time>
      </trkpt>
      <trkpt lat="46.20609" lon="6.47269">
        <ele>1412.31</ele>
        <time>2019-02-04T10:45:45Z</time>
      </trkpt>
      <trkpt lat="46.20614" lon="6.4727">
        <ele>1413.76</ele>
        <time>2019-02-04T10:45:56Z</time>
      </trkpt>
      <trkpt lat="46.20617" lon="6.4727">
        <ele>1414.24</ele>
        <time>2019-02-04T10:46:09Z</time>
      </trkpt>
      <trkpt lat="46.20621" lon="6.47269">
        <ele>1415.68</ele>
        <time>2019-02-04T10:46:20Z</time>
      </trkpt>
      <trkpt lat="46.20624" lon="6.47267">
        <ele>1416.16</ele>
        <time>2019-02-04T10:46:33Z</time>
      </trkpt>
      <trkpt lat="46.20627" lon="6.47261">
        <ele>1416.64</ele>
        <time>2019-02-04T10:46:45Z</time>
      </trkpt>
      <trkpt lat="46.20631" lon="6.47256">
        <ele>1417.6</ele>
        <time>2019-02-04T10:46:58Z</time>
      </trkpt>
      <trkpt lat="46.20635" lon="6.47251">
        <ele>1418.08</ele>
        <time>2019-02-04T10:47:11Z</time>
      </trkpt>
      <trkpt lat="46.20641" lon="6.47247">
        <ele>1419.04</ele>
        <time>2019-02-04T10:47:22Z</time>
      </trkpt>
      <trkpt lat="46.20646" lon="6.47243">
        <ele>1419.52</ele>
        <time>2019-02-04T10:47:36Z</time>
      </trkpt>
      <trkpt lat="46.20653" lon="6.47241">
        <ele>1420.49</ele>
        <time>2019-02-04T10:47:50Z</time>
      </trkpt>
      <trkpt lat="46.20659" lon="6.4724">
        <ele>1421.45</ele>
        <time>2019-02-04T10:48:04Z</time>
      </trkpt>
      <trkpt lat="46.20666" lon="6.47238">
        <ele>1422.89</ele>
        <time>2019-02-04T10:48:16Z</time>
      </trkpt>
      <trkpt lat="46.2067" lon="6.47241">
        <ele>1423.37</ele>
        <time>2019-02-04T10:48:26Z</time>
      </trkpt>
      <trkpt lat="46.20675" lon="6.47244">
        <ele>1422.89</ele>
        <time>2019-02-04T10:48:39Z</time>
      </trkpt>
      <trkpt lat="46.2068" lon="6.4725">
        <ele>1422.89</ele>
        <time>2019-02-04T10:48:52Z</time>
      </trkpt>
      <trkpt lat="46.20681" lon="6.47251">
        <ele>1423.37</ele>
        <time>2019-02-04T10:48:53Z</time>
      </trkpt>
      <trkpt lat="46.2069" lon="6.47254">
        <ele>1423.37</ele>
        <time>2019-02-04T10:49:05Z</time>
      </trkpt>
      <trkpt lat="46.20696" lon="6.47256">
        <ele>1422.89</ele>
        <time>2019-02-04T10:49:15Z</time>
      </trkpt>
      <trkpt lat="46.20698" lon="6.47257">
        <ele>1422.89</ele>
        <time>2019-02-04T10:49:27Z</time>
      </trkpt>
      <trkpt lat="46.20698" lon="6.47258">
        <ele>1422.41</ele>
        <time>2019-02-04T10:49:52Z</time>
      </trkpt>
      <trkpt lat="46.20701" lon="6.4726">
        <ele>1423.37</ele>
        <time>2019-02-04T10:50:53Z</time>
      </trkpt>
      <trkpt lat="46.20708" lon="6.47262">
        <ele>1423.85</ele>
        <time>2019-02-04T10:51:04Z</time>
      </trkpt>
      <trkpt lat="46.20714" lon="6.47259">
        <ele>1423.85</ele>
        <time>2019-02-04T10:51:15Z</time>
      </trkpt>
      <trkpt lat="46.20716" lon="6.47257">
        <ele>1424.81</ele>
        <time>2019-02-04T10:51:27Z</time>
      </trkpt>
      <trkpt lat="46.20722" lon="6.47253">
        <ele>1425.29</ele>
        <time>2019-02-04T10:51:39Z</time>
      </trkpt>
      <trkpt lat="46.20727" lon="6.4725">
        <ele>1426.25</ele>
        <time>2019-02-04T10:51:53Z</time>
      </trkpt>
      <trkpt lat="46.20734" lon="6.47246">
        <ele>1426.73</ele>
        <time>2019-02-04T10:52:04Z</time>
      </trkpt>
      <trkpt lat="46.20739" lon="6.47246">
        <ele>1427.7</ele>
        <time>2019-02-04T10:52:12Z</time>
      </trkpt>
      <trkpt lat="46.20743" lon="6.47243">
        <ele>1428.66</ele>
        <time>2019-02-04T10:52:23Z</time>
      </trkpt>
      <trkpt lat="46.20749" lon="6.47241">
        <ele>1429.62</ele>
        <time>2019-02-04T10:52:35Z</time>
      </trkpt>
      <trkpt lat="46.20752" lon="6.47239">
        <ele>1430.58</ele>
        <time>2019-02-04T10:52:47Z</time>
      </trkpt>
      <trkpt lat="46.20757" lon="6.47236">
        <ele>1431.54</ele>
        <time>2019-02-04T10:52:59Z</time>
      </trkpt>
      <trkpt lat="46.20759" lon="6.47235">
        <ele>1432.5</ele>
        <time>2019-02-04T10:53:11Z</time>
      </trkpt>
      <trkpt lat="46.20764" lon="6.47234">
        <ele>1433.46</ele>
        <time>2019-02-04T10:53:23Z</time>
      </trkpt>
      <trkpt lat="46.20768" lon="6.47232">
        <ele>1433.94</ele>
        <time>2019-02-04T10:53:34Z</time>
      </trkpt>
      <trkpt lat="46.2077" lon="6.47235">
        <ele>1434.42</ele>
        <time>2019-02-04T10:53:45Z</time>
      </trkpt>
      <trkpt lat="46.20772" lon="6.47239">
        <ele>1435.87</ele>
        <time>2019-02-04T10:53:59Z</time>
      </trkpt>
      <trkpt lat="46.20774" lon="6.47245">
        <ele>1436.35</ele>
        <time>2019-02-04T10:54:11Z</time>
      </trkpt>
      <trkpt lat="46.20776" lon="6.47254">
        <ele>1436.83</ele>
        <time>2019-02-04T10:54:23Z</time>
      </trkpt>
      <trkpt lat="46.2078" lon="6.47262">
        <ele>1437.79</ele>
        <time>2019-02-04T10:54:37Z</time>
      </trkpt>
      <trkpt lat="46.2078" lon="6.47262">
        <ele>1437.31</ele>
        <time>2019-02-04T10:54:39Z</time>
      </trkpt>
      <trkpt lat="46.20782" lon="6.4727">
        <ele>1437.79</ele>
        <time>2019-02-04T10:54:49Z</time>
      </trkpt>
      <trkpt lat="46.20783" lon="6.47273">
        <ele>1438.75</ele>
        <time>2019-02-04T10:55:03Z</time>
      </trkpt>
      <trkpt lat="46.20786" lon="6.47269">
        <ele>1439.71</ele>
        <time>2019-02-04T10:55:13Z</time>
      </trkpt>
      <trkpt lat="46.20791" lon="6.47273">
        <ele>1440.19</ele>
        <time>2019-02-04T10:55:27Z</time>
      </trkpt>
      <trkpt lat="46.20794" lon="6.4727">
        <ele>1440.19</ele>
        <time>2019-02-04T10:55:39Z</time>
      </trkpt>
      <trkpt lat="46.20795" lon="6.4728">
        <ele>1441.15</ele>
        <time>2019-02-04T10:55:52Z</time>
      </trkpt>
      <trkpt lat="46.20794" lon="6.47292">
        <ele>1441.15</ele>
        <time>2019-02-04T10:56:20Z</time>
      </trkpt>
      <trkpt lat="46.20795" lon="6.47303">
        <ele>1441.63</ele>
        <time>2019-02-04T10:56:32Z</time>
      </trkpt>
      <trkpt lat="46.20794" lon="6.47309">
        <ele>1441.63</ele>
        <time>2019-02-04T10:56:43Z</time>
      </trkpt>
      <trkpt lat="46.20795" lon="6.47314">
        <ele>1442.11</ele>
        <time>2019-02-04T10:56:57Z</time>
      </trkpt>
      <trkpt lat="46.20794" lon="6.4732">
        <ele>1442.6</ele>
        <time>2019-02-04T10:57:10Z</time>
      </trkpt>
      <trkpt lat="46.20796" lon="6.47327">
        <ele>1443.56</ele>
        <time>2019-02-04T10:57:21Z</time>
      </trkpt>
      <trkpt lat="46.20797" lon="6.47327">
        <ele>1444.52</ele>
        <time>2019-02-04T10:57:42Z</time>
      </trkpt>
      <trkpt lat="46.208" lon="6.4733">
        <ele>1445</ele>
        <time>2019-02-04T10:57:53Z</time>
      </trkpt>
      <trkpt lat="46.20807" lon="6.47335">
        <ele>1445.96</ele>
        <time>2019-02-04T10:58:04Z</time>
      </trkpt>
      <trkpt lat="46.20811" lon="6.47337">
        <ele>1447.4</ele>
        <time>2019-02-04T10:58:15Z</time>
      </trkpt>
      <trkpt lat="46.20813" lon="6.47339">
        <ele>1447.4</ele>
        <time>2019-02-04T10:58:28Z</time>
      </trkpt>
      <trkpt lat="46.20815" lon="6.47343">
        <ele>1448.36</ele>
        <time>2019-02-04T10:58:38Z</time>
      </trkpt>
      <trkpt lat="46.2082" lon="6.47349">
        <ele>1449.32</ele>
        <time>2019-02-04T10:58:50Z</time>
      </trkpt>
      <trkpt lat="46.20823" lon="6.47353">
        <ele>1450.29</ele>
        <time>2019-02-04T10:59:05Z</time>
      </trkpt>
      <trkpt lat="46.20825" lon="6.47356">
        <ele>1451.73</ele>
        <time>2019-02-04T10:59:16Z</time>
      </trkpt>
      <trkpt lat="46.20827" lon="6.47358">
        <ele>1452.21</ele>
        <time>2019-02-04T11:00:02Z</time>
      </trkpt>
      <trkpt lat="46.20829" lon="6.47361">
        <ele>1452.69</ele>
        <time>2019-02-04T11:00:12Z</time>
      </trkpt>
      <trkpt lat="46.20831" lon="6.47363">
        <ele>1454.13</ele>
        <time>2019-02-04T11:00:20Z</time>
      </trkpt>
      <trkpt lat="46.20835" lon="6.47368">
        <ele>1454.61</ele>
        <time>2019-02-04T11:00:38Z</time>
      </trkpt>
      <trkpt lat="46.20837" lon="6.4737">
        <ele>1455.09</ele>
        <time>2019-02-04T11:00:49Z</time>
      </trkpt>
      <trkpt lat="46.20839" lon="6.47374">
        <ele>1456.53</ele>
        <time>2019-02-04T11:01:05Z</time>
      </trkpt>
      <trkpt lat="46.20841" lon="6.47378">
        <ele>1457.98</ele>
        <time>2019-02-04T11:01:18Z</time>
      </trkpt>
      <trkpt lat="46.20844" lon="6.47381">
        <ele>1459.42</ele>
        <time>2019-02-04T11:01:33Z</time>
      </trkpt>
      <trkpt lat="46.20846" lon="6.47389">
        <ele>1459.9</ele>
        <time>2019-02-04T11:01:46Z</time>
      </trkpt>
      <trkpt lat="46.20851" lon="6.47397">
        <ele>1459.9</ele>
        <time>2019-02-04T11:01:57Z</time>
      </trkpt>
      <trkpt lat="46.20852" lon="6.47402">
        <ele>1460.38</ele>
        <time>2019-02-04T11:02:11Z</time>
      </trkpt>
      <trkpt lat="46.20854" lon="6.47397">
        <ele>1461.82</ele>
        <time>2019-02-04T11:02:25Z</time>
      </trkpt>
      <trkpt lat="46.20855" lon="6.47394">
        <ele>1461.82</ele>
        <time>2019-02-04T11:02:38Z</time>
      </trkpt>
      <trkpt lat="46.20857" lon="6.47385">
        <ele>1462.78</ele>
        <time>2019-02-04T11:02:57Z</time>
      </trkpt>
      <trkpt lat="46.20859" lon="6.47375">
        <ele>1463.74</ele>
        <time>2019-02-04T11:03:10Z</time>
      </trkpt>
      <trkpt lat="46.2086" lon="6.47374">
        <ele>1463.26</ele>
        <time>2019-02-04T11:03:32Z</time>
      </trkpt>
      <trkpt lat="46.20861" lon="6.47367">
        <ele>1464.23</ele>
        <time>2019-02-04T11:04:21Z</time>
      </trkpt>
      <trkpt lat="46.20862" lon="6.4736">
        <ele>1465.19</ele>
        <time>2019-02-04T11:04:35Z</time>
      </trkpt>
      <trkpt lat="46.20865" lon="6.47355">
        <ele>1466.15</ele>
        <time>2019-02-04T11:04:48Z</time>
      </trkpt>
      <trkpt lat="46.20865" lon="6.47354">
        <ele>1465.67</ele>
        <time>2019-02-04T11:04:49Z</time>
      </trkpt>
      <trkpt lat="46.20868" lon="6.47347">
        <ele>1467.11</ele>
        <time>2019-02-04T11:05:01Z</time>
      </trkpt>
      <trkpt lat="46.20871" lon="6.47345">
        <ele>1467.11</ele>
        <time>2019-02-04T11:05:11Z</time>
      </trkpt>
      <trkpt lat="46.20872" lon="6.47347">
        <ele>1468.55</ele>
        <time>2019-02-04T11:05:23Z</time>
      </trkpt>
      <trkpt lat="46.20875" lon="6.47353">
        <ele>1469.51</ele>
        <time>2019-02-04T11:05:36Z</time>
      </trkpt>
      <trkpt lat="46.20878" lon="6.47355">
        <ele>1470.95</ele>
        <time>2019-02-04T11:05:48Z</time>
      </trkpt>
      <trkpt lat="46.20881" lon="6.47361">
        <ele>1471.44</ele>
        <time>2019-02-04T11:05:58Z</time>
      </trkpt>
      <trkpt lat="46.20881" lon="6.47361">
        <ele>1472.88</ele>
        <time>2019-02-04T11:06:11Z</time>
      </trkpt>
      <trkpt lat="46.20882" lon="6.47368">
        <ele>1472.88</ele>
        <time>2019-02-04T11:06:23Z</time>
      </trkpt>
      <trkpt lat="46.20882" lon="6.47368">
        <ele>1474.32</ele>
        <time>2019-02-04T11:06:39Z</time>
      </trkpt>
      <trkpt lat="46.20883" lon="6.47369">
        <ele>1474.8</ele>
        <time>2019-02-04T11:06:43Z</time>
      </trkpt>
      <trkpt lat="46.20885" lon="6.47369">
        <ele>1475.28</ele>
        <time>2019-02-04T11:06:56Z</time>
      </trkpt>
      <trkpt lat="46.20885" lon="6.47369">
        <ele>1476.24</ele>
        <time>2019-02-04T11:07:05Z</time>
      </trkpt>
      <trkpt lat="46.2089" lon="6.47361">
        <ele>1476.72</ele>
        <time>2019-02-04T11:07:16Z</time>
      </trkpt>
      <trkpt lat="46.20893" lon="6.47357">
        <ele>1477.68</ele>
        <time>2019-02-04T11:07:32Z</time>
      </trkpt>
      <trkpt lat="46.20893" lon="6.47357">
        <ele>1478.65</ele>
        <time>2019-02-04T11:07:48Z</time>
      </trkpt>
      <trkpt lat="46.20898" lon="6.47351">
        <ele>1480.09</ele>
        <time>2019-02-04T11:07:58Z</time>
      </trkpt>
      <trkpt lat="46.209" lon="6.47348">
        <ele>1480.57</ele>
        <time>2019-02-04T11:08:10Z</time>
      </trkpt>
      <trkpt lat="46.209" lon="6.47348">
        <ele>1481.53</ele>
        <time>2019-02-04T11:08:24Z</time>
      </trkpt>
      <trkpt lat="46.209" lon="6.47348">
        <ele>1482.01</ele>
        <time>2019-02-04T11:08:35Z</time>
      </trkpt>
      <trkpt lat="46.20904" lon="6.47352">
        <ele>1482.49</ele>
        <time>2019-02-04T11:08:45Z</time>
      </trkpt>
      <trkpt lat="46.20905" lon="6.47353">
        <ele>1482.97</ele>
        <time>2019-02-04T11:08:57Z</time>
      </trkpt>
      <trkpt lat="46.20906" lon="6.47354">
        <ele>1484.41</ele>
        <time>2019-02-04T11:09:11Z</time>
      </trkpt>
      <trkpt lat="46.20906" lon="6.47354">
        <ele>1485.37</ele>
        <time>2019-02-04T11:09:24Z</time>
      </trkpt>
      <trkpt lat="46.20906" lon="6.47354">
        <ele>1487.3</ele>
        <time>2019-02-04T11:09:36Z</time>
      </trkpt>
      <trkpt lat="46.20913" lon="6.47347">
        <ele>1487.78</ele>
        <time>2019-02-04T11:09:49Z</time>
      </trkpt>
      <trkpt lat="46.20913" lon="6.47347">
        <ele>1488.74</ele>
        <time>2019-02-04T11:10:00Z</time>
      </trkpt>
      <trkpt lat="46.20918" lon="6.47342">
        <ele>1489.7</ele>
        <time>2019-02-04T11:10:10Z</time>
      </trkpt>
      <trkpt lat="46.20925" lon="6.47337">
        <ele>1490.66</ele>
        <time>2019-02-04T11:10:20Z</time>
      </trkpt>
      <trkpt lat="46.20925" lon="6.47336">
        <ele>1490.18</ele>
        <time>2019-02-04T11:10:59Z</time>
      </trkpt>
      <trkpt lat="46.20925" lon="6.47336">
        <ele>1490.18</ele>
        <time>2019-02-04T11:11:33Z</time>
      </trkpt>
      <trkpt lat="46.20926" lon="6.47334">
        <ele>1490.18</ele>
        <time>2019-02-04T11:13:04Z</time>
      </trkpt>
      <trkpt lat="46.20928" lon="6.47334">
        <ele>1490.18</ele>
        <time>2019-02-04T11:13:49Z</time>
      </trkpt>
      <trkpt lat="46.20931" lon="6.47331">
        <ele>1490.66</ele>
        <time>2019-02-04T11:14:46Z</time>
      </trkpt>
      <trkpt lat="46.20933" lon="6.4733">
        <ele>1491.14</ele>
        <time>2019-02-04T11:14:50Z</time>
      </trkpt>
      <trkpt lat="46.20935" lon="6.47338">
        <ele>1491.62</ele>
        <time>2019-02-04T11:15:02Z</time>
      </trkpt>
      <trkpt lat="46.20935" lon="6.47347">
        <ele>1491.62</ele>
        <time>2019-02-04T11:15:14Z</time>
      </trkpt>
      <trkpt lat="46.20934" lon="6.47354">
        <ele>1492.58</ele>
        <time>2019-02-04T11:15:26Z</time>
      </trkpt>
      <trkpt lat="46.20933" lon="6.47359">
        <ele>1493.06</ele>
        <time>2019-02-04T11:15:41Z</time>
      </trkpt>
      <trkpt lat="46.20933" lon="6.47362">
        <ele>1493.06</ele>
        <time>2019-02-04T11:15:56Z</time>
      </trkpt>
      <trkpt lat="46.20933" lon="6.47369">
        <ele>1494.99</ele>
        <time>2019-02-04T11:16:37Z</time>
      </trkpt>
      <trkpt lat="46.20936" lon="6.47367">
        <ele>1495.95</ele>
        <time>2019-02-04T11:16:51Z</time>
      </trkpt>
      <trkpt lat="46.20938" lon="6.47366">
        <ele>1497.39</ele>
        <time>2019-02-04T11:17:06Z</time>
      </trkpt>
      <trkpt lat="46.20939" lon="6.47366">
        <ele>1498.35</ele>
        <time>2019-02-04T11:17:28Z</time>
      </trkpt>
      <trkpt lat="46.2094" lon="6.47369">
        <ele>1499.31</ele>
        <time>2019-02-04T11:17:44Z</time>
      </trkpt>
      <trkpt lat="46.20941" lon="6.47372">
        <ele>1499.79</ele>
        <time>2019-02-04T11:18:03Z</time>
      </trkpt>
      <trkpt lat="46.20944" lon="6.47366">
        <ele>1500.27</ele>
        <time>2019-02-04T11:18:18Z</time>
      </trkpt>
      <trkpt lat="46.20946" lon="6.47362">
        <ele>1499.79</ele>
        <time>2019-02-04T11:18:30Z</time>
      </trkpt>
      <trkpt lat="46.20948" lon="6.47359">
        <ele>1500.27</ele>
        <time>2019-02-04T11:18:42Z</time>
      </trkpt>
      <trkpt lat="46.2095" lon="6.47358">
        <ele>1501.24</ele>
        <time>2019-02-04T11:19:02Z</time>
      </trkpt>
      <trkpt lat="46.20952" lon="6.47357">
        <ele>1502.2</ele>
        <time>2019-02-04T11:19:11Z</time>
      </trkpt>
      <trkpt lat="46.20952" lon="6.47359">
        <ele>1502.2</ele>
        <time>2019-02-04T11:19:27Z</time>
      </trkpt>
      <trkpt lat="46.20953" lon="6.4736">
        <ele>1502.2</ele>
        <time>2019-02-04T11:19:48Z</time>
      </trkpt>
      <trkpt lat="46.20953" lon="6.47365">
        <ele>1503.16</ele>
        <time>2019-02-04T11:20:08Z</time>
      </trkpt>
      <trkpt lat="46.20953" lon="6.47369">
        <ele>1504.12</ele>
        <time>2019-02-04T11:20:19Z</time>
      </trkpt>
      <trkpt lat="46.20956" lon="6.47365">
        <ele>1504.12</ele>
        <time>2019-02-04T11:20:32Z</time>
      </trkpt>
      <trkpt lat="46.20959" lon="6.4736">
        <ele>1505.56</ele>
        <time>2019-02-04T11:20:43Z</time>
      </trkpt>
      <trkpt lat="46.20959" lon="6.47358">
        <ele>1506.04</ele>
        <time>2019-02-04T11:20:58Z</time>
      </trkpt>
      <trkpt lat="46.2096" lon="6.47361">
        <ele>1507</ele>
        <time>2019-02-04T11:21:16Z</time>
      </trkpt>
      <trkpt lat="46.20961" lon="6.47364">
        <ele>1506.52</ele>
        <time>2019-02-04T11:21:36Z</time>
      </trkpt>
      <trkpt lat="46.2096" lon="6.47371">
        <ele>1507.48</ele>
        <time>2019-02-04T11:21:50Z</time>
      </trkpt>
      <trkpt lat="46.2096" lon="6.47374">
        <ele>1507.97</ele>
        <time>2019-02-04T11:22:05Z</time>
      </trkpt>
      <trkpt lat="46.20961" lon="6.47378">
        <ele>1508.93</ele>
        <time>2019-02-04T11:22:16Z</time>
      </trkpt>
      <trkpt lat="46.20961" lon="6.47385">
        <ele>1510.37</ele>
        <time>2019-02-04T11:22:27Z</time>
      </trkpt>
      <trkpt lat="46.20962" lon="6.47389">
        <ele>1511.33</ele>
        <time>2019-02-04T11:22:38Z</time>
      </trkpt>
      <trkpt lat="46.20965" lon="6.47386">
        <ele>1512.77</ele>
        <time>2019-02-04T11:22:49Z</time>
      </trkpt>
      <trkpt lat="46.20967" lon="6.47392">
        <ele>1514.21</ele>
        <time>2019-02-04T11:23:00Z</time>
      </trkpt>
      <trkpt lat="46.20968" lon="6.47398">
        <ele>1514.21</ele>
        <time>2019-02-04T11:23:11Z</time>
      </trkpt>
      <trkpt lat="46.20969" lon="6.47403">
        <ele>1514.69</ele>
        <time>2019-02-04T11:23:48Z</time>
      </trkpt>
      <trkpt lat="46.20971" lon="6.47413">
        <ele>1515.66</ele>
        <time>2019-02-04T11:24:01Z</time>
      </trkpt>
      <trkpt lat="46.20972" lon="6.47418">
        <ele>1515.66</ele>
        <time>2019-02-04T11:24:16Z</time>
      </trkpt>
      <trkpt lat="46.20973" lon="6.47424">
        <ele>1517.58</ele>
        <time>2019-02-04T11:24:27Z</time>
      </trkpt>
      <trkpt lat="46.20975" lon="6.4743">
        <ele>1518.54</ele>
        <time>2019-02-04T11:24:36Z</time>
      </trkpt>
      <trkpt lat="46.20978" lon="6.47435">
        <ele>1519.5</ele>
        <time>2019-02-04T11:24:48Z</time>
      </trkpt>
      <trkpt lat="46.2098" lon="6.4744">
        <ele>1519.5</ele>
        <time>2019-02-04T11:24:56Z</time>
      </trkpt>
      <trkpt lat="46.20984" lon="6.47446">
        <ele>1519.98</ele>
        <time>2019-02-04T11:25:06Z</time>
      </trkpt>
      <trkpt lat="46.20987" lon="6.47447">
        <ele>1522.39</ele>
        <time>2019-02-04T11:25:18Z</time>
      </trkpt>
      <trkpt lat="46.20988" lon="6.47441">
        <ele>1523.35</ele>
        <time>2019-02-04T11:25:29Z</time>
      </trkpt>
      <trkpt lat="46.20989" lon="6.47437">
        <ele>1524.79</ele>
        <time>2019-02-04T11:25:39Z</time>
      </trkpt>
      <trkpt lat="46.20991" lon="6.47431">
        <ele>1525.27</ele>
        <time>2019-02-04T11:25:50Z</time>
      </trkpt>
      <trkpt lat="46.20992" lon="6.47427">
        <ele>1526.23</ele>
        <time>2019-02-04T11:26:02Z</time>
      </trkpt>
      <trkpt lat="46.20994" lon="6.4742">
        <ele>1527.67</ele>
        <time>2019-02-04T11:26:22Z</time>
      </trkpt>
      <trkpt lat="46.20995" lon="6.47416">
        <ele>1528.15</ele>
        <time>2019-02-04T11:26:35Z</time>
      </trkpt>
      <trkpt lat="46.20998" lon="6.47408">
        <ele>1529.59</ele>
        <time>2019-02-04T11:26:46Z</time>
      </trkpt>
      <trkpt lat="46.20998" lon="6.47408">
        <ele>1529.59</ele>
        <time>2019-02-04T11:27:07Z</time>
      </trkpt>
      <trkpt lat="46.20999" lon="6.47407">
        <ele>1530.08</ele>
        <time>2019-02-04T11:28:12Z</time>
      </trkpt>
      <trkpt lat="46.21002" lon="6.47403">
        <ele>1531.04</ele>
        <time>2019-02-04T11:29:42Z</time>
      </trkpt>
      <trkpt lat="46.21006" lon="6.47407">
        <ele>1532.48</ele>
        <time>2019-02-04T11:29:52Z</time>
      </trkpt>
      <trkpt lat="46.21013" lon="6.47403">
        <ele>1534.4</ele>
        <time>2019-02-04T11:30:06Z</time>
      </trkpt>
      <trkpt lat="46.21017" lon="6.47401">
        <ele>1535.36</ele>
        <time>2019-02-04T11:30:16Z</time>
      </trkpt>
      <trkpt lat="46.2102" lon="6.47402">
        <ele>1537.29</ele>
        <time>2019-02-04T11:30:32Z</time>
      </trkpt>
      <trkpt lat="46.21026" lon="6.47403">
        <ele>1538.25</ele>
        <time>2019-02-04T11:30:42Z</time>
      </trkpt>
      <trkpt lat="46.2103" lon="6.47404">
        <ele>1539.69</ele>
        <time>2019-02-04T11:30:53Z</time>
      </trkpt>
      <trkpt lat="46.21036" lon="6.47406">
        <ele>1541.13</ele>
        <time>2019-02-04T11:31:04Z</time>
      </trkpt>
      <trkpt lat="46.21037" lon="6.47409">
        <ele>1541.13</ele>
        <time>2019-02-04T11:31:16Z</time>
      </trkpt>
      <trkpt lat="46.21042" lon="6.47409">
        <ele>1542.09</ele>
        <time>2019-02-04T11:32:02Z</time>
      </trkpt>
      <trkpt lat="46.21047" lon="6.47411">
        <ele>1542.57</ele>
        <time>2019-02-04T11:32:14Z</time>
      </trkpt>
      <trkpt lat="46.21053" lon="6.47414">
        <ele>1544.01</ele>
        <time>2019-02-04T11:32:25Z</time>
      </trkpt>
      <trkpt lat="46.21061" lon="6.47419">
        <ele>1544.98</ele>
        <time>2019-02-04T11:32:36Z</time>
      </trkpt>
      <trkpt lat="46.21066" lon="6.47423">
        <ele>1544.5</ele>
        <time>2019-02-04T11:32:48Z</time>
      </trkpt>
      <trkpt lat="46.21074" lon="6.47426">
        <ele>1546.42</ele>
        <time>2019-02-04T11:33:00Z</time>
      </trkpt>
      <trkpt lat="46.2108" lon="6.47426">
        <ele>1546.42</ele>
        <time>2019-02-04T11:33:10Z</time>
      </trkpt>
      <trkpt lat="46.21081" lon="6.47426">
        <ele>1546.9</ele>
        <time>2019-02-04T11:33:12Z</time>
      </trkpt>
      <trkpt lat="46.21088" lon="6.47428">
        <ele>1548.34</ele>
        <time>2019-02-04T11:33:23Z</time>
      </trkpt>
      <trkpt lat="46.21094" lon="6.47428">
        <ele>1548.82</ele>
        <time>2019-02-04T11:33:35Z</time>
      </trkpt>
      <trkpt lat="46.21098" lon="6.47429">
        <ele>1549.3</ele>
        <time>2019-02-04T11:33:45Z</time>
      </trkpt>
      <trkpt lat="46.21105" lon="6.4743">
        <ele>1551.22</ele>
        <time>2019-02-04T11:33:55Z</time>
      </trkpt>
      <trkpt lat="46.21109" lon="6.4743">
        <ele>1551.71</ele>
        <time>2019-02-04T11:34:08Z</time>
      </trkpt>
      <trkpt lat="46.21111" lon="6.4743">
        <ele>1553.15</ele>
        <time>2019-02-04T11:34:12Z</time>
      </trkpt>
      <trkpt lat="46.21117" lon="6.4743">
        <ele>1554.11</ele>
        <time>2019-02-04T11:34:23Z</time>
      </trkpt>
      <trkpt lat="46.21122" lon="6.47429">
        <ele>1555.07</ele>
        <time>2019-02-04T11:34:33Z</time>
      </trkpt>
      <trkpt lat="46.21127" lon="6.47429">
        <ele>1556.99</ele>
        <time>2019-02-04T11:34:48Z</time>
      </trkpt>
      <trkpt lat="46.21133" lon="6.4743">
        <ele>1557.95</ele>
        <time>2019-02-04T11:35:00Z</time>
      </trkpt>
      <trkpt lat="46.21135" lon="6.47431">
        <ele>1558.43</ele>
        <time>2019-02-04T11:35:15Z</time>
      </trkpt>
      <trkpt lat="46.21138" lon="6.47434">
        <ele>1560.36</ele>
        <time>2019-02-04T11:35:28Z</time>
      </trkpt>
      <trkpt lat="46.21141" lon="6.47439">
        <ele>1561.32</ele>
        <time>2019-02-04T11:35:37Z</time>
      </trkpt>
      <trkpt lat="46.21142" lon="6.47443">
        <ele>1562.76</ele>
        <time>2019-02-04T11:35:56Z</time>
      </trkpt>
      <trkpt lat="46.21142" lon="6.47443">
        <ele>1561.8</ele>
        <time>2019-02-04T11:38:40Z</time>
      </trkpt>
      <trkpt lat="46.21142" lon="6.47451">
        <ele>1562.76</ele>
        <time>2019-02-04T11:39:05Z</time>
      </trkpt>
      <trkpt lat="46.21142" lon="6.47456">
        <ele>1563.72</ele>
        <time>2019-02-04T11:39:18Z</time>
      </trkpt>
      <trkpt lat="46.21141" lon="6.47461">
        <ele>1565.16</ele>
        <time>2019-02-04T11:39:31Z</time>
      </trkpt>
      <trkpt lat="46.21142" lon="6.47464">
        <ele>1566.12</ele>
        <time>2019-02-04T11:39:45Z</time>
      </trkpt>
      <trkpt lat="46.21142" lon="6.47468">
        <ele>1567.57</ele>
        <time>2019-02-04T11:39:58Z</time>
      </trkpt>
      <trkpt lat="46.21143" lon="6.47471">
        <ele>1568.53</ele>
        <time>2019-02-04T11:40:09Z</time>
      </trkpt>
      <trkpt lat="46.21144" lon="6.47478">
        <ele>1570.45</ele>
        <time>2019-02-04T11:40:20Z</time>
      </trkpt>
      <trkpt lat="46.21145" lon="6.47485">
        <ele>1572.85</ele>
        <time>2019-02-04T11:40:33Z</time>
      </trkpt>
      <trkpt lat="46.21143" lon="6.47492">
        <ele>1572.85</ele>
        <time>2019-02-04T11:40:44Z</time>
      </trkpt>
      <trkpt lat="46.21142" lon="6.47497">
        <ele>1573.82</ele>
        <time>2019-02-04T11:40:52Z</time>
      </trkpt>
      <trkpt lat="46.21147" lon="6.47497">
        <ele>1573.82</ele>
        <time>2019-02-04T11:41:04Z</time>
      </trkpt>
      <trkpt lat="46.21151" lon="6.47494">
        <ele>1575.74</ele>
        <time>2019-02-04T11:41:20Z</time>
      </trkpt>
      <trkpt lat="46.21153" lon="6.47491">
        <ele>1576.7</ele>
        <time>2019-02-04T11:41:34Z</time>
      </trkpt>
      <trkpt lat="46.21155" lon="6.47486">
        <ele>1577.66</ele>
        <time>2019-02-04T11:41:46Z</time>
      </trkpt>
      <trkpt lat="46.21157" lon="6.47482">
        <ele>1578.62</ele>
        <time>2019-02-04T11:41:57Z</time>
      </trkpt>
      <trkpt lat="46.21161" lon="6.47472">
        <ele>1579.1</ele>
        <time>2019-02-04T11:42:10Z</time>
      </trkpt>
      <trkpt lat="46.21162" lon="6.47468">
        <ele>1580.54</ele>
        <time>2019-02-04T11:42:19Z</time>
      </trkpt>
      <trkpt lat="46.21166" lon="6.47457">
        <ele>1581.03</ele>
        <time>2019-02-04T11:42:31Z</time>
      </trkpt>
      <trkpt lat="46.2117" lon="6.47447">
        <ele>1581.03</ele>
        <time>2019-02-04T11:42:46Z</time>
      </trkpt>
      <trkpt lat="46.21173" lon="6.4744">
        <ele>1581.03</ele>
        <time>2019-02-04T11:42:57Z</time>
      </trkpt>
      <trkpt lat="46.21178" lon="6.47433">
        <ele>1580.54</ele>
        <time>2019-02-04T11:43:12Z</time>
      </trkpt>
      <trkpt lat="46.21178" lon="6.47432">
        <ele>1581.51</ele>
        <time>2019-02-04T11:43:28Z</time>
      </trkpt>
      <trkpt lat="46.21178" lon="6.47426">
        <ele>1581.51</ele>
        <time>2019-02-04T11:43:41Z</time>
      </trkpt>
      <trkpt lat="46.21179" lon="6.47423">
        <ele>1583.43</ele>
        <time>2019-02-04T11:43:54Z</time>
      </trkpt>
      <trkpt lat="46.2118" lon="6.47418">
        <ele>1584.39</ele>
        <time>2019-02-04T11:44:06Z</time>
      </trkpt>
      <trkpt lat="46.21179" lon="6.47417">
        <ele>1584.87</ele>
        <time>2019-02-04T11:44:56Z</time>
      </trkpt>
      <trkpt lat="46.21181" lon="6.47411">
        <ele>1583.91</ele>
        <time>2019-02-04T11:45:12Z</time>
      </trkpt>
      <trkpt lat="46.21181" lon="6.47409">
        <ele>1583.43</ele>
        <time>2019-02-04T11:46:17Z</time>
      </trkpt>
      <trkpt lat="46.21179" lon="6.47408">
        <ele>1582.95</ele>
        <time>2019-02-04T11:46:29Z</time>
      </trkpt>
      <trkpt lat="46.21178" lon="6.47407">
        <ele>1581.99</ele>
        <time>2019-02-04T11:47:06Z</time>
      </trkpt>
      <trkpt lat="46.21178" lon="6.47407">
        <ele>1582.47</ele>
        <time>2019-02-04T11:47:47Z</time>
      </trkpt>
      <trkpt lat="46.21179" lon="6.47409">
        <ele>1583.43</ele>
        <time>2019-02-04T11:48:02Z</time>
      </trkpt>
      <trkpt lat="46.21179" lon="6.4741">
        <ele>1583.43</ele>
        <time>2019-02-04T11:48:24Z</time>
      </trkpt>
      <trkpt lat="46.21179" lon="6.47408">
        <ele>1584.39</ele>
        <time>2019-02-04T11:48:49Z</time>
      </trkpt>
      <trkpt lat="46.2118" lon="6.47405">
        <ele>1583.43</ele>
        <time>2019-02-04T11:49:02Z</time>
      </trkpt>
      <trkpt lat="46.2118" lon="6.47405">
        <ele>1583.43</ele>
        <time>2019-02-04T11:49:41Z</time>
      </trkpt>
      <trkpt lat="46.21181" lon="6.47405">
        <ele>1582.47</ele>
        <time>2019-02-04T11:49:52Z</time>
      </trkpt>
      <trkpt lat="46.21181" lon="6.47406">
        <ele>1582.47</ele>
        <time>2019-02-04T11:50:13Z</time>
      </trkpt>
      <trkpt lat="46.21181" lon="6.47407">
        <ele>1581.99</ele>
        <time>2019-02-04T11:50:31Z</time>
      </trkpt>
      <trkpt lat="46.21181" lon="6.47406">
        <ele>1581.99</ele>
        <time>2019-02-04T11:51:28Z</time>
      </trkpt>
      <trkpt lat="46.21181" lon="6.47406">
        <ele>1581.99</ele>
        <time>2019-02-04T11:52:20Z</time>
      </trkpt>
      <trkpt lat="46.2118" lon="6.47405">
        <ele>1581.99</ele>
        <time>2019-02-04T11:53:32Z</time>
      </trkpt>
      <trkpt lat="46.2118" lon="6.47405">
        <ele>1581.51</ele>
        <time>2019-02-04T11:54:09Z</time>
      </trkpt>
      <trkpt lat="46.2118" lon="6.47405">
        <ele>1581.99</ele>
        <time>2019-02-04T11:54:33Z</time>
      </trkpt>
      <trkpt lat="46.2118" lon="6.47405">
        <ele>1581.03</ele>
        <time>2019-02-04T11:55:02Z</time>
      </trkpt>
      <trkpt lat="46.2118" lon="6.47408">
        <ele>1581.51</ele>
        <time>2019-02-04T11:55:22Z</time>
      </trkpt>
      <trkpt lat="46.2118" lon="6.47408">
        <ele>1581.03</ele>
        <time>2019-02-04T11:55:36Z</time>
      </trkpt>
      <trkpt lat="46.2118" lon="6.47408">
        <ele>1580.54</ele>
        <time>2019-02-04T11:55:53Z</time>
      </trkpt>
      <trkpt lat="46.2118" lon="6.47408">
        <ele>1579.1</ele>
        <time>2019-02-04T11:55:58Z</time>
      </trkpt>
      <trkpt lat="46.2118" lon="6.47411">
        <ele>1578.62</ele>
        <time>2019-02-04T11:56:13Z</time>
      </trkpt>
      <trkpt lat="46.2118" lon="6.47419">
        <ele>1577.18</ele>
        <time>2019-02-04T11:56:17Z</time>
      </trkpt>
      <trkpt lat="46.21181" lon="6.47432">
        <ele>1575.74</ele>
        <time>2019-02-04T11:56:30Z</time>
      </trkpt>
      <trkpt lat="46.21177" lon="6.47448">
        <ele>1573.82</ele>
        <time>2019-02-04T11:56:41Z</time>
      </trkpt>
      <trkpt lat="46.21177" lon="6.47449">
        <ele>1574.3</ele>
        <time>2019-02-04T11:56:42Z</time>
      </trkpt>
      <trkpt lat="46.21175" lon="6.47453">
        <ele>1573.82</ele>
        <time>2019-02-04T11:56:45Z</time>
      </trkpt>
      <trkpt lat="46.21171" lon="6.4747">
        <ele>1571.89</ele>
        <time>2019-02-04T11:56:58Z</time>
      </trkpt>
      <trkpt lat="46.21167" lon="6.47479">
        <ele>1572.37</ele>
        <time>2019-02-04T11:57:12Z</time>
      </trkpt>
      <trkpt lat="46.21164" lon="6.47484">
        <ele>1570.93</ele>
        <time>2019-02-04T11:57:25Z</time>
      </trkpt>
      <trkpt lat="46.21164" lon="6.47484">
        <ele>1570.45</ele>
        <time>2019-02-04T11:57:44Z</time>
      </trkpt>
      <trkpt lat="46.21164" lon="6.47485">
        <ele>1569.49</ele>
        <time>2019-02-04T11:57:55Z</time>
      </trkpt>
      <trkpt lat="46.21164" lon="6.47485">
        <ele>1568.53</ele>
        <time>2019-02-04T11:58:07Z</time>
      </trkpt>
      <trkpt lat="46.21164" lon="6.47485">
        <ele>1567.57</ele>
        <time>2019-02-04T11:58:21Z</time>
      </trkpt>
      <trkpt lat="46.21164" lon="6.47487">
        <ele>1567.09</ele>
        <time>2019-02-04T11:58:34Z</time>
      </trkpt>
      <trkpt lat="46.21164" lon="6.47487">
        <ele>1567.09</ele>
        <time>2019-02-04T11:58:46Z</time>
      </trkpt>
      <trkpt lat="46.21164" lon="6.47487">
        <ele>1566.61</ele>
        <time>2019-02-04T11:59:02Z</time>
      </trkpt>
      <trkpt lat="46.21166" lon="6.4749">
        <ele>1567.09</ele>
        <time>2019-02-04T11:59:18Z</time>
      </trkpt>
      <trkpt lat="46.21166" lon="6.4749">
        <ele>1567.09</ele>
        <time>2019-02-04T11:59:34Z</time>
      </trkpt>
      <trkpt lat="46.21166" lon="6.47491">
        <ele>1567.09</ele>
        <time>2019-02-04T12:00:06Z</time>
      </trkpt>
      <trkpt lat="46.21168" lon="6.47492">
        <ele>1565.64</ele>
        <time>2019-02-04T12:00:38Z</time>
      </trkpt>
      <trkpt lat="46.21171" lon="6.47498">
        <ele>1566.61</ele>
        <time>2019-02-04T12:02:09Z</time>
      </trkpt>
      <trkpt lat="46.21171" lon="6.47498">
        <ele>1565.64</ele>
        <time>2019-02-04T12:02:28Z</time>
      </trkpt>
      <trkpt lat="46.21171" lon="6.47498">
        <ele>1566.12</ele>
        <time>2019-02-04T12:03:23Z</time>
      </trkpt>
      <trkpt lat="46.21172" lon="6.47501">
        <ele>1565.64</ele>
        <time>2019-02-04T12:03:50Z</time>
      </trkpt>
      <trkpt lat="46.21171" lon="6.47504">
        <ele>1565.16</ele>
        <time>2019-02-04T12:04:31Z</time>
      </trkpt>
      <trkpt lat="46.21171" lon="6.47506">
        <ele>1565.64</ele>
        <time>2019-02-04T12:05:26Z</time>
      </trkpt>
      <trkpt lat="46.21173" lon="6.47507">
        <ele>1564.68</ele>
        <time>2019-02-04T12:06:16Z</time>
      </trkpt>
      <trkpt lat="46.21174" lon="6.47509">
        <ele>1564.68</ele>
        <time>2019-02-04T12:11:04Z</time>
      </trkpt>
      <trkpt lat="46.21174" lon="6.47509">
        <ele>1565.16</ele>
        <time>2019-02-04T12:23:13Z</time>
      </trkpt>
      <trkpt lat="46.21174" lon="6.47509">
        <ele>1564.68</ele>
        <time>2019-02-04T12:25:04Z</time>
      </trkpt>
      <trkpt lat="46.21173" lon="6.4751">
        <ele>1566.12</ele>
        <time>2019-02-04T12:25:40Z</time>
      </trkpt>
      <trkpt lat="46.21172" lon="6.47508">
        <ele>1566.12</ele>
        <time>2019-02-04T12:27:18Z</time>
      </trkpt>
      <trkpt lat="46.21171" lon="6.47511">
        <ele>1568.05</ele>
        <time>2019-02-04T12:38:02Z</time>
      </trkpt>
      <trkpt lat="46.21171" lon="6.4751">
        <ele>1568.05</ele>
        <time>2019-02-04T12:39:06Z</time>
      </trkpt>
      <trkpt lat="46.21171" lon="6.4751">
        <ele>1566.12</ele>
        <time>2019-02-04T12:39:08Z</time>
      </trkpt>
      <trkpt lat="46.21171" lon="6.4751">
        <ele>1568.05</ele>
        <time>2019-02-04T12:39:30Z</time>
      </trkpt>
      <trkpt lat="46.21171" lon="6.4751">
        <ele>1568.05</ele>
        <time>2019-02-04T12:40:17Z</time>
      </trkpt>
      <trkpt lat="46.21171" lon="6.4751">
        <ele>1568.53</ele>
        <time>2019-02-04T12:43:47Z</time>
      </trkpt>
      <trkpt lat="46.2117" lon="6.47511">
        <ele>1569.01</ele>
        <time>2019-02-04T12:44:23Z</time>
      </trkpt>
      <trkpt lat="46.21171" lon="6.4751">
        <ele>1568.05</ele>
        <time>2019-02-04T12:44:52Z</time>
      </trkpt>
      <trkpt lat="46.21171" lon="6.4751">
        <ele>1568.53</ele>
        <time>2019-02-04T12:45:07Z</time>
      </trkpt>
      <trkpt lat="46.21171" lon="6.4751">
        <ele>1568.05</ele>
        <time>2019-02-04T12:45:22Z</time>
      </trkpt>
      <trkpt lat="46.21169" lon="6.47509">
        <ele>1568.53</ele>
        <time>2019-02-04T12:45:39Z</time>
      </trkpt>
      <trkpt lat="46.21168" lon="6.47508">
        <ele>1569.49</ele>
        <time>2019-02-04T12:45:41Z</time>
      </trkpt>
      <trkpt lat="46.21162" lon="6.47499">
        <ele>1570.45</ele>
        <time>2019-02-04T12:45:52Z</time>
      </trkpt>
      <trkpt lat="46.21156" lon="6.47496">
        <ele>1571.89</ele>
        <time>2019-02-04T12:46:04Z</time>
      </trkpt>
      <trkpt lat="46.21151" lon="6.47498">
        <ele>1572.37</ele>
        <time>2019-02-04T12:46:14Z</time>
      </trkpt>
      <trkpt lat="46.21146" lon="6.47501">
        <ele>1572.37</ele>
        <time>2019-02-04T12:46:24Z</time>
      </trkpt>
      <trkpt lat="46.21146" lon="6.47501">
        <ele>1571.89</ele>
        <time>2019-02-04T12:46:52Z</time>
      </trkpt>
      <trkpt lat="46.21144" lon="6.47497">
        <ele>1572.85</ele>
        <time>2019-02-04T12:47:03Z</time>
      </trkpt>
      <trkpt lat="46.21144" lon="6.47487">
        <ele>1570.45</ele>
        <time>2019-02-04T12:47:15Z</time>
      </trkpt>
      <trkpt lat="46.21144" lon="6.47474">
        <ele>1567.09</ele>
        <time>2019-02-04T12:47:32Z</time>
      </trkpt>
      <trkpt lat="46.2114" lon="6.4747">
        <ele>1565.64</ele>
        <time>2019-02-04T12:47:39Z</time>
      </trkpt>
      <trkpt lat="46.21138" lon="6.47461">
        <ele>1562.28</ele>
        <time>2019-02-04T12:47:49Z</time>
      </trkpt>
      <trkpt lat="46.21132" lon="6.47456">
        <ele>1558.92</ele>
        <time>2019-02-04T12:48:01Z</time>
      </trkpt>
      <trkpt lat="46.21128" lon="6.47455">
        <ele>1557.47</ele>
        <time>2019-02-04T12:48:06Z</time>
      </trkpt>
      <trkpt lat="46.21123" lon="6.47454">
        <ele>1556.03</ele>
        <time>2019-02-04T12:48:10Z</time>
      </trkpt>
      <trkpt lat="46.21121" lon="6.47452">
        <ele>1555.55</ele>
        <time>2019-02-04T12:48:14Z</time>
      </trkpt>
      <trkpt lat="46.21115" lon="6.4745">
        <ele>1555.07</ele>
        <time>2019-02-04T12:48:20Z</time>
      </trkpt>
      <trkpt lat="46.21109" lon="6.47445">
        <ele>1551.71</ele>
        <time>2019-02-04T12:48:29Z</time>
      </trkpt>
      <trkpt lat="46.21106" lon="6.47444">
        <ele>1550.74</ele>
        <time>2019-02-04T12:48:33Z</time>
      </trkpt>
      <trkpt lat="46.21104" lon="6.47442">
        <ele>1549.78</ele>
        <time>2019-02-04T12:48:36Z</time>
      </trkpt>
      <trkpt lat="46.21095" lon="6.47434">
        <ele>1547.86</ele>
        <time>2019-02-04T12:48:49Z</time>
      </trkpt>
      <trkpt lat="46.21089" lon="6.47429">
        <ele>1547.38</ele>
        <time>2019-02-04T12:48:58Z</time>
      </trkpt>
      <trkpt lat="46.21086" lon="6.47428">
        <ele>1545.46</ele>
        <time>2019-02-04T12:49:09Z</time>
      </trkpt>
      <trkpt lat="46.21083" lon="6.47427">
        <ele>1545.94</ele>
        <time>2019-02-04T12:49:23Z</time>
      </trkpt>
      <trkpt lat="46.21082" lon="6.47427">
        <ele>1544.98</ele>
        <time>2019-02-04T12:49:34Z</time>
      </trkpt>
      <trkpt lat="46.21082" lon="6.47428">
        <ele>1545.94</ele>
        <time>2019-02-04T12:50:03Z</time>
      </trkpt>
      <trkpt lat="46.21077" lon="6.47423">
        <ele>1544.5</ele>
        <time>2019-02-04T12:50:16Z</time>
      </trkpt>
      <trkpt lat="46.21071" lon="6.47412">
        <ele>1542.09</ele>
        <time>2019-02-04T12:50:28Z</time>
      </trkpt>
      <trkpt lat="46.21065" lon="6.47404">
        <ele>1542.09</ele>
        <time>2019-02-04T12:50:40Z</time>
      </trkpt>
      <trkpt lat="46.2106" lon="6.47396">
        <ele>1542.09</ele>
        <time>2019-02-04T12:50:52Z</time>
      </trkpt>
      <trkpt lat="46.21055" lon="6.47389">
        <ele>1541.61</ele>
        <time>2019-02-04T12:51:07Z</time>
      </trkpt>
      <trkpt lat="46.21049" lon="6.47378">
        <ele>1541.61</ele>
        <time>2019-02-04T12:51:19Z</time>
      </trkpt>
      <trkpt lat="46.21044" lon="6.47369">
        <ele>1539.69</ele>
        <time>2019-02-04T12:51:32Z</time>
      </trkpt>
      <trkpt lat="46.21038" lon="6.47363">
        <ele>1537.77</ele>
        <time>2019-02-04T12:51:43Z</time>
      </trkpt>
      <trkpt lat="46.21034" lon="6.47361">
        <ele>1534.88</ele>
        <time>2019-02-04T12:52:01Z</time>
      </trkpt>
      <trkpt lat="46.21027" lon="6.47366">
        <ele>1534.88</ele>
        <time>2019-02-04T12:52:13Z</time>
      </trkpt>
      <trkpt lat="46.21022" lon="6.47371">
        <ele>1533.44</ele>
        <time>2019-02-04T12:52:26Z</time>
      </trkpt>
      <trkpt lat="46.21016" lon="6.47368">
        <ele>1531.52</ele>
        <time>2019-02-04T12:52:44Z</time>
      </trkpt>
      <trkpt lat="46.21014" lon="6.4736">
        <ele>1529.11</ele>
        <time>2019-02-04T12:52:55Z</time>
      </trkpt>
      <trkpt lat="46.2101" lon="6.47352">
        <ele>1526.23</ele>
        <time>2019-02-04T12:53:08Z</time>
      </trkpt>
      <trkpt lat="46.21011" lon="6.47346">
        <ele>1523.83</ele>
        <time>2019-02-04T12:53:21Z</time>
      </trkpt>
      <trkpt lat="46.2101" lon="6.47336">
        <ele>1520.46</ele>
        <time>2019-02-04T12:53:34Z</time>
      </trkpt>
      <trkpt lat="46.21008" lon="6.47331">
        <ele>1519.5</ele>
        <time>2019-02-04T12:53:39Z</time>
      </trkpt>
      <trkpt lat="46.21006" lon="6.47324">
        <ele>1517.58</ele>
        <time>2019-02-04T12:53:48Z</time>
      </trkpt>
      <trkpt lat="46.21003" lon="6.47313">
        <ele>1513.25</ele>
        <time>2019-02-04T12:54:00Z</time>
      </trkpt>
      <trkpt lat="46.21003" lon="6.47309">
        <ele>1512.29</ele>
        <time>2019-02-04T12:54:04Z</time>
      </trkpt>
      <trkpt lat="46.21002" lon="6.47306">
        <ele>1511.33</ele>
        <time>2019-02-04T12:54:08Z</time>
      </trkpt>
      <trkpt lat="46.21" lon="6.47301">
        <ele>1510.37</ele>
        <time>2019-02-04T12:54:18Z</time>
      </trkpt>
      <trkpt lat="46.20998" lon="6.47298">
        <ele>1508.45</ele>
        <time>2019-02-04T12:54:29Z</time>
      </trkpt>
      <trkpt lat="46.20998" lon="6.47299">
        <ele>1508.45</ele>
        <time>2019-02-04T12:55:05Z</time>
      </trkpt>
      <trkpt lat="46.20998" lon="6.47298">
        <ele>1507.97</ele>
        <time>2019-02-04T12:55:52Z</time>
      </trkpt>
      <trkpt lat="46.20998" lon="6.47299">
        <ele>1508.45</ele>
        <time>2019-02-04T12:57:33Z</time>
      </trkpt>
      <trkpt lat="46.20997" lon="6.47299">
        <ele>1507.48</ele>
        <time>2019-02-04T12:58:20Z</time>
      </trkpt>
      <trkpt lat="46.20997" lon="6.47297">
        <ele>1507.97</ele>
        <time>2019-02-04T12:58:25Z</time>
      </trkpt>
      <trkpt lat="46.20993" lon="6.47283">
        <ele>1506.52</ele>
        <time>2019-02-04T12:58:39Z</time>
      </trkpt>
      <trkpt lat="46.20989" lon="6.47273">
        <ele>1504.6</ele>
        <time>2019-02-04T12:58:52Z</time>
      </trkpt>
      <trkpt lat="46.20985" lon="6.47265">
        <ele>1502.68</ele>
        <time>2019-02-04T12:59:02Z</time>
      </trkpt>
      <trkpt lat="46.20985" lon="6.47264">
        <ele>1502.68</ele>
        <time>2019-02-04T12:59:03Z</time>
      </trkpt>
      <trkpt lat="46.20984" lon="6.47255">
        <ele>1501.24</ele>
        <time>2019-02-04T12:59:12Z</time>
      </trkpt>
      <trkpt lat="46.20984" lon="6.47252">
        <ele>1500.27</ele>
        <time>2019-02-04T12:59:14Z</time>
      </trkpt>
      <trkpt lat="46.20982" lon="6.47244">
        <ele>1497.87</ele>
        <time>2019-02-04T12:59:21Z</time>
      </trkpt>
      <trkpt lat="46.20981" lon="6.47243">
        <ele>1497.39</ele>
        <time>2019-02-04T12:59:23Z</time>
      </trkpt>
      <trkpt lat="46.2098" lon="6.47237">
        <ele>1494.99</ele>
        <time>2019-02-04T12:59:33Z</time>
      </trkpt>
      <trkpt lat="46.20976" lon="6.47231">
        <ele>1493.06</ele>
        <time>2019-02-04T12:59:43Z</time>
      </trkpt>
      <trkpt lat="46.20973" lon="6.47227">
        <ele>1489.7</ele>
        <time>2019-02-04T12:59:53Z</time>
      </trkpt>
      <trkpt lat="46.20969" lon="6.47222">
        <ele>1488.74</ele>
        <time>2019-02-04T13:00:00Z</time>
      </trkpt>
      <trkpt lat="46.20964" lon="6.47213">
        <ele>1487.78</ele>
        <time>2019-02-04T13:00:12Z</time>
      </trkpt>
      <trkpt lat="46.2096" lon="6.47202">
        <ele>1484.89</ele>
        <time>2019-02-04T13:00:25Z</time>
      </trkpt>
      <trkpt lat="46.20957" lon="6.47198">
        <ele>1483.93</ele>
        <time>2019-02-04T13:00:35Z</time>
      </trkpt>
      <trkpt lat="46.20957" lon="6.47198">
        <ele>1483.93</ele>
        <time>2019-02-04T13:00:36Z</time>
      </trkpt>
      <trkpt lat="46.20951" lon="6.47192">
        <ele>1480.57</ele>
        <time>2019-02-04T13:00:47Z</time>
      </trkpt>
      <trkpt lat="46.20948" lon="6.4719">
        <ele>1478.65</ele>
        <time>2019-02-04T13:00:57Z</time>
      </trkpt>
      <trkpt lat="46.20939" lon="6.47183">
        <ele>1475.28</ele>
        <time>2019-02-04T13:01:07Z</time>
      </trkpt>
      <trkpt lat="46.20934" lon="6.4718">
        <ele>1473.36</ele>
        <time>2019-02-04T13:01:16Z</time>
      </trkpt>
      <trkpt lat="46.20932" lon="6.47179">
        <ele>1471.92</ele>
        <time>2019-02-04T13:01:19Z</time>
      </trkpt>
      <trkpt lat="46.2093" lon="6.47178">
        <ele>1471.44</ele>
        <time>2019-02-04T13:01:28Z</time>
      </trkpt>
      <trkpt lat="46.2093" lon="6.47179">
        <ele>1470.95</ele>
        <time>2019-02-04T13:01:54Z</time>
      </trkpt>
      <trkpt lat="46.20925" lon="6.47178">
        <ele>1468.55</ele>
        <time>2019-02-04T13:02:20Z</time>
      </trkpt>
      <trkpt lat="46.20919" lon="6.47182">
        <ele>1467.59</ele>
        <time>2019-02-04T13:02:32Z</time>
      </trkpt>
      <trkpt lat="46.20919" lon="6.47182">
        <ele>1466.15</ele>
        <time>2019-02-04T13:03:00Z</time>
      </trkpt>
      <trkpt lat="46.20917" lon="6.47183">
        <ele>1465.19</ele>
        <time>2019-02-04T13:03:44Z</time>
      </trkpt>
      <trkpt lat="46.20916" lon="6.47184">
        <ele>1465.19</ele>
        <time>2019-02-04T13:04:02Z</time>
      </trkpt>
      <trkpt lat="46.20906" lon="6.4718">
        <ele>1463.26</ele>
        <time>2019-02-04T13:04:17Z</time>
      </trkpt>
      <trkpt lat="46.20905" lon="6.47178">
        <ele>1460.86</ele>
        <time>2019-02-04T13:04:34Z</time>
      </trkpt>
      <trkpt lat="46.20903" lon="6.47171">
        <ele>1459.9</ele>
        <time>2019-02-04T13:04:47Z</time>
      </trkpt>
      <trkpt lat="46.20897" lon="6.47171">
        <ele>1459.9</ele>
        <time>2019-02-04T13:06:20Z</time>
      </trkpt>
      <trkpt lat="46.20896" lon="6.47169">
        <ele>1459.42</ele>
        <time>2019-02-04T13:06:36Z</time>
      </trkpt>
      <trkpt lat="46.20895" lon="6.47167">
        <ele>1459.42</ele>
        <time>2019-02-04T13:07:28Z</time>
      </trkpt>
      <trkpt lat="46.20894" lon="6.47166">
        <ele>1457.98</ele>
        <time>2019-02-04T13:07:59Z</time>
      </trkpt>
      <trkpt lat="46.20893" lon="6.47166">
        <ele>1458.46</ele>
        <time>2019-02-04T13:10:02Z</time>
      </trkpt>
      <trkpt lat="46.20893" lon="6.47167">
        <ele>1459.42</ele>
        <time>2019-02-04T13:10:48Z</time>
      </trkpt>
      <trkpt lat="46.20892" lon="6.47166">
        <ele>1459.9</ele>
        <time>2019-02-04T13:12:39Z</time>
      </trkpt>
      <trkpt lat="46.20892" lon="6.47166">
        <ele>1459.9</ele>
        <time>2019-02-04T13:13:49Z</time>
      </trkpt>
      <trkpt lat="46.20892" lon="6.47165">
        <ele>1459.42</ele>
        <time>2019-02-04T13:15:11Z</time>
      </trkpt>
      <trkpt lat="46.20888" lon="6.47164">
        <ele>1458.94</ele>
        <time>2019-02-04T13:15:24Z</time>
      </trkpt>
      <trkpt lat="46.20883" lon="6.47163">
        <ele>1457.5</ele>
        <time>2019-02-04T13:15:35Z</time>
      </trkpt>
      <trkpt lat="46.20879" lon="6.47162">
        <ele>1456.05</ele>
        <time>2019-02-04T13:15:44Z</time>
      </trkpt>
      <trkpt lat="46.20873" lon="6.47163">
        <ele>1453.65</ele>
        <time>2019-02-04T13:15:57Z</time>
      </trkpt>
      <trkpt lat="46.20867" lon="6.47165">
        <ele>1451.73</ele>
        <time>2019-02-04T13:16:08Z</time>
      </trkpt>
      <trkpt lat="46.20861" lon="6.47164">
        <ele>1450.29</ele>
        <time>2019-02-04T13:16:19Z</time>
      </trkpt>
      <trkpt lat="46.20857" lon="6.47165">
        <ele>1448.36</ele>
        <time>2019-02-04T13:16:28Z</time>
      </trkpt>
      <trkpt lat="46.20849" lon="6.47167">
        <ele>1446.44</ele>
        <time>2019-02-04T13:16:39Z</time>
      </trkpt>
      <trkpt lat="46.20843" lon="6.47171">
        <ele>1445</ele>
        <time>2019-02-04T13:16:50Z</time>
      </trkpt>
      <trkpt lat="46.20833" lon="6.47174">
        <ele>1442.6</ele>
        <time>2019-02-04T13:17:03Z</time>
      </trkpt>
      <trkpt lat="46.2083" lon="6.47175">
        <ele>1442.11</ele>
        <time>2019-02-04T13:17:07Z</time>
      </trkpt>
      <trkpt lat="46.20823" lon="6.47179">
        <ele>1440.67</ele>
        <time>2019-02-04T13:17:21Z</time>
      </trkpt>
      <trkpt lat="46.2082" lon="6.47179">
        <ele>1440.19</ele>
        <time>2019-02-04T13:17:51Z</time>
      </trkpt>
      <trkpt lat="46.20813" lon="6.47181">
        <ele>1438.75</ele>
        <time>2019-02-04T13:18:03Z</time>
      </trkpt>
      <trkpt lat="46.20804" lon="6.47182">
        <ele>1435.87</ele>
        <time>2019-02-04T13:18:14Z</time>
      </trkpt>
      <trkpt lat="46.20799" lon="6.47184">
        <ele>1435.39</ele>
        <time>2019-02-04T13:18:21Z</time>
      </trkpt>
      <trkpt lat="46.20789" lon="6.47186">
        <ele>1433.46</ele>
        <time>2019-02-04T13:18:35Z</time>
      </trkpt>
      <trkpt lat="46.20783" lon="6.47187">
        <ele>1431.54</ele>
        <time>2019-02-04T13:18:48Z</time>
      </trkpt>
      <trkpt lat="46.20774" lon="6.47188">
        <ele>1430.1</ele>
        <time>2019-02-04T13:19:00Z</time>
      </trkpt>
      <trkpt lat="46.20771" lon="6.47188">
        <ele>1429.62</ele>
        <time>2019-02-04T13:19:04Z</time>
      </trkpt>
      <trkpt lat="46.2076" lon="6.47188">
        <ele>1427.7</ele>
        <time>2019-02-04T13:19:17Z</time>
      </trkpt>
      <trkpt lat="46.20754" lon="6.47189">
        <ele>1426.73</ele>
        <time>2019-02-04T13:19:27Z</time>
      </trkpt>
      <trkpt lat="46.20751" lon="6.47189">
        <ele>1426.25</ele>
        <time>2019-02-04T13:19:31Z</time>
      </trkpt>
      <trkpt lat="46.20743" lon="6.47191">
        <ele>1424.81</ele>
        <time>2019-02-04T13:19:43Z</time>
      </trkpt>
      <trkpt lat="46.20733" lon="6.47193">
        <ele>1423.85</ele>
        <time>2019-02-04T13:19:55Z</time>
      </trkpt>
      <trkpt lat="46.20726" lon="6.47194">
        <ele>1423.37</ele>
        <time>2019-02-04T13:20:02Z</time>
      </trkpt>
      <trkpt lat="46.20718" lon="6.47196">
        <ele>1422.89</ele>
        <time>2019-02-04T13:20:14Z</time>
      </trkpt>
      <trkpt lat="46.20715" lon="6.47197">
        <ele>1422.89</ele>
        <time>2019-02-04T13:20:17Z</time>
      </trkpt>
      <trkpt lat="46.2071" lon="6.47196">
        <ele>1422.41</ele>
        <time>2019-02-04T13:20:24Z</time>
      </trkpt>
      <trkpt lat="46.20706" lon="6.47197">
        <ele>1422.41</ele>
        <time>2019-02-04T13:20:28Z</time>
      </trkpt>
      <trkpt lat="46.20705" lon="6.47196">
        <ele>1422.41</ele>
        <time>2019-02-04T13:20:30Z</time>
      </trkpt>
      <trkpt lat="46.20694" lon="6.472">
        <ele>1421.45</ele>
        <time>2019-02-04T13:20:43Z</time>
      </trkpt>
      <trkpt lat="46.20687" lon="6.47203">
        <ele>1421.93</ele>
        <time>2019-02-04T13:20:54Z</time>
      </trkpt>
      <trkpt lat="46.20679" lon="6.47204">
        <ele>1420.49</ele>
        <time>2019-02-04T13:21:08Z</time>
      </trkpt>
      <trkpt lat="46.20667" lon="6.47205">
        <ele>1420</ele>
        <time>2019-02-04T13:21:22Z</time>
      </trkpt>
      <trkpt lat="46.20664" lon="6.47207">
        <ele>1418.08</ele>
        <time>2019-02-04T13:21:33Z</time>
      </trkpt>
      <trkpt lat="46.20661" lon="6.47207">
        <ele>1418.08</ele>
        <time>2019-02-04T13:21:37Z</time>
      </trkpt>
      <trkpt lat="46.2065" lon="6.47206">
        <ele>1416.64</ele>
        <time>2019-02-04T13:21:50Z</time>
      </trkpt>
      <trkpt lat="46.20644" lon="6.47206">
        <ele>1416.16</ele>
        <time>2019-02-04T13:21:59Z</time>
      </trkpt>
      <trkpt lat="46.20635" lon="6.47207">
        <ele>1415.2</ele>
        <time>2019-02-04T13:22:10Z</time>
      </trkpt>
      <trkpt lat="46.20628" lon="6.47207">
        <ele>1415.2</ele>
        <time>2019-02-04T13:22:18Z</time>
      </trkpt>
      <trkpt lat="46.20627" lon="6.47207">
        <ele>1414.72</ele>
        <time>2019-02-04T13:22:20Z</time>
      </trkpt>
      <trkpt lat="46.20622" lon="6.47208">
        <ele>1414.72</ele>
        <time>2019-02-04T13:22:25Z</time>
      </trkpt>
      <trkpt lat="46.20613" lon="6.47208">
        <ele>1413.76</ele>
        <time>2019-02-04T13:22:37Z</time>
      </trkpt>
      <trkpt lat="46.20613" lon="6.47208">
        <ele>1413.28</ele>
        <time>2019-02-04T13:22:54Z</time>
      </trkpt>
      <trkpt lat="46.20605" lon="6.47208">
        <ele>1412.31</ele>
        <time>2019-02-04T13:23:21Z</time>
      </trkpt>
      <trkpt lat="46.20598" lon="6.47207">
        <ele>1411.35</ele>
        <time>2019-02-04T13:23:31Z</time>
      </trkpt>
      <trkpt lat="46.20588" lon="6.47208">
        <ele>1408.47</ele>
        <time>2019-02-04T13:23:44Z</time>
      </trkpt>
      <trkpt lat="46.20581" lon="6.4721">
        <ele>1406.55</ele>
        <time>2019-02-04T13:23:56Z</time>
      </trkpt>
      <trkpt lat="46.20576" lon="6.4722">
        <ele>1404.14</ele>
        <time>2019-02-04T13:24:09Z</time>
      </trkpt>
      <trkpt lat="46.20572" lon="6.47226">
        <ele>1402.7</ele>
        <time>2019-02-04T13:24:22Z</time>
      </trkpt>
      <trkpt lat="46.2057" lon="6.4723">
        <ele>1403.18</ele>
        <time>2019-02-04T13:24:27Z</time>
      </trkpt>
      <trkpt lat="46.20564" lon="6.4724">
        <ele>1402.22</ele>
        <time>2019-02-04T13:24:39Z</time>
      </trkpt>
      <trkpt lat="46.20564" lon="6.4724">
        <ele>1402.22</ele>
        <time>2019-02-04T13:24:40Z</time>
      </trkpt>
      <trkpt lat="46.20559" lon="6.47245">
        <ele>1402.22</ele>
        <time>2019-02-04T13:24:51Z</time>
      </trkpt>
      <trkpt lat="46.20555" lon="6.47253">
        <ele>1402.22</ele>
        <time>2019-02-04T13:25:03Z</time>
      </trkpt>
      <trkpt lat="46.20551" lon="6.47258">
        <ele>1402.22</ele>
        <time>2019-02-04T13:25:12Z</time>
      </trkpt>
      <trkpt lat="46.2055" lon="6.47257">
        <ele>1402.7</ele>
        <time>2019-02-04T13:25:13Z</time>
      </trkpt>
      <trkpt lat="46.20541" lon="6.47253">
        <ele>1402.22</ele>
        <time>2019-02-04T13:25:26Z</time>
      </trkpt>
      <trkpt lat="46.20534" lon="6.4726">
        <ele>1401.74</ele>
        <time>2019-02-04T13:25:39Z</time>
      </trkpt>
      <trkpt lat="46.20528" lon="6.47256">
        <ele>1399.82</ele>
        <time>2019-02-04T13:25:49Z</time>
      </trkpt>
      <trkpt lat="46.20521" lon="6.47249">
        <ele>1399.34</ele>
        <time>2019-02-04T13:25:58Z</time>
      </trkpt>
      <trkpt lat="46.20519" lon="6.47247">
        <ele>1398.86</ele>
        <time>2019-02-04T13:26:01Z</time>
      </trkpt>
      <trkpt lat="46.20517" lon="6.47245">
        <ele>1398.86</ele>
        <time>2019-02-04T13:26:05Z</time>
      </trkpt>
      <trkpt lat="46.20511" lon="6.47241">
        <ele>1397.41</ele>
        <time>2019-02-04T13:26:12Z</time>
      </trkpt>
      <trkpt lat="46.20503" lon="6.47238">
        <ele>1396.45</ele>
        <time>2019-02-04T13:26:25Z</time>
      </trkpt>
      <trkpt lat="46.20503" lon="6.47238">
        <ele>1396.45</ele>
        <time>2019-02-04T13:26:59Z</time>
      </trkpt>
      <trkpt lat="46.20503" lon="6.47237">
        <ele>1395.97</ele>
        <time>2019-02-04T13:27:56Z</time>
      </trkpt>
      <trkpt lat="46.20503" lon="6.47238">
        <ele>1448.36</ele>
        <time>2019-02-04T13:28:37Z</time>
      </trkpt>
      <trkpt lat="46.20503" lon="6.47238">
        <ele>1338.77</ele>
        <time>2019-02-04T13:28:38Z</time>
      </trkpt>
      <trkpt lat="46.20503" lon="6.47238">
        <ele>1337.81</ele>
        <time>2019-02-04T13:28:39Z</time>
      </trkpt>
      <trkpt lat="46.2051" lon="6.47238">
        <ele>1338.77</ele>
        <time>2019-02-04T13:28:45Z</time>
      </trkpt>
      <trkpt lat="46.20505" lon="6.47233">
        <ele>1342.62</ele>
        <time>2019-02-04T13:28:51Z</time>
      </trkpt>
      <trkpt lat="46.20505" lon="6.47233">
        <ele>1346.46</ele>
        <time>2019-02-04T13:28:53Z</time>
      </trkpt>
      <trkpt lat="46.20506" lon="6.47232">
        <ele>1349.83</ele>
        <time>2019-02-04T13:28:55Z</time>
      </trkpt>
      <trkpt lat="46.20505" lon="6.47233">
        <ele>1353.67</ele>
        <time>2019-02-04T13:28:57Z</time>
      </trkpt>
      <trkpt lat="46.20505" lon="6.47233">
        <ele>1356.56</ele>
        <time>2019-02-04T13:28:59Z</time>
      </trkpt>
      <trkpt lat="46.20505" lon="6.47233">
        <ele>1360.4</ele>
        <time>2019-02-04T13:29:01Z</time>
      </trkpt>
      <trkpt lat="46.20504" lon="6.47233">
        <ele>1363.29</ele>
        <time>2019-02-04T13:29:04Z</time>
      </trkpt>
      <trkpt lat="46.20504" lon="6.47234">
        <ele>1366.17</ele>
        <time>2019-02-04T13:29:06Z</time>
      </trkpt>
      <trkpt lat="46.20503" lon="6.47234">
        <ele>1370.02</ele>
        <time>2019-02-04T13:29:09Z</time>
      </trkpt>
      <trkpt lat="46.20503" lon="6.47233">
        <ele>1373.86</ele>
        <time>2019-02-04T13:29:13Z</time>
      </trkpt>
      <trkpt lat="46.20503" lon="6.47233">
        <ele>1377.23</ele>
        <time>2019-02-04T13:29:16Z</time>
      </trkpt>
      <trkpt lat="46.20503" lon="6.47235">
        <ele>1380.11</ele>
        <time>2019-02-04T13:29:20Z</time>
      </trkpt>
      <trkpt lat="46.20504" lon="6.47235">
        <ele>1383.47</ele>
        <time>2019-02-04T13:29:24Z</time>
      </trkpt>
      <trkpt lat="46.20504" lon="6.47236">
        <ele>1387.32</ele>
        <time>2019-02-04T13:29:30Z</time>
      </trkpt>
      <trkpt lat="46.20504" lon="6.47237">
        <ele>1388.76</ele>
        <time>2019-02-04T13:29:34Z</time>
      </trkpt>
      <trkpt lat="46.20503" lon="6.47238">
        <ele>1391.65</ele>
        <time>2019-02-04T13:29:42Z</time>
      </trkpt>
      <trkpt lat="46.20502" lon="6.47239">
        <ele>1395.01</ele>
        <time>2019-02-04T13:29:55Z</time>
      </trkpt>
      <trkpt lat="46.20503" lon="6.47238">
        <ele>1397.89</ele>
        <time>2019-02-04T13:30:10Z</time>
      </trkpt>
      <trkpt lat="46.20503" lon="6.47237">
        <ele>1400.78</ele>
        <time>2019-02-04T13:30:56Z</time>
      </trkpt>
      <trkpt lat="46.20503" lon="6.47236">
        <ele>1400.3</ele>
        <time>2019-02-04T13:31:20Z</time>
      </trkpt>
      <trkpt lat="46.20502" lon="6.47236">
        <ele>1400.78</ele>
        <time>2019-02-04T13:32:24Z</time>
      </trkpt>
      <trkpt lat="46.20503" lon="6.47243">
        <ele>1400.78</ele>
        <time>2019-02-04T13:33:37Z</time>
      </trkpt>
      <trkpt lat="46.20505" lon="6.47251">
        <ele>1402.7</ele>
        <time>2019-02-04T13:33:46Z</time>
      </trkpt>
      <trkpt lat="46.20506" lon="6.47262">
        <ele>1403.66</ele>
        <time>2019-02-04T13:33:58Z</time>
      </trkpt>
      <trkpt lat="46.20507" lon="6.4727">
        <ele>1405.1</ele>
        <time>2019-02-04T13:34:09Z</time>
      </trkpt>
      <trkpt lat="46.20509" lon="6.4728">
        <ele>1406.07</ele>
        <time>2019-02-04T13:34:20Z</time>
      </trkpt>
      <trkpt lat="46.20509" lon="6.47288">
        <ele>1407.03</ele>
        <time>2019-02-04T13:34:30Z</time>
      </trkpt>
      <trkpt lat="46.20511" lon="6.47298">
        <ele>1407.51</ele>
        <time>2019-02-04T13:34:40Z</time>
      </trkpt>
      <trkpt lat="46.20512" lon="6.47309">
        <ele>1408.47</ele>
        <time>2019-02-04T13:34:54Z</time>
      </trkpt>
      <trkpt lat="46.20512" lon="6.47312">
        <ele>1408.47</ele>
        <time>2019-02-04T13:34:56Z</time>
      </trkpt>
      <trkpt lat="46.20512" lon="6.47324">
        <ele>1409.43</ele>
        <time>2019-02-04T13:35:05Z</time>
      </trkpt>
      <trkpt lat="46.20514" lon="6.47337">
        <ele>1408.95</ele>
        <time>2019-02-04T13:35:17Z</time>
      </trkpt>
      <trkpt lat="46.20514" lon="6.47349">
        <ele>1409.91</ele>
        <time>2019-02-04T13:35:29Z</time>
      </trkpt>
      <trkpt lat="46.20515" lon="6.4736">
        <ele>1409.43</ele>
        <time>2019-02-04T13:35:38Z</time>
      </trkpt>
      <trkpt lat="46.20516" lon="6.47368">
        <ele>1409.91</ele>
        <time>2019-02-04T13:35:47Z</time>
      </trkpt>
      <trkpt lat="46.20525" lon="6.47381">
        <ele>1408.95</ele>
        <time>2019-02-04T13:36:02Z</time>
      </trkpt>
      <trkpt lat="46.2053" lon="6.47394">
        <ele>1408.95</ele>
        <time>2019-02-04T13:36:15Z</time>
      </trkpt>
      <trkpt lat="46.20531" lon="6.47397">
        <ele>1408.47</ele>
        <time>2019-02-04T13:36:19Z</time>
      </trkpt>
      <trkpt lat="46.20531" lon="6.474">
        <ele>1408.47</ele>
        <time>2019-02-04T13:36:21Z</time>
      </trkpt>
      <trkpt lat="46.20537" lon="6.47414">
        <ele>1408.47</ele>
        <time>2019-02-04T13:36:34Z</time>
      </trkpt>
      <trkpt lat="46.20544" lon="6.4743">
        <ele>1407.03</ele>
        <time>2019-02-04T13:36:48Z</time>
      </trkpt>
      <trkpt lat="46.20545" lon="6.47432">
        <ele>1407.03</ele>
        <time>2019-02-04T13:36:50Z</time>
      </trkpt>
      <trkpt lat="46.20549" lon="6.4744">
        <ele>1406.55</ele>
        <time>2019-02-04T13:36:57Z</time>
      </trkpt>
      <trkpt lat="46.20555" lon="6.47455">
        <ele>1406.07</ele>
        <time>2019-02-04T13:37:10Z</time>
      </trkpt>
      <trkpt lat="46.20561" lon="6.47472">
        <ele>1405.1</ele>
        <time>2019-02-04T13:37:23Z</time>
      </trkpt>
      <trkpt lat="46.20565" lon="6.47488">
        <ele>1404.14</ele>
        <time>2019-02-04T13:37:36Z</time>
      </trkpt>
      <trkpt lat="46.2057" lon="6.47501">
        <ele>1402.7</ele>
        <time>2019-02-04T13:37:48Z</time>
      </trkpt>
      <trkpt lat="46.20573" lon="6.47513">
        <ele>1402.7</ele>
        <time>2019-02-04T13:37:59Z</time>
      </trkpt>
      <trkpt lat="46.20574" lon="6.47521">
        <ele>1402.22</ele>
        <time>2019-02-04T13:38:06Z</time>
      </trkpt>
      <trkpt lat="46.20575" lon="6.47525">
        <ele>1402.22</ele>
        <time>2019-02-04T13:38:09Z</time>
      </trkpt>
      <trkpt lat="46.20577" lon="6.4754">
        <ele>1401.26</ele>
        <time>2019-02-04T13:38:20Z</time>
      </trkpt>
      <trkpt lat="46.20579" lon="6.47551">
        <ele>1401.26</ele>
        <time>2019-02-04T13:38:28Z</time>
      </trkpt>
      <trkpt lat="46.20579" lon="6.47553">
        <ele>1400.78</ele>
        <time>2019-02-04T13:38:30Z</time>
      </trkpt>
      <trkpt lat="46.2058" lon="6.47559">
        <ele>1400.78</ele>
        <time>2019-02-04T13:38:34Z</time>
      </trkpt>
      <trkpt lat="46.2058" lon="6.47571">
        <ele>1399.82</ele>
        <time>2019-02-04T13:38:44Z</time>
      </trkpt>
      <trkpt lat="46.20579" lon="6.47589">
        <ele>1399.34</ele>
        <time>2019-02-04T13:38:57Z</time>
      </trkpt>
      <trkpt lat="46.20579" lon="6.47594">
        <ele>1398.86</ele>
        <time>2019-02-04T13:39:01Z</time>
      </trkpt>
      <trkpt lat="46.20578" lon="6.47602">
        <ele>1398.37</ele>
        <time>2019-02-04T13:39:08Z</time>
      </trkpt>
      <trkpt lat="46.20575" lon="6.4762">
        <ele>1397.41</ele>
        <time>2019-02-04T13:39:22Z</time>
      </trkpt>
      <trkpt lat="46.20575" lon="6.47622">
        <ele>1397.41</ele>
        <time>2019-02-04T13:39:24Z</time>
      </trkpt>
      <trkpt lat="46.20574" lon="6.47638">
        <ele>1396.93</ele>
        <time>2019-02-04T13:39:36Z</time>
      </trkpt>
      <trkpt lat="46.20572" lon="6.47646">
        <ele>1395.97</ele>
        <time>2019-02-04T13:39:43Z</time>
      </trkpt>
      <trkpt lat="46.2057" lon="6.47661">
        <ele>1395.49</ele>
        <time>2019-02-04T13:39:54Z</time>
      </trkpt>
      <trkpt lat="46.20569" lon="6.47679">
        <ele>1395.01</ele>
        <time>2019-02-04T13:40:08Z</time>
      </trkpt>
      <trkpt lat="46.20569" lon="6.47699">
        <ele>1394.05</ele>
        <time>2019-02-04T13:40:22Z</time>
      </trkpt>
      <trkpt lat="46.20569" lon="6.4771">
        <ele>1393.57</ele>
        <time>2019-02-04T13:40:31Z</time>
      </trkpt>
      <trkpt lat="46.20568" lon="6.47717">
        <ele>1394.05</ele>
        <time>2019-02-04T13:40:37Z</time>
      </trkpt>
      <trkpt lat="46.20568" lon="6.4772">
        <ele>1393.57</ele>
        <time>2019-02-04T13:40:39Z</time>
      </trkpt>
      <trkpt lat="46.20566" lon="6.47736">
        <ele>1393.09</ele>
        <time>2019-02-04T13:40:51Z</time>
      </trkpt>
      <trkpt lat="46.20565" lon="6.47751">
        <ele>1393.09</ele>
        <time>2019-02-04T13:41:02Z</time>
      </trkpt>
      <trkpt lat="46.20564" lon="6.47754">
        <ele>1392.61</ele>
        <time>2019-02-04T13:41:04Z</time>
      </trkpt>
      <trkpt lat="46.20564" lon="6.47768">
        <ele>1392.13</ele>
        <time>2019-02-04T13:41:19Z</time>
      </trkpt>
      <trkpt lat="46.20564" lon="6.47771">
        <ele>1392.13</ele>
        <time>2019-02-04T13:41:28Z</time>
      </trkpt>
      <trkpt lat="46.20564" lon="6.47773">
        <ele>1391.65</ele>
        <time>2019-02-04T13:41:30Z</time>
      </trkpt>
      <trkpt lat="46.20563" lon="6.47778">
        <ele>1391.65</ele>
        <time>2019-02-04T13:41:34Z</time>
      </trkpt>
      <trkpt lat="46.20563" lon="6.47781">
        <ele>1391.65</ele>
        <time>2019-02-04T13:41:36Z</time>
      </trkpt>
      <trkpt lat="46.20562" lon="6.47796">
        <ele>1390.68</ele>
        <time>2019-02-04T13:41:47Z</time>
      </trkpt>
      <trkpt lat="46.20562" lon="6.47799">
        <ele>1390.68</ele>
        <time>2019-02-04T13:41:49Z</time>
      </trkpt>
      <trkpt lat="46.20562" lon="6.47819">
        <ele>1389.72</ele>
        <time>2019-02-04T13:42:05Z</time>
      </trkpt>
      <trkpt lat="46.20562" lon="6.47823">
        <ele>1389.24</ele>
        <time>2019-02-04T13:42:08Z</time>
      </trkpt>
      <trkpt lat="46.20564" lon="6.47848">
        <ele>1388.28</ele>
        <time>2019-02-04T13:42:26Z</time>
      </trkpt>
      <trkpt lat="46.20564" lon="6.47849">
        <ele>1387.8</ele>
        <time>2019-02-04T13:42:27Z</time>
      </trkpt>
      <trkpt lat="46.20566" lon="6.4786">
        <ele>1386.84</ele>
        <time>2019-02-04T13:42:36Z</time>
      </trkpt>
      <trkpt lat="46.20568" lon="6.47875">
        <ele>1385.88</ele>
        <time>2019-02-04T13:42:49Z</time>
      </trkpt>
      <trkpt lat="46.2057" lon="6.47886">
        <ele>1385.4</ele>
        <time>2019-02-04T13:43:01Z</time>
      </trkpt>
      <trkpt lat="46.20569" lon="6.47898">
        <ele>1383.96</ele>
        <time>2019-02-04T13:43:15Z</time>
      </trkpt>
      <trkpt lat="46.20566" lon="6.47908">
        <ele>1382.51</ele>
        <time>2019-02-04T13:43:27Z</time>
      </trkpt>
      <trkpt lat="46.20562" lon="6.47919">
        <ele>1380.59</ele>
        <time>2019-02-04T13:43:39Z</time>
      </trkpt>
      <trkpt lat="46.20556" lon="6.47929">
        <ele>1380.11</ele>
        <time>2019-02-04T13:43:50Z</time>
      </trkpt>
      <trkpt lat="46.20545" lon="6.47929">
        <ele>1380.59</ele>
        <time>2019-02-04T13:44:02Z</time>
      </trkpt>
      <trkpt lat="46.20537" lon="6.4793">
        <ele>1380.59</ele>
        <time>2019-02-04T13:44:11Z</time>
      </trkpt>
      <trkpt lat="46.20534" lon="6.47929">
        <ele>1380.59</ele>
        <time>2019-02-04T13:44:14Z</time>
      </trkpt>
      <trkpt lat="46.20524" lon="6.47928">
        <ele>1381.07</ele>
        <time>2019-02-04T13:44:27Z</time>
      </trkpt>
      <trkpt lat="46.20516" lon="6.4793">
        <ele>1381.55</ele>
        <time>2019-02-04T13:44:37Z</time>
      </trkpt>
      <trkpt lat="46.20507" lon="6.47932">
        <ele>1381.55</ele>
        <time>2019-02-04T13:44:48Z</time>
      </trkpt>
      <trkpt lat="46.20505" lon="6.47931">
        <ele>1382.03</ele>
        <time>2019-02-04T13:44:50Z</time>
      </trkpt>
      <trkpt lat="46.20503" lon="6.47933">
        <ele>1381.55</ele>
        <time>2019-02-04T13:44:52Z</time>
      </trkpt>
      <trkpt lat="46.20491" lon="6.47936">
        <ele>1381.55</ele>
        <time>2019-02-04T13:45:05Z</time>
      </trkpt>
      <trkpt lat="46.20489" lon="6.47937">
        <ele>1382.03</ele>
        <time>2019-02-04T13:45:07Z</time>
      </trkpt>
      <trkpt lat="46.20488" lon="6.47937">
        <ele>1381.55</ele>
        <time>2019-02-04T13:45:09Z</time>
      </trkpt>
      <trkpt lat="46.2048" lon="6.47938">
        <ele>1382.03</ele>
        <time>2019-02-04T13:45:17Z</time>
      </trkpt>
      <trkpt lat="46.20476" lon="6.47937">
        <ele>1382.51</ele>
        <time>2019-02-04T13:45:22Z</time>
      </trkpt>
      <trkpt lat="46.20472" lon="6.47937">
        <ele>1382.51</ele>
        <time>2019-02-04T13:45:25Z</time>
      </trkpt>
      <trkpt lat="46.20462" lon="6.47935">
        <ele>1382.99</ele>
        <time>2019-02-04T13:45:38Z</time>
      </trkpt>
      <trkpt lat="46.20459" lon="6.47935">
        <ele>1382.99</ele>
        <time>2019-02-04T13:45:43Z</time>
      </trkpt>
      <trkpt lat="46.20454" lon="6.47935">
        <ele>1382.51</ele>
        <time>2019-02-04T13:45:48Z</time>
      </trkpt>
      <trkpt lat="46.20449" lon="6.47934">
        <ele>1382.51</ele>
        <time>2019-02-04T13:45:54Z</time>
      </trkpt>
      <trkpt lat="46.20444" lon="6.47936">
        <ele>1382.51</ele>
        <time>2019-02-04T13:45:59Z</time>
      </trkpt>
      <trkpt lat="46.2044" lon="6.47938">
        <ele>1382.51</ele>
        <time>2019-02-04T13:46:04Z</time>
      </trkpt>
      <trkpt lat="46.20431" lon="6.47949">
        <ele>1382.99</ele>
        <time>2019-02-04T13:46:18Z</time>
      </trkpt>
      <trkpt lat="46.20424" lon="6.47957">
        <ele>1384.44</ele>
        <time>2019-02-04T13:46:29Z</time>
      </trkpt>
      <trkpt lat="46.20418" lon="6.47971">
        <ele>1383.47</ele>
        <time>2019-02-04T13:46:42Z</time>
      </trkpt>
      <trkpt lat="46.20416" lon="6.47972">
        <ele>1383.96</ele>
        <time>2019-02-04T13:46:45Z</time>
      </trkpt>
      <trkpt lat="46.20409" lon="6.47976">
        <ele>1383.96</ele>
        <time>2019-02-04T13:46:55Z</time>
      </trkpt>
      <trkpt lat="46.20402" lon="6.47979">
        <ele>1383.47</ele>
        <time>2019-02-04T13:47:03Z</time>
      </trkpt>
      <trkpt lat="46.20398" lon="6.4798">
        <ele>1383.47</ele>
        <time>2019-02-04T13:47:07Z</time>
      </trkpt>
      <trkpt lat="46.20388" lon="6.47982">
        <ele>1383.47</ele>
        <time>2019-02-04T13:47:19Z</time>
      </trkpt>
      <trkpt lat="46.20382" lon="6.47983">
        <ele>1383.96</ele>
        <time>2019-02-04T13:47:28Z</time>
      </trkpt>
      <trkpt lat="46.2038" lon="6.47982">
        <ele>1384.44</ele>
        <time>2019-02-04T13:47:41Z</time>
      </trkpt>
      <trkpt lat="46.2038" lon="6.47982">
        <ele>1384.44</ele>
        <time>2019-02-04T13:49:02Z</time>
      </trkpt>
      <trkpt lat="46.20381" lon="6.47983">
        <ele>1384.92</ele>
        <time>2019-02-04T13:49:41Z</time>
      </trkpt>
      <trkpt lat="46.20381" lon="6.47983">
        <ele>1384.44</ele>
        <time>2019-02-04T13:50:09Z</time>
      </trkpt>
      <trkpt lat="46.20381" lon="6.47983">
        <ele>1385.4</ele>
        <time>2019-02-04T13:51:46Z</time>
      </trkpt>
      <trkpt lat="46.2038" lon="6.47983">
        <ele>1384.92</ele>
        <time>2019-02-04T13:52:54Z</time>
      </trkpt>
      <trkpt lat="46.20371" lon="6.47982">
        <ele>1384.92</ele>
        <time>2019-02-04T13:53:05Z</time>
      </trkpt>
      <trkpt lat="46.20362" lon="6.47979">
        <ele>1384.44</ele>
        <time>2019-02-04T13:53:16Z</time>
      </trkpt>
      <trkpt lat="46.2036" lon="6.47977">
        <ele>1384.44</ele>
        <time>2019-02-04T13:53:20Z</time>
      </trkpt>
      <trkpt lat="46.20352" lon="6.47978">
        <ele>1384.44</ele>
        <time>2019-02-04T13:53:34Z</time>
      </trkpt>
      <trkpt lat="46.20347" lon="6.47978">
        <ele>1384.44</ele>
        <time>2019-02-04T13:53:40Z</time>
      </trkpt>
      <trkpt lat="46.20342" lon="6.47977">
        <ele>1384.44</ele>
        <time>2019-02-04T13:53:49Z</time>
      </trkpt>
      <trkpt lat="46.20332" lon="6.47975">
        <ele>1385.88</ele>
        <time>2019-02-04T13:54:01Z</time>
      </trkpt>
      <trkpt lat="46.20324" lon="6.47976">
        <ele>1386.36</ele>
        <time>2019-02-04T13:54:11Z</time>
      </trkpt>
      <trkpt lat="46.20314" lon="6.47975">
        <ele>1386.84</ele>
        <time>2019-02-04T13:54:23Z</time>
      </trkpt>
      <trkpt lat="46.20304" lon="6.47975">
        <ele>1387.32</ele>
        <time>2019-02-04T13:54:34Z</time>
      </trkpt>
      <trkpt lat="46.20297" lon="6.47974">
        <ele>1387.32</ele>
        <time>2019-02-04T13:54:43Z</time>
      </trkpt>
      <trkpt lat="46.20292" lon="6.47973">
        <ele>1387.32</ele>
        <time>2019-02-04T13:54:49Z</time>
      </trkpt>
      <trkpt lat="46.20287" lon="6.47973">
        <ele>1387.32</ele>
        <time>2019-02-04T13:54:54Z</time>
      </trkpt>
      <trkpt lat="46.2028" lon="6.47972">
        <ele>1386.84</ele>
        <time>2019-02-04T13:55:01Z</time>
      </trkpt>
      <trkpt lat="46.20275" lon="6.47971">
        <ele>1386.84</ele>
        <time>2019-02-04T13:55:06Z</time>
      </trkpt>
      <trkpt lat="46.20261" lon="6.47973">
        <ele>1385.4</ele>
        <time>2019-02-04T13:55:20Z</time>
      </trkpt>
      <trkpt lat="46.20259" lon="6.47974">
        <ele>1385.4</ele>
        <time>2019-02-04T13:55:22Z</time>
      </trkpt>
      <trkpt lat="46.20245" lon="6.47979">
        <ele>1384.92</ele>
        <time>2019-02-04T13:55:37Z</time>
      </trkpt>
      <trkpt lat="46.20235" lon="6.47982">
        <ele>1383.47</ele>
        <time>2019-02-04T13:55:48Z</time>
      </trkpt>
      <trkpt lat="46.2023" lon="6.47984">
        <ele>1382.03</ele>
        <time>2019-02-04T13:56:04Z</time>
      </trkpt>
      <trkpt lat="46.20221" lon="6.47993">
        <ele>1379.15</ele>
        <time>2019-02-04T13:56:17Z</time>
      </trkpt>
      <trkpt lat="46.2022" lon="6.47995">
        <ele>1379.15</ele>
        <time>2019-02-04T13:56:19Z</time>
      </trkpt>
      <trkpt lat="46.20213" lon="6.48">
        <ele>1376.75</ele>
        <time>2019-02-04T13:56:31Z</time>
      </trkpt>
      <trkpt lat="46.20205" lon="6.48005">
        <ele>1374.34</ele>
        <time>2019-02-04T13:56:44Z</time>
      </trkpt>
      <trkpt lat="46.20204" lon="6.48005">
        <ele>1373.86</ele>
        <time>2019-02-04T13:56:46Z</time>
      </trkpt>
      <trkpt lat="46.20194" lon="6.48007">
        <ele>1371.46</ele>
        <time>2019-02-04T13:56:59Z</time>
      </trkpt>
      <trkpt lat="46.20184" lon="6.48008">
        <ele>1369.54</ele>
        <time>2019-02-04T13:57:13Z</time>
      </trkpt>
      <trkpt lat="46.20173" lon="6.48012">
        <ele>1368.57</ele>
        <time>2019-02-04T13:57:26Z</time>
      </trkpt>
      <trkpt lat="46.20171" lon="6.48014">
        <ele>1367.61</ele>
        <time>2019-02-04T13:57:42Z</time>
      </trkpt>
      <trkpt lat="46.20167" lon="6.48015">
        <ele>1367.13</ele>
        <time>2019-02-04T13:57:56Z</time>
      </trkpt>
      <trkpt lat="46.20167" lon="6.48015">
        <ele>1366.65</ele>
        <time>2019-02-04T13:58:43Z</time>
      </trkpt>
      <trkpt lat="46.20166" lon="6.48016">
        <ele>1367.13</ele>
        <time>2019-02-04T14:00:49Z</time>
      </trkpt>
      <trkpt lat="46.20162" lon="6.48015">
        <ele>1366.65</ele>
        <time>2019-02-04T14:02:02Z</time>
      </trkpt>
      <trkpt lat="46.20156" lon="6.48016">
        <ele>1365.21</ele>
        <time>2019-02-04T14:02:14Z</time>
      </trkpt>
      <trkpt lat="46.20148" lon="6.48017">
        <ele>1363.29</ele>
        <time>2019-02-04T14:02:26Z</time>
      </trkpt>
      <trkpt lat="46.20143" lon="6.48021">
        <ele>1360.88</ele>
        <time>2019-02-04T14:02:38Z</time>
      </trkpt>
      <trkpt lat="46.20142" lon="6.48022">
        <ele>1360.4</ele>
        <time>2019-02-04T14:02:40Z</time>
      </trkpt>
      <trkpt lat="46.20134" lon="6.48026">
        <ele>1357.52</ele>
        <time>2019-02-04T14:02:54Z</time>
      </trkpt>
      <trkpt lat="46.20128" lon="6.48027">
        <ele>1356.08</ele>
        <time>2019-02-04T14:03:07Z</time>
      </trkpt>
      <trkpt lat="46.2012" lon="6.48023">
        <ele>1354.15</ele>
        <time>2019-02-04T14:03:18Z</time>
      </trkpt>
      <trkpt lat="46.20114" lon="6.48021">
        <ele>1351.75</ele>
        <time>2019-02-04T14:03:30Z</time>
      </trkpt>
      <trkpt lat="46.20108" lon="6.48023">
        <ele>1349.35</ele>
        <time>2019-02-04T14:03:41Z</time>
      </trkpt>
      <trkpt lat="46.20102" lon="6.48016">
        <ele>1348.87</ele>
        <time>2019-02-04T14:03:53Z</time>
      </trkpt>
      <trkpt lat="46.20098" lon="6.48011">
        <ele>1348.87</ele>
        <time>2019-02-04T14:04:05Z</time>
      </trkpt>
      <trkpt lat="46.20092" lon="6.48001">
        <ele>1348.87</ele>
        <time>2019-02-04T14:04:17Z</time>
      </trkpt>
      <trkpt lat="46.20085" lon="6.47995">
        <ele>1348.39</ele>
        <time>2019-02-04T14:04:29Z</time>
      </trkpt>
      <trkpt lat="46.20077" lon="6.47991">
        <ele>1346.46</ele>
        <time>2019-02-04T14:04:43Z</time>
      </trkpt>
      <trkpt lat="46.20074" lon="6.47989">
        <ele>1345.5</ele>
        <time>2019-02-04T14:04:54Z</time>
      </trkpt>
      <trkpt lat="46.20067" lon="6.47985">
        <ele>1343.1</ele>
        <time>2019-02-04T14:05:08Z</time>
      </trkpt>
      <trkpt lat="46.20059" lon="6.47982">
        <ele>1341.18</ele>
        <time>2019-02-04T14:05:19Z</time>
      </trkpt>
      <trkpt lat="46.20051" lon="6.4798">
        <ele>1338.77</ele>
        <time>2019-02-04T14:05:32Z</time>
      </trkpt>
      <trkpt lat="46.20045" lon="6.47978">
        <ele>1336.85</ele>
        <time>2019-02-04T14:05:44Z</time>
      </trkpt>
      <trkpt lat="46.2004" lon="6.47977">
        <ele>1334.93</ele>
        <time>2019-02-04T14:05:54Z</time>
      </trkpt>
      <trkpt lat="46.20033" lon="6.47974">
        <ele>1332.04</ele>
        <time>2019-02-04T14:06:06Z</time>
      </trkpt>
      <trkpt lat="46.20033" lon="6.47974">
        <ele>1332.52</ele>
        <time>2019-02-04T14:06:07Z</time>
      </trkpt>
      <trkpt lat="46.20025" lon="6.47971">
        <ele>1330.6</ele>
        <time>2019-02-04T14:06:20Z</time>
      </trkpt>
      <trkpt lat="46.2002" lon="6.47972">
        <ele>1328.2</ele>
        <time>2019-02-04T14:06:31Z</time>
      </trkpt>
      <trkpt lat="46.20015" lon="6.47972">
        <ele>1326.28</ele>
        <time>2019-02-04T14:06:41Z</time>
      </trkpt>
      <trkpt lat="46.20006" lon="6.47972">
        <ele>1323.87</ele>
        <time>2019-02-04T14:06:54Z</time>
      </trkpt>
      <trkpt lat="46.20003" lon="6.47972">
        <ele>1322.91</ele>
        <time>2019-02-04T14:06:57Z</time>
      </trkpt>
      <trkpt lat="46.19992" lon="6.4797">
        <ele>1320.03</ele>
        <time>2019-02-04T14:07:10Z</time>
      </trkpt>
      <trkpt lat="46.19985" lon="6.47968">
        <ele>1318.59</ele>
        <time>2019-02-04T14:07:22Z</time>
      </trkpt>
      <trkpt lat="46.19977" lon="6.47966">
        <ele>1316.66</ele>
        <time>2019-02-04T14:07:33Z</time>
      </trkpt>
      <trkpt lat="46.19969" lon="6.47965">
        <ele>1314.74</ele>
        <time>2019-02-04T14:07:44Z</time>
      </trkpt>
      <trkpt lat="46.19961" lon="6.47966">
        <ele>1313.3</ele>
        <time>2019-02-04T14:07:55Z</time>
      </trkpt>
      <trkpt lat="46.19953" lon="6.47966">
        <ele>1310.9</ele>
        <time>2019-02-04T14:08:07Z</time>
      </trkpt>
      <trkpt lat="46.19944" lon="6.47963">
        <ele>1309.93</ele>
        <time>2019-02-04T14:08:20Z</time>
      </trkpt>
      <trkpt lat="46.19936" lon="6.47963">
        <ele>1308.97</ele>
        <time>2019-02-04T14:08:32Z</time>
      </trkpt>
      <trkpt lat="46.19928" lon="6.47964">
        <ele>1307.53</ele>
        <time>2019-02-04T14:08:44Z</time>
      </trkpt>
      <trkpt lat="46.19919" lon="6.47964">
        <ele>1306.57</ele>
        <time>2019-02-04T14:08:56Z</time>
      </trkpt>
      <trkpt lat="46.19913" lon="6.4796">
        <ele>1305.61</ele>
        <time>2019-02-04T14:09:07Z</time>
      </trkpt>
      <trkpt lat="46.1991" lon="6.47949">
        <ele>1305.13</ele>
        <time>2019-02-04T14:09:18Z</time>
      </trkpt>
      <trkpt lat="46.19909" lon="6.47947">
        <ele>1305.13</ele>
        <time>2019-02-04T14:09:20Z</time>
      </trkpt>
      <trkpt lat="46.19903" lon="6.47931">
        <ele>1305.13</ele>
        <time>2019-02-04T14:09:33Z</time>
      </trkpt>
      <trkpt lat="46.19901" lon="6.4793">
        <ele>1304.65</ele>
        <time>2019-02-04T14:09:35Z</time>
      </trkpt>
      <trkpt lat="46.19896" lon="6.47922">
        <ele>1304.65</ele>
        <time>2019-02-04T14:09:45Z</time>
      </trkpt>
      <trkpt lat="46.19895" lon="6.47921">
        <ele>1304.65</ele>
        <time>2019-02-04T14:09:47Z</time>
      </trkpt>
      <trkpt lat="46.19894" lon="6.47918">
        <ele>1304.17</ele>
        <time>2019-02-04T14:09:49Z</time>
      </trkpt>
      <trkpt lat="46.19892" lon="6.47916">
        <ele>1304.17</ele>
        <time>2019-02-04T14:09:51Z</time>
      </trkpt>
      <trkpt lat="46.19884" lon="6.47901">
        <ele>1302.72</ele>
        <time>2019-02-04T14:10:06Z</time>
      </trkpt>
      <trkpt lat="46.19878" lon="6.47889">
        <ele>1303.2</ele>
        <time>2019-02-04T14:10:19Z</time>
      </trkpt>
      <trkpt lat="46.19871" lon="6.47878">
        <ele>1303.2</ele>
        <time>2019-02-04T14:10:33Z</time>
      </trkpt>
      <trkpt lat="46.19866" lon="6.4787">
        <ele>1303.69</ele>
        <time>2019-02-04T14:10:41Z</time>
      </trkpt>
      <trkpt lat="46.19858" lon="6.47859">
        <ele>1303.69</ele>
        <time>2019-02-04T14:10:54Z</time>
      </trkpt>
      <trkpt lat="46.1985" lon="6.47851">
        <ele>1303.2</ele>
        <time>2019-02-04T14:11:07Z</time>
      </trkpt>
      <trkpt lat="46.19841" lon="6.47841">
        <ele>1303.2</ele>
        <time>2019-02-04T14:11:20Z</time>
      </trkpt>
      <trkpt lat="46.19834" lon="6.47834">
        <ele>1303.69</ele>
        <time>2019-02-04T14:11:32Z</time>
      </trkpt>
      <trkpt lat="46.19826" lon="6.47827">
        <ele>1304.17</ele>
        <time>2019-02-04T14:11:41Z</time>
      </trkpt>
      <trkpt lat="46.19819" lon="6.47819">
        <ele>1304.17</ele>
        <time>2019-02-04T14:11:51Z</time>
      </trkpt>
      <trkpt lat="46.19817" lon="6.47819">
        <ele>1304.17</ele>
        <time>2019-02-04T14:11:53Z</time>
      </trkpt>
      <trkpt lat="46.19809" lon="6.47811">
        <ele>1304.17</ele>
        <time>2019-02-04T14:12:04Z</time>
      </trkpt>
      <trkpt lat="46.19801" lon="6.47801">
        <ele>1305.13</ele>
        <time>2019-02-04T14:12:18Z</time>
      </trkpt>
      <trkpt lat="46.19793" lon="6.47793">
        <ele>1307.05</ele>
        <time>2019-02-04T14:12:30Z</time>
      </trkpt>
      <trkpt lat="46.19785" lon="6.47785">
        <ele>1307.05</ele>
        <time>2019-02-04T14:12:42Z</time>
      </trkpt>
      <trkpt lat="46.19777" lon="6.47777">
        <ele>1308.49</ele>
        <time>2019-02-04T14:12:54Z</time>
      </trkpt>
      <trkpt lat="46.19769" lon="6.47768">
        <ele>1308.97</ele>
        <time>2019-02-04T14:13:07Z</time>
      </trkpt>
      <trkpt lat="46.19762" lon="6.47761">
        <ele>1308.97</ele>
        <time>2019-02-04T14:13:16Z</time>
      </trkpt>
      <trkpt lat="46.19761" lon="6.4776">
        <ele>1308.49</ele>
        <time>2019-02-04T14:13:18Z</time>
      </trkpt>
      <trkpt lat="46.19752" lon="6.47749">
        <ele>1307.53</ele>
        <time>2019-02-04T14:13:30Z</time>
      </trkpt>
      <trkpt lat="46.1975" lon="6.47748">
        <ele>1307.53</ele>
        <time>2019-02-04T14:13:32Z</time>
      </trkpt>
      <trkpt lat="46.19748" lon="6.47745">
        <ele>1307.05</ele>
        <time>2019-02-04T14:13:36Z</time>
      </trkpt>
      <trkpt lat="46.19739" lon="6.47741">
        <ele>1306.57</ele>
        <time>2019-02-04T14:13:45Z</time>
      </trkpt>
      <trkpt lat="46.19737" lon="6.47739">
        <ele>1306.57</ele>
        <time>2019-02-04T14:13:47Z</time>
      </trkpt>
      <trkpt lat="46.19736" lon="6.47738">
        <ele>1306.09</ele>
        <time>2019-02-04T14:13:49Z</time>
      </trkpt>
      <trkpt lat="46.19727" lon="6.47728">
        <ele>1306.57</ele>
        <time>2019-02-04T14:14:03Z</time>
      </trkpt>
      <trkpt lat="46.19721" lon="6.47723">
        <ele>1306.09</ele>
        <time>2019-02-04T14:14:16Z</time>
      </trkpt>
      <trkpt lat="46.19715" lon="6.47712">
        <ele>1306.09</ele>
        <time>2019-02-04T14:14:27Z</time>
      </trkpt>
      <trkpt lat="46.1971" lon="6.47702">
        <ele>1305.13</ele>
        <time>2019-02-04T14:14:39Z</time>
      </trkpt>
      <trkpt lat="46.19706" lon="6.47692">
        <ele>1304.17</ele>
        <time>2019-02-04T14:14:50Z</time>
      </trkpt>
      <trkpt lat="46.19703" lon="6.47688">
        <ele>1303.2</ele>
        <time>2019-02-04T14:14:56Z</time>
      </trkpt>
      <trkpt lat="46.19697" lon="6.47671">
        <ele>1302.72</ele>
        <time>2019-02-04T14:15:11Z</time>
      </trkpt>
      <trkpt lat="46.19694" lon="6.47666">
        <ele>1302.24</ele>
        <time>2019-02-04T14:15:16Z</time>
      </trkpt>
      <trkpt lat="46.19694" lon="6.47664">
        <ele>1302.24</ele>
        <time>2019-02-04T14:15:18Z</time>
      </trkpt>
      <trkpt lat="46.19693" lon="6.47661">
        <ele>1302.24</ele>
        <time>2019-02-04T14:15:20Z</time>
      </trkpt>
      <trkpt lat="46.1969" lon="6.47645">
        <ele>1300.8</ele>
        <time>2019-02-04T14:15:34Z</time>
      </trkpt>
      <trkpt lat="46.19688" lon="6.47639">
        <ele>1300.32</ele>
        <time>2019-02-04T14:15:39Z</time>
      </trkpt>
      <trkpt lat="46.19688" lon="6.47636">
        <ele>1300.8</ele>
        <time>2019-02-04T14:15:41Z</time>
      </trkpt>
      <trkpt lat="46.19682" lon="6.47622">
        <ele>1299.84</ele>
        <time>2019-02-04T14:15:54Z</time>
      </trkpt>
      <trkpt lat="46.19675" lon="6.47609">
        <ele>1298.88</ele>
        <time>2019-02-04T14:16:07Z</time>
      </trkpt>
      <trkpt lat="46.19674" lon="6.47607">
        <ele>1299.36</ele>
        <time>2019-02-04T14:16:09Z</time>
      </trkpt>
      <trkpt lat="46.19673" lon="6.47605">
        <ele>1298.88</ele>
        <time>2019-02-04T14:16:11Z</time>
      </trkpt>
      <trkpt lat="46.19666" lon="6.47593">
        <ele>1298.4</ele>
        <time>2019-02-04T14:16:23Z</time>
      </trkpt>
      <trkpt lat="46.1966" lon="6.47582">
        <ele>1297.92</ele>
        <time>2019-02-04T14:16:35Z</time>
      </trkpt>
      <trkpt lat="46.19653" lon="6.47568">
        <ele>1296.96</ele>
        <time>2019-02-04T14:16:48Z</time>
      </trkpt>
      <trkpt lat="46.19652" lon="6.47561">
        <ele>1296.48</ele>
        <time>2019-02-04T14:16:53Z</time>
      </trkpt>
      <trkpt lat="46.19652" lon="6.47556">
        <ele>1296.96</ele>
        <time>2019-02-04T14:17:00Z</time>
      </trkpt>
      <trkpt lat="46.19651" lon="6.47545">
        <ele>1296.96</ele>
        <time>2019-02-04T14:17:09Z</time>
      </trkpt>
      <trkpt lat="46.19646" lon="6.47527">
        <ele>1295.99</ele>
        <time>2019-02-04T14:17:23Z</time>
      </trkpt>
      <trkpt lat="46.19644" lon="6.47516">
        <ele>1295.99</ele>
        <time>2019-02-04T14:17:34Z</time>
      </trkpt>
      <trkpt lat="46.19643" lon="6.47503">
        <ele>1295.51</ele>
        <time>2019-02-04T14:17:46Z</time>
      </trkpt>
      <trkpt lat="46.19641" lon="6.4749">
        <ele>1294.07</ele>
        <time>2019-02-04T14:17:59Z</time>
      </trkpt>
      <trkpt lat="46.19637" lon="6.47486">
        <ele>1293.59</ele>
        <time>2019-02-04T14:18:10Z</time>
      </trkpt>
      <trkpt lat="46.19632" lon="6.47475">
        <ele>1293.11</ele>
        <time>2019-02-04T14:18:23Z</time>
      </trkpt>
      <trkpt lat="46.19625" lon="6.47469">
        <ele>1291.67</ele>
        <time>2019-02-04T14:18:36Z</time>
      </trkpt>
      <trkpt lat="46.1962" lon="6.47458">
        <ele>1289.75</ele>
        <time>2019-02-04T14:18:49Z</time>
      </trkpt>
      <trkpt lat="46.19615" lon="6.47451">
        <ele>1288.78</ele>
        <time>2019-02-04T14:18:58Z</time>
      </trkpt>
      <trkpt lat="46.19606" lon="6.47444">
        <ele>1287.82</ele>
        <time>2019-02-04T14:19:12Z</time>
      </trkpt>
      <trkpt lat="46.19597" lon="6.47442">
        <ele>1287.82</ele>
        <time>2019-02-04T14:19:25Z</time>
      </trkpt>
      <trkpt lat="46.19596" lon="6.47442">
        <ele>1287.34</ele>
        <time>2019-02-04T14:19:27Z</time>
      </trkpt>
      <trkpt lat="46.19594" lon="6.47443">
        <ele>1287.34</ele>
        <time>2019-02-04T14:19:30Z</time>
      </trkpt>
      <trkpt lat="46.19583" lon="6.47441">
        <ele>1285.9</ele>
        <time>2019-02-04T14:19:46Z</time>
      </trkpt>
      <trkpt lat="46.19577" lon="6.47439">
        <ele>1284.94</ele>
        <time>2019-02-04T14:20:00Z</time>
      </trkpt>
      <trkpt lat="46.19577" lon="6.4744">
        <ele>1285.9</ele>
        <time>2019-02-04T14:20:16Z</time>
      </trkpt>
      <trkpt lat="46.19577" lon="6.4744">
        <ele>1285.42</ele>
        <time>2019-02-04T14:21:11Z</time>
      </trkpt>
      <trkpt lat="46.19577" lon="6.47439">
        <ele>1283.98</ele>
        <time>2019-02-04T14:21:48Z</time>
      </trkpt>
      <trkpt lat="46.19575" lon="6.47437">
        <ele>1286.38</ele>
        <time>2019-02-04T14:28:36Z</time>
      </trkpt>
      <trkpt lat="46.19574" lon="6.47438">
        <ele>1286.86</ele>
        <time>2019-02-04T14:28:53Z</time>
      </trkpt>
      <trkpt lat="46.19574" lon="6.47438">
        <ele>1286.38</ele>
        <time>2019-02-04T14:29:36Z</time>
      </trkpt>
      <trkpt lat="46.19574" lon="6.47438">
        <ele>1286.38</ele>
        <time>2019-02-04T14:30:31Z</time>
      </trkpt>
      <trkpt lat="46.19575" lon="6.47438">
        <ele>1285.9</ele>
        <time>2019-02-04T14:31:22Z</time>
      </trkpt>
      <trkpt lat="46.19573" lon="6.47429">
        <ele>1285.42</ele>
        <time>2019-02-04T14:31:50Z</time>
      </trkpt>
      <trkpt lat="46.19567" lon="6.47419">
        <ele>1283.02</ele>
        <time>2019-02-04T14:32:02Z</time>
      </trkpt>
      <trkpt lat="46.19565" lon="6.47416">
        <ele>1282.54</ele>
        <time>2019-02-04T14:32:06Z</time>
      </trkpt>
      <trkpt lat="46.19559" lon="6.47402">
        <ele>1279.17</ele>
        <time>2019-02-04T14:32:22Z</time>
      </trkpt>
      <trkpt lat="46.19552" lon="6.47392">
        <ele>1277.73</ele>
        <time>2019-02-04T14:32:35Z</time>
      </trkpt>
      <trkpt lat="46.19547" lon="6.47385">
        <ele>1276.77</ele>
        <time>2019-02-04T14:32:48Z</time>
      </trkpt>
      <trkpt lat="46.19544" lon="6.47384">
        <ele>1275.81</ele>
        <time>2019-02-04T14:32:53Z</time>
      </trkpt>
      <trkpt lat="46.19539" lon="6.47376">
        <ele>1275.33</ele>
        <time>2019-02-04T14:33:03Z</time>
      </trkpt>
      <trkpt lat="46.19534" lon="6.4737">
        <ele>1274.36</ele>
        <time>2019-02-04T14:33:16Z</time>
      </trkpt>
      <trkpt lat="46.1953" lon="6.4736">
        <ele>1272.44</ele>
        <time>2019-02-04T14:33:27Z</time>
      </trkpt>
      <trkpt lat="46.19527" lon="6.47355">
        <ele>1272.44</ele>
        <time>2019-02-04T14:33:33Z</time>
      </trkpt>
      <trkpt lat="46.19525" lon="6.47345">
        <ele>1269.56</ele>
        <time>2019-02-04T14:33:46Z</time>
      </trkpt>
      <trkpt lat="46.19523" lon="6.47337">
        <ele>1267.64</ele>
        <time>2019-02-04T14:33:58Z</time>
      </trkpt>
      <trkpt lat="46.1952" lon="6.47327">
        <ele>1264.75</ele>
        <time>2019-02-04T14:34:11Z</time>
      </trkpt>
      <trkpt lat="46.19517" lon="6.47316">
        <ele>1261.87</ele>
        <time>2019-02-04T14:34:23Z</time>
      </trkpt>
      <trkpt lat="46.19515" lon="6.47305">
        <ele>1259.94</ele>
        <time>2019-02-04T14:34:35Z</time>
      </trkpt>
      <trkpt lat="46.19512" lon="6.47292">
        <ele>1258.02</ele>
        <time>2019-02-04T14:34:47Z</time>
      </trkpt>
      <trkpt lat="46.19508" lon="6.47281">
        <ele>1256.1</ele>
        <time>2019-02-04T14:34:59Z</time>
      </trkpt>
      <trkpt lat="46.19506" lon="6.47274">
        <ele>1256.1</ele>
        <time>2019-02-04T14:35:13Z</time>
      </trkpt>
      <trkpt lat="46.19505" lon="6.47273">
        <ele>1256.1</ele>
        <time>2019-02-04T14:35:29Z</time>
      </trkpt>
      <trkpt lat="46.19501" lon="6.47267">
        <ele>1255.62</ele>
        <time>2019-02-04T14:35:42Z</time>
      </trkpt>
      <trkpt lat="46.19497" lon="6.47259">
        <ele>1255.62</ele>
        <time>2019-02-04T14:35:51Z</time>
      </trkpt>
      <trkpt lat="46.19495" lon="6.47256">
        <ele>1256.58</ele>
        <time>2019-02-04T14:36:00Z</time>
      </trkpt>
      <trkpt lat="46.19493" lon="6.47247">
        <ele>1258.02</ele>
        <time>2019-02-04T14:36:10Z</time>
      </trkpt>
      <trkpt lat="46.19492" lon="6.47247">
        <ele>1257.54</ele>
        <time>2019-02-04T14:36:11Z</time>
      </trkpt>
      <trkpt lat="46.19488" lon="6.47241">
        <ele>1258.02</ele>
        <time>2019-02-04T14:36:21Z</time>
      </trkpt>
      <trkpt lat="46.19482" lon="6.47233">
        <ele>1257.54</ele>
        <time>2019-02-04T14:36:32Z</time>
      </trkpt>
      <trkpt lat="46.19479" lon="6.47228">
        <ele>1257.54</ele>
        <time>2019-02-04T14:36:41Z</time>
      </trkpt>
      <trkpt lat="46.19474" lon="6.47218">
        <ele>1256.1</ele>
        <time>2019-02-04T14:36:53Z</time>
      </trkpt>
      <trkpt lat="46.1947" lon="6.47206">
        <ele>1256.1</ele>
        <time>2019-02-04T14:37:07Z</time>
      </trkpt>
      <trkpt lat="46.19465" lon="6.47197">
        <ele>1255.14</ele>
        <time>2019-02-04T14:37:19Z</time>
      </trkpt>
      <trkpt lat="46.19462" lon="6.47189">
        <ele>1255.14</ele>
        <time>2019-02-04T14:37:29Z</time>
      </trkpt>
      <trkpt lat="46.19457" lon="6.4718">
        <ele>1253.7</ele>
        <time>2019-02-04T14:37:41Z</time>
      </trkpt>
      <trkpt lat="46.19455" lon="6.47172">
        <ele>1253.22</ele>
        <time>2019-02-04T14:37:53Z</time>
      </trkpt>
      <trkpt lat="46.19451" lon="6.47162">
        <ele>1252.25</ele>
        <time>2019-02-04T14:38:05Z</time>
      </trkpt>
      <trkpt lat="46.19447" lon="6.47152">
        <ele>1251.77</ele>
        <time>2019-02-04T14:38:17Z</time>
      </trkpt>
      <trkpt lat="46.19444" lon="6.47141">
        <ele>1251.29</ele>
        <time>2019-02-04T14:38:28Z</time>
      </trkpt>
      <trkpt lat="46.19439" lon="6.47132">
        <ele>1251.29</ele>
        <time>2019-02-04T14:38:39Z</time>
      </trkpt>
      <trkpt lat="46.19438" lon="6.47128">
        <ele>1250.81</ele>
        <time>2019-02-04T14:38:50Z</time>
      </trkpt>
      <trkpt lat="46.19435" lon="6.47122">
        <ele>1250.33</ele>
        <time>2019-02-04T14:39:04Z</time>
      </trkpt>
      <trkpt lat="46.19431" lon="6.47113">
        <ele>1249.85</ele>
        <time>2019-02-04T14:39:16Z</time>
      </trkpt>
      <trkpt lat="46.19427" lon="6.47106">
        <ele>1249.37</ele>
        <time>2019-02-04T14:39:27Z</time>
      </trkpt>
      <trkpt lat="46.19423" lon="6.47097">
        <ele>1248.41</ele>
        <time>2019-02-04T14:39:39Z</time>
      </trkpt>
      <trkpt lat="46.19416" lon="6.47093">
        <ele>1247.45</ele>
        <time>2019-02-04T14:39:50Z</time>
      </trkpt>
      <trkpt lat="46.19414" lon="6.4709">
        <ele>1247.45</ele>
        <time>2019-02-04T14:39:55Z</time>
      </trkpt>
      <trkpt lat="46.19407" lon="6.47087">
        <ele>1246.49</ele>
        <time>2019-02-04T14:40:06Z</time>
      </trkpt>
      <trkpt lat="46.194" lon="6.47081">
        <ele>1245.04</ele>
        <time>2019-02-04T14:40:18Z</time>
      </trkpt>
      <trkpt lat="46.19397" lon="6.47072">
        <ele>1244.08</ele>
        <time>2019-02-04T14:40:31Z</time>
      </trkpt>
      <trkpt lat="46.19396" lon="6.47071">
        <ele>1244.08</ele>
        <time>2019-02-04T14:40:32Z</time>
      </trkpt>
      <trkpt lat="46.19393" lon="6.47063">
        <ele>1243.6</ele>
        <time>2019-02-04T14:40:43Z</time>
      </trkpt>
      <trkpt lat="46.19387" lon="6.47056">
        <ele>1242.64</ele>
        <time>2019-02-04T14:40:53Z</time>
      </trkpt>
      <trkpt lat="46.19388" lon="6.47043">
        <ele>1243.12</ele>
        <time>2019-02-04T14:41:02Z</time>
      </trkpt>
      <trkpt lat="46.19389" lon="6.4704">
        <ele>1243.12</ele>
        <time>2019-02-04T14:41:04Z</time>
      </trkpt>
      <trkpt lat="46.1939" lon="6.47037">
        <ele>1243.12</ele>
        <time>2019-02-04T14:41:06Z</time>
      </trkpt>
      <trkpt lat="46.19392" lon="6.47028">
        <ele>1243.6</ele>
        <time>2019-02-04T14:41:13Z</time>
      </trkpt>
      <trkpt lat="46.19392" lon="6.47025">
        <ele>1243.6</ele>
        <time>2019-02-04T14:41:15Z</time>
      </trkpt>
      <trkpt lat="46.19396" lon="6.47008">
        <ele>1243.6</ele>
        <time>2019-02-04T14:41:29Z</time>
      </trkpt>
      <trkpt lat="46.194" lon="6.46997">
        <ele>1245.04</ele>
        <time>2019-02-04T14:41:40Z</time>
      </trkpt>
      <trkpt lat="46.19401" lon="6.46994">
        <ele>1245.53</ele>
        <time>2019-02-04T14:41:43Z</time>
      </trkpt>
      <trkpt lat="46.19402" lon="6.4699">
        <ele>1245.53</ele>
        <time>2019-02-04T14:41:47Z</time>
      </trkpt>
      <trkpt lat="46.19403" lon="6.4698">
        <ele>1246.49</ele>
        <time>2019-02-04T14:41:55Z</time>
      </trkpt>
      <trkpt lat="46.19398" lon="6.46971">
        <ele>1246.01</ele>
        <time>2019-02-04T14:42:04Z</time>
      </trkpt>
      <trkpt lat="46.19395" lon="6.46967">
        <ele>1246.01</ele>
        <time>2019-02-04T14:42:08Z</time>
      </trkpt>
      <trkpt lat="46.19388" lon="6.46962">
        <ele>1245.53</ele>
        <time>2019-02-04T14:42:16Z</time>
      </trkpt>
      <trkpt lat="46.19376" lon="6.46957">
        <ele>1245.53</ele>
        <time>2019-02-04T14:42:29Z</time>
      </trkpt>
      <trkpt lat="46.19369" lon="6.46952">
        <ele>1244.56</ele>
        <time>2019-02-04T14:42:42Z</time>
      </trkpt>
      <trkpt lat="46.19365" lon="6.46947">
        <ele>1244.08</ele>
        <time>2019-02-04T14:42:56Z</time>
      </trkpt>
      <trkpt lat="46.1936" lon="6.46942">
        <ele>1243.6</ele>
        <time>2019-02-04T14:43:07Z</time>
      </trkpt>
      <trkpt lat="46.19355" lon="6.46938">
        <ele>1244.08</ele>
        <time>2019-02-04T14:43:18Z</time>
      </trkpt>
      <trkpt lat="46.19349" lon="6.4694">
        <ele>1243.6</ele>
        <time>2019-02-04T14:43:29Z</time>
      </trkpt>
      <trkpt lat="46.19345" lon="6.4694">
        <ele>1244.08</ele>
        <time>2019-02-04T14:43:41Z</time>
      </trkpt>
      <trkpt lat="46.19346" lon="6.46933">
        <ele>1243.6</ele>
        <time>2019-02-04T14:43:52Z</time>
      </trkpt>
      <trkpt lat="46.19351" lon="6.46927">
        <ele>1244.08</ele>
        <time>2019-02-04T14:44:02Z</time>
      </trkpt>
      <trkpt lat="46.19352" lon="6.46926">
        <ele>1243.6</ele>
        <time>2019-02-04T14:44:04Z</time>
      </trkpt>
      <trkpt lat="46.19354" lon="6.46922">
        <ele>1243.12</ele>
        <time>2019-02-04T14:44:16Z</time>
      </trkpt>
      <trkpt lat="46.19355" lon="6.46918">
        <ele>1243.6</ele>
        <time>2019-02-04T14:44:28Z</time>
      </trkpt>
      <trkpt lat="46.19359" lon="6.46912">
        <ele>1243.6</ele>
        <time>2019-02-04T14:44:38Z</time>
      </trkpt>
      <trkpt lat="46.19362" lon="6.46909">
        <ele>1244.08</ele>
        <time>2019-02-04T14:44:47Z</time>
      </trkpt>
      <trkpt lat="46.19365" lon="6.46907">
        <ele>1244.56</ele>
        <time>2019-02-04T14:44:54Z</time>
      </trkpt>
      <trkpt lat="46.19365" lon="6.46906">
        <ele>1245.53</ele>
        <time>2019-02-04T14:45:06Z</time>
      </trkpt>
      <trkpt lat="46.19365" lon="6.46906">
        <ele>1246.49</ele>
        <time>2019-02-04T14:45:26Z</time>
      </trkpt>
      <trkpt lat="46.19366" lon="6.46906">
        <ele>1246.97</ele>
        <time>2019-02-04T14:45:44Z</time>
      </trkpt>
      <trkpt lat="46.19367" lon="6.46905">
        <ele>1247.93</ele>
        <time>2019-02-04T14:46:00Z</time>
      </trkpt>
      <trkpt lat="46.19369" lon="6.46901">
        <ele>1249.37</ele>
        <time>2019-02-04T14:46:13Z</time>
      </trkpt>
      <trkpt lat="46.19373" lon="6.46891">
        <ele>1251.29</ele>
        <time>2019-02-04T14:46:25Z</time>
      </trkpt>
      <trkpt lat="46.19374" lon="6.46889">
        <ele>1252.25</ele>
        <time>2019-02-04T14:46:43Z</time>
      </trkpt>
      <trkpt lat="46.19376" lon="6.46888">
        <ele>1252.74</ele>
        <time>2019-02-04T14:46:54Z</time>
      </trkpt>
      <trkpt lat="46.19381" lon="6.4688">
        <ele>1254.18</ele>
        <time>2019-02-04T14:47:07Z</time>
      </trkpt>
      <trkpt lat="46.19389" lon="6.46873">
        <ele>1254.66</ele>
        <time>2019-02-04T14:47:19Z</time>
      </trkpt>
      <trkpt lat="46.19398" lon="6.46871">
        <ele>1253.7</ele>
        <time>2019-02-04T14:47:32Z</time>
      </trkpt>
      <trkpt lat="46.19407" lon="6.46873">
        <ele>1251.29</ele>
        <time>2019-02-04T14:47:44Z</time>
      </trkpt>
      <trkpt lat="46.19415" lon="6.46874">
        <ele>1249.37</ele>
        <time>2019-02-04T14:47:55Z</time>
      </trkpt>
      <trkpt lat="46.19423" lon="6.4687">
        <ele>1246.49</ele>
        <time>2019-02-04T14:48:08Z</time>
      </trkpt>
      <trkpt lat="46.1943" lon="6.46867">
        <ele>1245.53</ele>
        <time>2019-02-04T14:48:19Z</time>
      </trkpt>
      <trkpt lat="46.19433" lon="6.46864">
        <ele>1245.04</ele>
        <time>2019-02-04T14:48:24Z</time>
      </trkpt>
      <trkpt lat="46.19435" lon="6.46862">
        <ele>1244.56</ele>
        <time>2019-02-04T14:48:26Z</time>
      </trkpt>
      <trkpt lat="46.19436" lon="6.4686">
        <ele>1245.04</ele>
        <time>2019-02-04T14:48:28Z</time>
      </trkpt>
      <trkpt lat="46.19443" lon="6.4685">
        <ele>1242.64</ele>
        <time>2019-02-04T14:48:38Z</time>
      </trkpt>
      <trkpt lat="46.19445" lon="6.46847">
        <ele>1241.68</ele>
        <time>2019-02-04T14:48:41Z</time>
      </trkpt>
      <trkpt lat="46.1945" lon="6.46844">
        <ele>1240.72</ele>
        <time>2019-02-04T14:48:46Z</time>
      </trkpt>
      <trkpt lat="46.19462" lon="6.46847">
        <ele>1239.28</ele>
        <time>2019-02-04T14:48:59Z</time>
      </trkpt>
      <trkpt lat="46.19471" lon="6.4684">
        <ele>1237.35</ele>
        <time>2019-02-04T14:49:12Z</time>
      </trkpt>
      <trkpt lat="46.19479" lon="6.46832">
        <ele>1235.43</ele>
        <time>2019-02-04T14:49:24Z</time>
      </trkpt>
      <trkpt lat="46.19487" lon="6.46824">
        <ele>1233.03</ele>
        <time>2019-02-04T14:49:37Z</time>
      </trkpt>
      <trkpt lat="46.19495" lon="6.46815">
        <ele>1231.11</ele>
        <time>2019-02-04T14:49:49Z</time>
      </trkpt>
      <trkpt lat="46.195" lon="6.4681">
        <ele>1230.14</ele>
        <time>2019-02-04T14:49:55Z</time>
      </trkpt>
      <trkpt lat="46.19506" lon="6.46806">
        <ele>1229.18</ele>
        <time>2019-02-04T14:50:01Z</time>
      </trkpt>
      <trkpt lat="46.19515" lon="6.46802">
        <ele>1227.74</ele>
        <time>2019-02-04T14:50:15Z</time>
      </trkpt>
      <trkpt lat="46.19515" lon="6.46802">
        <ele>1227.74</ele>
        <time>2019-02-04T14:52:00Z</time>
      </trkpt>
      <trkpt lat="46.19515" lon="6.46806">
        <ele>1227.74</ele>
        <time>2019-02-04T14:53:09Z</time>
      </trkpt>
      <trkpt lat="46.19515" lon="6.46808">
        <ele>1228.7</ele>
        <time>2019-02-04T14:53:11Z</time>
      </trkpt>
      <trkpt lat="46.19523" lon="6.46819">
        <ele>1228.22</ele>
        <time>2019-02-04T14:53:23Z</time>
      </trkpt>
      <trkpt lat="46.19529" lon="6.46822">
        <ele>1227.74</ele>
        <time>2019-02-04T14:53:30Z</time>
      </trkpt>
      <trkpt lat="46.19538" lon="6.46812">
        <ele>1227.26</ele>
        <time>2019-02-04T14:53:43Z</time>
      </trkpt>
      <trkpt lat="46.19539" lon="6.46807">
        <ele>1227.26</ele>
        <time>2019-02-04T14:53:46Z</time>
      </trkpt>
      <trkpt lat="46.19542" lon="6.46793">
        <ele>1226.78</ele>
        <time>2019-02-04T14:54:00Z</time>
      </trkpt>
      <trkpt lat="46.19545" lon="6.46791">
        <ele>1226.3</ele>
        <time>2019-02-04T14:54:06Z</time>
      </trkpt>
      <trkpt lat="46.19548" lon="6.4679">
        <ele>1226.3</ele>
        <time>2019-02-04T14:54:11Z</time>
      </trkpt>
      <trkpt lat="46.19554" lon="6.46792">
        <ele>1226.78</ele>
        <time>2019-02-04T14:54:22Z</time>
      </trkpt>
      <trkpt lat="46.1956" lon="6.46796">
        <ele>1227.26</ele>
        <time>2019-02-04T14:54:33Z</time>
      </trkpt>
      <trkpt lat="46.19562" lon="6.46797">
        <ele>1227.74</ele>
        <time>2019-02-04T14:54:39Z</time>
      </trkpt>
      <trkpt lat="46.19567" lon="6.46803">
        <ele>1228.22</ele>
        <time>2019-02-04T14:54:50Z</time>
      </trkpt>
      <trkpt lat="46.19568" lon="6.46803">
        <ele>1228.7</ele>
        <time>2019-02-04T14:54:52Z</time>
      </trkpt>
      <trkpt lat="46.19576" lon="6.46809">
        <ele>1229.18</ele>
        <time>2019-02-04T14:55:04Z</time>
      </trkpt>
      <trkpt lat="46.19584" lon="6.46815">
        <ele>1229.18</ele>
        <time>2019-02-04T14:55:16Z</time>
      </trkpt>
      <trkpt lat="46.19591" lon="6.46818">
        <ele>1230.14</ele>
        <time>2019-02-04T14:55:29Z</time>
      </trkpt>
      <trkpt lat="46.19596" lon="6.46821">
        <ele>1230.62</ele>
        <time>2019-02-04T14:55:39Z</time>
      </trkpt>
      <trkpt lat="46.19602" lon="6.46825">
        <ele>1231.59</ele>
        <time>2019-02-04T14:55:51Z</time>
      </trkpt>
      <trkpt lat="46.1961" lon="6.46827">
        <ele>1232.07</ele>
        <time>2019-02-04T14:56:06Z</time>
      </trkpt>
      <trkpt lat="46.19618" lon="6.46832">
        <ele>1232.55</ele>
        <time>2019-02-04T14:56:16Z</time>
      </trkpt>
      <trkpt lat="46.1963" lon="6.46834">
        <ele>1233.99</ele>
        <time>2019-02-04T14:56:30Z</time>
      </trkpt>
      <trkpt lat="46.1964" lon="6.46836">
        <ele>1234.47</ele>
        <time>2019-02-04T14:56:41Z</time>
      </trkpt>
      <trkpt lat="46.19649" lon="6.46836">
        <ele>1234.47</ele>
        <time>2019-02-04T14:56:49Z</time>
      </trkpt>
      <trkpt lat="46.19653" lon="6.46834">
        <ele>1235.43</ele>
        <time>2019-02-04T14:56:54Z</time>
      </trkpt>
      <trkpt lat="46.19657" lon="6.46832">
        <ele>1235.43</ele>
        <time>2019-02-04T14:56:58Z</time>
      </trkpt>
      <trkpt lat="46.19659" lon="6.46831">
        <ele>1235.91</ele>
        <time>2019-02-04T14:57:00Z</time>
      </trkpt>
      <trkpt lat="46.19661" lon="6.46829">
        <ele>1235.91</ele>
        <time>2019-02-04T14:57:02Z</time>
      </trkpt>
      <trkpt lat="46.19663" lon="6.46826">
        <ele>1236.39</ele>
        <time>2019-02-04T14:57:05Z</time>
      </trkpt>
      <trkpt lat="46.19666" lon="6.46825">
        <ele>1235.91</ele>
        <time>2019-02-04T14:57:08Z</time>
      </trkpt>
      <trkpt lat="46.19673" lon="6.46816">
        <ele>1236.87</ele>
        <time>2019-02-04T14:57:18Z</time>
      </trkpt>
      <trkpt lat="46.19674" lon="6.46814">
        <ele>1236.87</ele>
        <time>2019-02-04T14:57:20Z</time>
      </trkpt>
      <trkpt lat="46.19676" lon="6.4681">
        <ele>1237.35</ele>
        <time>2019-02-04T14:57:23Z</time>
      </trkpt>
      <trkpt lat="46.19678" lon="6.46808">
        <ele>1236.39</ele>
        <time>2019-02-04T14:57:25Z</time>
      </trkpt>
      <trkpt lat="46.19679" lon="6.46807">
        <ele>1236.87</ele>
        <time>2019-02-04T14:57:27Z</time>
      </trkpt>
      <trkpt lat="46.19683" lon="6.46798">
        <ele>1237.35</ele>
        <time>2019-02-04T14:57:38Z</time>
      </trkpt>
      <trkpt lat="46.19683" lon="6.46798">
        <ele>1237.83</ele>
        <time>2019-02-04T14:57:39Z</time>
      </trkpt>
      <trkpt lat="46.19688" lon="6.46786">
        <ele>1238.8</ele>
        <time>2019-02-04T14:57:51Z</time>
      </trkpt>
      <trkpt lat="46.19689" lon="6.46771">
        <ele>1239.76</ele>
        <time>2019-02-04T14:58:03Z</time>
      </trkpt>
      <trkpt lat="46.19689" lon="6.4676">
        <ele>1240.24</ele>
        <time>2019-02-04T14:58:10Z</time>
      </trkpt>
      <trkpt lat="46.19688" lon="6.46755">
        <ele>1240.24</ele>
        <time>2019-02-04T14:58:13Z</time>
      </trkpt>
      <trkpt lat="46.19689" lon="6.46746">
        <ele>1240.24</ele>
        <time>2019-02-04T14:58:19Z</time>
      </trkpt>
      <trkpt lat="46.19689" lon="6.46735">
        <ele>1240.72</ele>
        <time>2019-02-04T14:58:28Z</time>
      </trkpt>
      <trkpt lat="46.1969" lon="6.46733">
        <ele>1240.24</ele>
        <time>2019-02-04T14:58:30Z</time>
      </trkpt>
      <trkpt lat="46.19691" lon="6.46716">
        <ele>1241.2</ele>
        <time>2019-02-04T14:58:44Z</time>
      </trkpt>
      <trkpt lat="46.19692" lon="6.46701">
        <ele>1241.2</ele>
        <time>2019-02-04T14:58:56Z</time>
      </trkpt>
      <trkpt lat="46.19693" lon="6.46698">
        <ele>1240.72</ele>
        <time>2019-02-04T14:58:59Z</time>
      </trkpt>
      <trkpt lat="46.19692" lon="6.46695">
        <ele>1241.68</ele>
        <time>2019-02-04T14:59:01Z</time>
      </trkpt>
      <trkpt lat="46.19693" lon="6.46689">
        <ele>1241.2</ele>
        <time>2019-02-04T14:59:05Z</time>
      </trkpt>
      <trkpt lat="46.19694" lon="6.46686">
        <ele>1241.68</ele>
        <time>2019-02-04T14:59:07Z</time>
      </trkpt>
      <trkpt lat="46.19695" lon="6.46678">
        <ele>1241.68</ele>
        <time>2019-02-04T14:59:13Z</time>
      </trkpt>
      <trkpt lat="46.19696" lon="6.46672">
        <ele>1242.16</ele>
        <time>2019-02-04T14:59:17Z</time>
      </trkpt>
      <trkpt lat="46.197" lon="6.46653">
        <ele>1242.64</ele>
        <time>2019-02-04T14:59:32Z</time>
      </trkpt>
      <trkpt lat="46.19701" lon="6.46649">
        <ele>1242.64</ele>
        <time>2019-02-04T14:59:36Z</time>
      </trkpt>
      <trkpt lat="46.19703" lon="6.46633">
        <ele>1243.12</ele>
        <time>2019-02-04T14:59:48Z</time>
      </trkpt>
      <trkpt lat="46.19703" lon="6.46628">
        <ele>1243.6</ele>
        <time>2019-02-04T14:59:51Z</time>
      </trkpt>
      <trkpt lat="46.19706" lon="6.46611">
        <ele>1243.6</ele>
        <time>2019-02-04T15:00:04Z</time>
      </trkpt>
      <trkpt lat="46.19707" lon="6.46598">
        <ele>1243.6</ele>
        <time>2019-02-04T15:00:14Z</time>
      </trkpt>
      <trkpt lat="46.19708" lon="6.46595">
        <ele>1243.6</ele>
        <time>2019-02-04T15:00:16Z</time>
      </trkpt>
      <trkpt lat="46.1971" lon="6.46586">
        <ele>1243.6</ele>
        <time>2019-02-04T15:00:24Z</time>
      </trkpt>
      <trkpt lat="46.1971" lon="6.46584">
        <ele>1244.08</ele>
        <time>2019-02-04T15:00:26Z</time>
      </trkpt>
      <trkpt lat="46.19713" lon="6.4657">
        <ele>1244.08</ele>
        <time>2019-02-04T15:00:36Z</time>
      </trkpt>
      <trkpt lat="46.19714" lon="6.46563">
        <ele>1244.08</ele>
        <time>2019-02-04T15:00:40Z</time>
      </trkpt>
      <trkpt lat="46.19715" lon="6.46559">
        <ele>1244.08</ele>
        <time>2019-02-04T15:00:43Z</time>
      </trkpt>
      <trkpt lat="46.19717" lon="6.46545">
        <ele>1244.08</ele>
        <time>2019-02-04T15:00:54Z</time>
      </trkpt>
      <trkpt lat="46.1972" lon="6.46536">
        <ele>1244.08</ele>
        <time>2019-02-04T15:01:01Z</time>
      </trkpt>
      <trkpt lat="46.19722" lon="6.46527">
        <ele>1245.04</ele>
        <time>2019-02-04T15:01:13Z</time>
      </trkpt>
      <trkpt lat="46.19722" lon="6.46524">
        <ele>1244.56</ele>
        <time>2019-02-04T15:01:16Z</time>
      </trkpt>
      <trkpt lat="46.19727" lon="6.4651">
        <ele>1245.04</ele>
        <time>2019-02-04T15:01:28Z</time>
      </trkpt>
      <trkpt lat="46.19731" lon="6.46503">
        <ele>1245.53</ele>
        <time>2019-02-04T15:01:36Z</time>
      </trkpt>
      <trkpt lat="46.19737" lon="6.46495">
        <ele>1246.01</ele>
        <time>2019-02-04T15:01:47Z</time>
      </trkpt>
      <trkpt lat="46.19741" lon="6.4649">
        <ele>1246.01</ele>
        <time>2019-02-04T15:01:59Z</time>
      </trkpt>
      <trkpt lat="46.19744" lon="6.46481">
        <ele>1246.01</ele>
        <time>2019-02-04T15:02:06Z</time>
      </trkpt>
      <trkpt lat="46.19748" lon="6.46466">
        <ele>1246.97</ele>
        <time>2019-02-04T15:02:18Z</time>
      </trkpt>
      <trkpt lat="46.1975" lon="6.46461">
        <ele>1246.97</ele>
        <time>2019-02-04T15:02:22Z</time>
      </trkpt>
      <trkpt lat="46.1975" lon="6.46458">
        <ele>1246.97</ele>
        <time>2019-02-04T15:02:24Z</time>
      </trkpt>
      <trkpt lat="46.19752" lon="6.46442">
        <ele>1246.97</ele>
        <time>2019-02-04T15:02:36Z</time>
      </trkpt>
      <trkpt lat="46.19755" lon="6.46425">
        <ele>1246.49</ele>
        <time>2019-02-04T15:02:48Z</time>
      </trkpt>
      <trkpt lat="46.19756" lon="6.46424">
        <ele>1246.01</ele>
        <time>2019-02-04T15:03:05Z</time>
      </trkpt>
      <trkpt lat="46.19756" lon="6.46424">
        <ele>1245.53</ele>
        <time>2019-02-04T15:03:27Z</time>
      </trkpt>
      <trkpt lat="46.19755" lon="6.46424">
        <ele>1246.49</ele>
        <time>2019-02-04T15:03:49Z</time>
      </trkpt>
      <trkpt lat="46.19755" lon="6.46423">
        <ele>1246.01</ele>
        <time>2019-02-04T15:04:31Z</time>
      </trkpt>
      <trkpt lat="46.19758" lon="6.46422">
        <ele>1246.49</ele>
        <time>2019-02-04T15:04:53Z</time>
      </trkpt>
      <trkpt lat="46.19759" lon="6.46422">
        <ele>1245.53</ele>
        <time>2019-02-04T15:05:07Z</time>
      </trkpt>
      <trkpt lat="46.1976" lon="6.46421">
        <ele>1245.04</ele>
        <time>2019-02-04T15:05:24Z</time>
      </trkpt>
      <trkpt lat="46.19765" lon="6.46412">
        <ele>1245.53</ele>
        <time>2019-02-04T15:05:37Z</time>
      </trkpt>
      <trkpt lat="46.19766" lon="6.4641">
        <ele>1246.01</ele>
        <time>2019-02-04T15:05:39Z</time>
      </trkpt>
      <trkpt lat="46.19773" lon="6.46407">
        <ele>1245.53</ele>
        <time>2019-02-04T15:05:46Z</time>
      </trkpt>
      <trkpt lat="46.19774" lon="6.46405">
        <ele>1245.53</ele>
        <time>2019-02-04T15:05:48Z</time>
      </trkpt>
      <trkpt lat="46.19779" lon="6.46403">
        <ele>1246.01</ele>
        <time>2019-02-04T15:05:53Z</time>
      </trkpt>
      <trkpt lat="46.19792" lon="6.46397">
        <ele>1245.53</ele>
        <time>2019-02-04T15:06:07Z</time>
      </trkpt>
      <trkpt lat="46.19796" lon="6.46387">
        <ele>1246.01</ele>
        <time>2019-02-04T15:06:17Z</time>
      </trkpt>
      <trkpt lat="46.198" lon="6.46375">
        <ele>1246.01</ele>
        <time>2019-02-04T15:06:26Z</time>
      </trkpt>
      <trkpt lat="46.198" lon="6.46372">
        <ele>1245.53</ele>
        <time>2019-02-04T15:06:28Z</time>
      </trkpt>
      <trkpt lat="46.19804" lon="6.46354">
        <ele>1246.49</ele>
        <time>2019-02-04T15:06:41Z</time>
      </trkpt>
      <trkpt lat="46.19805" lon="6.46353">
        <ele>1245.53</ele>
        <time>2019-02-04T15:06:54Z</time>
      </trkpt>
    </trkseg>
  </trk>
</gpx>